Provisional Data: Little Pine Creek near Waterville, PA


Please select a monitoring station.
Please select start date.
Please select start date.

Toggle Unit: C/F Toggle Unit: C/F
Sample Time Temperature (C) Temperature (F) Specific Conductivity (mS/cm) pH   Turbidity (NTU+) DO (mg/L)
4/18/2023 12:00:00 AM 12.78 55.004 0.119 6.98 2.4 9.95
4/18/2023 12:15:00 AM 12.77 54.986 0.119 6.98 2.49 9.95
4/18/2023 12:30:00 AM 12.79 55.022 0.119 6.97 2.45 9.94
4/18/2023 12:45:00 AM 12.8 55.04 0.119 6.98 2.38 9.94
4/18/2023 1:00:00 AM 12.75 54.95 0.119 6.98 2.43 9.95
4/18/2023 1:15:00 AM 12.74 54.932 0.119 6.97 4.88 9.96
4/18/2023 1:30:00 AM 12.72 54.896 0.119 6.96 3.73 9.96
4/18/2023 1:45:00 AM 12.72 54.896 0.119 6.96 4.16 9.96
4/18/2023 2:00:00 AM 12.71 54.878 0.119 6.96 2.94 9.97
4/18/2023 2:15:00 AM 12.67 54.806 0.119 6.96 2.39 9.98
4/18/2023 2:30:00 AM 12.64 54.752 0.119 6.96 2.38 9.99
4/18/2023 2:45:00 AM 12.58 54.644 0.119 6.96 2.6 10.01
4/18/2023 3:00:00 AM 12.52 54.536 0.119 6.96 2.48 10.02
4/18/2023 3:15:00 AM 12.46 54.428 0.119 6.96 2.44 10.04
4/18/2023 3:30:00 AM 12.4 54.32 0.119 6.96 2.45 10.05
4/18/2023 3:45:00 AM 12.34 54.212 0.119 6.96 2.41 10.07
4/18/2023 4:00:00 AM 12.28 54.104 0.119 6.95 2.47 10.08
4/18/2023 4:15:00 AM 12.23 54.014 0.119 6.95 2.45 10.09
4/18/2023 4:30:00 AM 12.2 53.96 0.119 6.95 2.4 10.1
4/18/2023 4:45:00 AM 12.16 53.888 0.119 6.94 2.4 10.1
4/18/2023 5:00:00 AM 12.13 53.834 0.119 6.95 2.44 10.11
4/18/2023 5:15:00 AM 12.07 53.726 0.119 6.95 2.47 10.12
4/18/2023 5:30:00 AM 12.01 53.618 0.119 6.95 2.39 10.13
4/18/2023 5:45:00 AM 12 53.6 0.119 6.95 2.4 10.14
4/18/2023 6:00:00 AM 11.98 53.564 0.119 6.95 2.38 10.14
4/18/2023 6:15:00 AM 11.95 53.51 0.119 6.95 2.45 10.15
4/18/2023 6:30:00 AM 11.9 53.42 0.119 6.95 2.44 10.17
4/18/2023 6:45:00 AM 11.88 53.384 0.119 6.95 2.41 10.19
4/18/2023 7:00:00 AM 11.88 53.384 0.119 6.96 2.35 10.23
4/18/2023 7:15:00 AM 11.88 53.384 0.119 6.96 2.35 10.27
4/18/2023 7:30:00 AM 11.89 53.402 0.119 6.97 2.32 10.32
4/18/2023 7:45:00 AM 11.9 53.42 0.119 6.99 2.33 10.4
4/18/2023 8:00:00 AM 11.91 53.438 0.119 7.01 2.34 10.51
4/18/2023 8:15:00 AM 11.91 53.438 0.119 7.04 2.23 10.64
4/18/2023 8:30:00 AM 11.9 53.42 0.118 7.07 2.23 10.78
4/18/2023 8:45:00 AM 11.93 53.474 0.118 7.09 2.28 10.89
4/18/2023 9:00:00 AM 11.96 53.528 0.118 7.12 2.28 10.94
4/18/2023 9:15:00 AM 11.96 53.528 0.118 7.14 2.26 11
4/18/2023 9:30:00 AM 11.94 53.492 0.118 7.16 2.22 11.06
4/18/2023 9:45:00 AM 11.91 53.438 0.118 7.18 2.26 11.11
4/18/2023 10:00:00 AM 11.91 53.438 0.118 7.19 2.24 11.14
4/18/2023 10:15:00 AM 11.87 53.366 0.117 7.21 2.24 11.17
4/18/2023 10:30:00 AM 11.87 53.366 0.117 7.21 2.27 11.2
4/18/2023 10:45:00 AM 11.92 53.456 0.117 7.23 2.23 11.25
4/18/2023 11:00:00 AM 11.97 53.546 0.117 7.25 2.18 11.29
4/18/2023 11:15:00 AM 12.01 53.618 0.117 7.27 2.17 11.33
4/18/2023 11:30:00 AM 12.12 53.816 0.117 7.3 2.18 11.37
4/18/2023 11:45:00 AM 12.26 54.068 0.117 7.32 2.21 11.39
4/18/2023 12:00:00 PM 12.36 54.248 0.117 7.34 2.18 11.39
4/18/2023 12:15:00 PM 12.31 54.158 0.117 7.33 2.15 11.33
4/18/2023 12:30:00 PM 12.38 54.284 0.117 7.35 2.21 11.35
4/18/2023 12:45:00 PM 12.33 54.194 0.117 7.34 2.15 11.32
4/18/2023 1:00:00 PM 12.33 54.194 0.117 7.35 2.27 11.32
4/18/2023 1:15:00 PM 12.41 54.338 0.117 7.37 2.26 11.36
4/18/2023 1:30:00 PM 12.39 54.302 0.117 7.36 1.92 11.33
4/18/2023 1:45:00 PM 12.26 54.068 0.117 7.36 2.19 11.31
4/18/2023 2:00:00 PM 12.27 54.086 0.117 7.37 2.53 11.32
4/18/2023 2:15:00 PM 12.3 54.14 0.117 7.38 2.18 11.32
4/18/2023 2:30:00 PM 12.27 54.086 0.117 7.37 2.19 11.29
4/18/2023 2:45:00 PM 12.21 53.978 0.117 7.37 2.15 11.29
4/18/2023 3:00:00 PM 12.14 53.852 0.117 7.36 2.16 11.28
4/18/2023 3:15:00 PM 12.09 53.762 0.117 7.35 2.2 11.24
4/18/2023 3:30:00 PM 12.04 53.672 0.117 7.32 2.17 11.21
4/18/2023 3:45:00 PM 11.84 53.312 0.117 7.31 2.29 11.18
4/18/2023 4:00:00 PM 11.79 53.222 0.117 7.29 2.19 11.15
4/18/2023 4:15:00 PM 11.71 53.078 0.117 7.26 2.18 11.1
4/18/2023 4:30:00 PM 11.65 52.97 0.118 7.23 2.19 11.04
4/18/2023 4:45:00 PM 11.61 52.898 0.118 7.23 2.16 11.06
4/18/2023 5:00:00 PM 11.55 52.79 0.118 7.21 2.23 11.02
4/18/2023 5:15:00 PM 11.51 52.718 0.118 7.21 2.2 11.06
4/18/2023 5:30:00 PM 11.49 52.682 0.118 7.21 2.22 11.07
4/18/2023 5:45:00 PM 11.48 52.664 0.118 7.21 2.16 11.09
4/18/2023 6:00:00 PM 11.44 52.592 0.118 7.22 2.2 11.1
4/18/2023 6:15:00 PM 11.37 52.466 0.118 7.2 2.25 11.06
4/18/2023 6:30:00 PM 11.36 52.448 0.118 7.19 2.18 11.04
4/18/2023 6:45:00 PM 11.29 52.322 0.118 7.17 2.16 11.02
4/18/2023 7:00:00 PM 11.29 52.322 0.118 7.16 2.17 10.98
4/18/2023 7:15:00 PM 11.23 52.214 0.118 7.13 2.22 10.91
4/18/2023 7:30:00 PM 11.16 52.088 0.119 7.11 2.19 10.86
4/18/2023 7:45:00 PM 11.08 51.944 0.119 7.09 2.22 10.82
4/18/2023 8:00:00 PM 11.03 51.854 0.119 7.07 2.23 10.77
4/18/2023 8:15:00 PM 10.99 51.782 0.119 7.06 2.28 10.72
4/18/2023 8:30:00 PM 10.94 51.692 0.119 7.04 2.29 10.69
4/18/2023 8:45:00 PM 10.92 51.656 0.119 6.97 2.39 10.67
4/18/2023 9:00:00 PM 10.9 51.62 0.119 6.98 2.45 10.64
4/18/2023 9:15:00 PM 10.89 51.602 0.119 6.98 2.34 10.62
4/18/2023 9:30:00 PM 10.88 51.584 0.119 6.99 2.37 10.6
4/18/2023 9:45:00 PM 10.88 51.584 0.119 6.98 2.34 10.59
4/18/2023 10:00:00 PM 10.87 51.566 0.12 6.98 2.35 10.58
4/18/2023 10:15:00 PM 10.86 51.548 0.119 6.98 2.28 10.58
4/18/2023 10:30:00 PM 10.84 51.512 0.119 6.98 2.33 10.57
4/18/2023 10:45:00 PM 10.84 51.512 0.119 6.97 2.36 10.56
4/18/2023 11:00:00 PM 10.85 51.53 0.119 6.97 2.3 10.55
4/18/2023 11:15:00 PM 10.86 51.548 0.119 6.97 2.33 10.54
4/18/2023 11:30:00 PM 10.87 51.566 0.119 6.97 2.3 10.53
4/18/2023 11:45:00 PM 10.89 51.602 0.119 6.97 2.43 10.53
4/19/2023 12:00:00 AM 10.91 51.638 0.119 6.97 2.31 10.51
4/19/2023 12:15:00 AM 10.93 51.674 0.119 6.97 2.49 10.51
4/19/2023 12:30:00 AM 10.95 51.71 0.119 6.97 2.39 10.5
4/19/2023 12:45:00 AM 10.97 51.746 0.119 6.96 2.36 10.5
4/19/2023 1:00:00 AM 10.98 51.764 0.119 6.96 2.3 10.5
4/19/2023 1:15:00 AM 10.99 51.782 0.119 6.96 2.3 10.49
4/19/2023 1:30:00 AM 11 51.8 0.119 6.96 2.29 10.49
4/19/2023 1:45:00 AM 11.01 51.818 0.119 6.96 2.37 10.49
4/19/2023 2:00:00 AM 11.01 51.818 0.119 6.96 2.32 10.49
4/19/2023 2:15:00 AM 11.01 51.818 0.119 6.95 2.31 10.49
4/19/2023 2:30:00 AM 11.01 51.818 0.119 6.96 2.27 10.49
4/19/2023 2:45:00 AM 10.99 51.782 0.119 6.95 2.3 10.5
4/19/2023 3:00:00 AM 10.97 51.746 0.119 6.95 2.26 10.51
4/19/2023 3:15:00 AM 10.95 51.71 0.119 6.95 2.26 10.52
4/19/2023 3:30:00 AM 10.91 51.638 0.119 6.95 2.3 10.53
4/19/2023 3:45:00 AM 10.87 51.566 0.119 6.95 2.29 10.54
4/19/2023 4:00:00 AM 10.82 51.476 0.119 6.95 2.33 10.56
4/19/2023 4:15:00 AM 10.76 51.368 0.119 6.94 2.31 10.58
4/19/2023 4:30:00 AM 10.71 51.278 0.119 6.94 2.36 10.6
4/19/2023 4:45:00 AM 10.65 51.17 0.119 6.94 2.34 10.62
4/19/2023 5:00:00 AM 10.59 51.062 0.119 6.94 2.3 10.63
4/19/2023 5:15:00 AM 10.54 50.972 0.119 6.92 2.27 10.65
4/19/2023 5:30:00 AM 10.5 50.9 0.119 6.93 2.3 10.66
4/19/2023 5:45:00 AM 10.47 50.846 0.119 6.93 2.39 10.67
4/19/2023 6:00:00 AM 10.45 50.81 0.119 6.93 2.26 10.67
4/19/2023 6:15:00 AM 10.44 50.792 0.119 6.93 2.24 10.68
4/19/2023 6:30:00 AM 10.43 50.774 0.119 6.93 2.29 10.69
4/19/2023 6:45:00 AM 10.42 50.756 0.119 6.94 5.69 10.72
4/19/2023 7:00:00 AM 10.42 50.756 0.119 6.95 2.24 10.77
4/19/2023 7:15:00 AM 10.43 50.774 0.119 6.96 2.19 10.86
4/19/2023 7:30:00 AM 10.44 50.792 0.119 6.98 2.16 10.96
4/19/2023 7:45:00 AM 10.46 50.828 0.119 7.01 2.18 11.06
4/19/2023 8:00:00 AM 10.48 50.864 0.119 7.03 2.12 11.15
4/19/2023 8:15:00 AM 10.49 50.882 0.118 7.05 2.1 11.23
4/19/2023 8:30:00 AM 10.5 50.9 0.118 7.08 2.16 11.33
4/19/2023 8:45:00 AM 10.51 50.918 0.118 7.1 2.12 11.42
4/19/2023 9:00:00 AM 10.56 51.008 0.118 7.14 2.13 11.52
4/19/2023 9:15:00 AM 10.61 51.098 0.118 7.17 2.13 11.6
4/19/2023 9:30:00 AM 10.7 51.26 0.118 7.19 2.07 11.66
4/19/2023 9:45:00 AM 10.79 51.422 0.118 7.21 2.11 11.7
4/19/2023 10:00:00 AM 10.82 51.476 0.118 7.23 2.12 11.72
4/19/2023 10:15:00 AM 10.93 51.674 0.118 7.24 2.11 11.75
4/19/2023 10:30:00 AM 10.99 51.782 0.118 7.25 2.07 11.76
4/19/2023 10:45:00 AM 11.08 51.944 0.118 7.27 2.11 11.77
4/19/2023 11:00:00 AM 11.2 52.16 0.118 7.28 2.04 11.78
4/19/2023 11:15:00 AM 11.33 52.394 0.118 7.29 2.01 11.79
4/19/2023 11:30:00 AM 11.52 52.736 0.118 7.3 2.09 11.78
4/19/2023 11:45:00 AM 11.77 53.186 0.118 7.32 2.13 11.78
4/19/2023 12:00:00 PM 11.99 53.582 0.118 7.33 2.13 11.76
4/19/2023 12:15:00 PM 12.26 54.068 0.118 7.34 2.11 11.74
4/19/2023 12:30:00 PM 12.52 54.536 0.118 7.36 2.2 11.7
4/19/2023 12:45:00 PM 12.86 55.148 0.118 7.38 2.11 11.69
4/19/2023 1:00:00 PM 13.14 55.652 0.118 7.39 2.14 11.66
4/19/2023 1:15:00 PM 13.32 55.976 0.118 7.41 2.11 11.63
4/19/2023 1:30:00 PM 13.53 56.354 0.118 7.41 2.16 11.58
4/19/2023 1:45:00 PM 13.84 56.912 0.118 7.43 2.18 11.56
4/19/2023 2:00:00 PM 13.99 57.182 0.118 7.44 2.06 11.52
4/19/2023 2:15:00 PM 14.18 57.524 0.118 7.45 2.1 11.48
4/19/2023 2:30:00 PM 14.45 58.01 0.118 7.46 2.17 11.44
4/19/2023 2:45:00 PM 14.67 58.406 0.118 7.47 2.1 11.4
4/19/2023 3:00:00 PM 14.82 58.676 0.118 7.48 2.04 11.33
4/19/2023 3:15:00 PM 14.96 58.928 0.118 7.5 2.22 11.28
4/19/2023 3:30:00 PM 15.1 59.18 0.118 7.51 2.18 11.23
4/19/2023 3:45:00 PM 15.19 59.342 0.118 7.52 2.22 11.18
4/19/2023 4:00:00 PM 15.26 59.468 0.118 7.52 2.23 11.12
4/19/2023 4:15:00 PM 15.25 59.45 0.118 7.51 2.39 11.07
4/19/2023 4:30:00 PM 15.2 59.36 0.118 7.51 2.32 11.02
4/19/2023 4:45:00 PM 15.1 59.18 0.118 7.49 2.24 10.96
4/19/2023 5:00:00 PM 14.88 58.784 0.118 7.44 57.18 10.9
4/19/2023 5:15:00 PM 14.58 58.244 0.118 7.42 2.28 10.81
4/19/2023 5:30:00 PM 14.39 57.902 0.118 7.39 2.27 10.76
4/19/2023 5:45:00 PM 14.26 57.668 0.118 7.36 2.19 10.72
4/19/2023 6:00:00 PM 14.13 57.434 0.118 7.34 2.4 10.69
4/19/2023 6:15:00 PM 14 57.2 0.118 7.32 2.25 10.67
4/19/2023 6:30:00 PM 13.88 56.984 0.118 7.29 2.23 10.65
4/19/2023 6:45:00 PM 13.73 56.714 0.118 7.27 2.31 10.62
4/19/2023 7:00:00 PM 13.59 56.462 0.119 7.25 2.24 10.6
4/19/2023 7:15:00 PM 13.44 56.192 0.119 7.23 2.25 10.56
4/19/2023 7:30:00 PM 13.3 55.94 0.119 7.21 2.38 10.52
4/19/2023 7:45:00 PM 13.16 55.688 0.119 7.18 2.22 10.46
4/19/2023 8:00:00 PM 13.02 55.436 0.119 7.15 2.32 10.4
4/19/2023 8:15:00 PM 12.89 55.202 0.119 7.13 2.34 10.35
4/19/2023 8:30:00 PM 12.75 54.95 0.12 7.1 2.38 10.33
4/19/2023 8:45:00 PM 12.62 54.716 0.12 7.09 2.51 10.31
4/19/2023 9:00:00 PM 12.49 54.482 0.12 7.07 2.36 10.31
4/19/2023 9:15:00 PM 12.35 54.23 0.12 7.06 2.47 10.31
4/19/2023 9:30:00 PM 12.22 53.996 0.12 7.05 2.51 10.33
4/19/2023 9:45:00 PM 12.08 53.744 0.12 7.04 2.5 10.35
4/19/2023 10:00:00 PM 11.94 53.492 0.12 7.04 2.46 10.37
4/19/2023 10:15:00 PM 11.8 53.24 0.12 7.03 2.42 10.39
4/19/2023 10:30:00 PM 11.66 52.988 0.121 7.02 2.51 10.42
4/19/2023 10:45:00 PM 11.54 52.772 0.121 7.01 2.52 10.44
4/19/2023 11:00:00 PM 11.43 52.574 0.121 7.01 2.4 10.46
4/19/2023 11:15:00 PM 11.34 52.412 0.121 7.01 2.43 10.47
4/19/2023 11:30:00 PM 11.27 52.286 0.121 7 2.36 10.48
4/19/2023 11:45:00 PM 11.23 52.214 0.121 7 2.6 10.49
4/20/2023 12:00:00 AM 11.2 52.16 0.121 6.99 2.44 10.5
4/20/2023 12:15:00 AM 11.18 52.124 0.121 6.99 2.39 10.51
4/20/2023 12:30:00 AM 11.15 52.07 0.121 6.99 2.31 10.53
4/20/2023 12:45:00 AM 11.11 51.998 0.121 6.98 2.36 10.54
4/20/2023 1:00:00 AM 11.07 51.926 0.121 6.98 2.38 10.55
4/20/2023 1:15:00 AM 11.02 51.836 0.121 6.98 2.59 10.57
4/20/2023 1:30:00 AM 10.98 51.764 0.121 6.98 2.34 10.59
4/20/2023 1:45:00 AM 10.94 51.692 0.121 6.97 2.43 10.6
4/20/2023 2:00:00 AM 10.91 51.638 0.121 6.97 2.38 10.61
4/20/2023 2:15:00 AM 10.88 51.584 0.121 6.97 2.32 10.62
4/20/2023 2:30:00 AM 10.85 51.53 0.121 6.97 2.26 10.63
4/20/2023 2:45:00 AM 10.83 51.494 0.121 6.97 2.4 10.64
4/20/2023 3:00:00 AM 10.81 51.458 0.121 6.97 2.31 10.65
4/20/2023 3:15:00 AM 10.8 51.44 0.121 6.97 2.26 10.65
4/20/2023 3:30:00 AM 10.8 51.44 0.121 6.96 2.28 10.65
4/20/2023 3:45:00 AM 10.79 51.422 0.121 6.96 2.34 10.65
4/20/2023 4:00:00 AM 10.79 51.422 0.121 6.96 2.41 10.65
4/20/2023 4:15:00 AM 10.78 51.404 0.121 6.96 2.29 10.65
4/20/2023 4:30:00 AM 10.77 51.386 0.121 6.96 2.22 10.65
4/20/2023 4:45:00 AM 10.75 51.35 0.121 6.96 2.55 10.65
4/20/2023 5:00:00 AM 10.73 51.314 0.121 6.96 2.34 10.65
4/20/2023 5:15:00 AM 10.7 51.26 0.121 6.96 2.27 10.66
4/20/2023 5:30:00 AM 10.68 51.224 0.121 6.96 2.23 10.66
4/20/2023 5:45:00 AM 10.67 51.206 0.121 6.96 2.27 10.66
4/20/2023 6:00:00 AM 10.66 51.188 0.121 6.95 2.31 10.66
4/20/2023 6:15:00 AM 10.64 51.152 0.12 6.95 2.39 10.66
4/20/2023 6:30:00 AM 10.63 51.134 0.12 6.95 2.25 10.68
4/20/2023 6:45:00 AM 10.63 51.134 0.12 6.96 2.28 10.71
4/20/2023 7:00:00 AM 10.62 51.116 0.12 6.97 2.2 10.76
4/20/2023 7:15:00 AM 10.63 51.134 0.12 6.98 2.13 10.85
4/20/2023 7:30:00 AM 10.63 51.134 0.12 7 2.14 10.94
4/20/2023 7:45:00 AM 10.64 51.152 0.12 7.02 2.16 11.02
4/20/2023 8:00:00 AM 10.66 51.188 0.12 7.04 2.18 11.11
4/20/2023 8:15:00 AM 10.7 51.26 0.119 7.06 2.15 11.21
4/20/2023 8:30:00 AM 10.8 51.44 0.119 7.09 2.37 11.34
4/20/2023 8:45:00 AM 10.87 51.566 0.119 7.12 2.1 11.42
4/20/2023 9:00:00 AM 10.93 51.674 0.119 7.15 2.14 11.5
4/20/2023 9:15:00 AM 10.98 51.764 0.119 7.17 2.17 11.54
4/20/2023 9:30:00 AM 11.04 51.872 0.119 7.19 2.14 11.59
4/20/2023 9:45:00 AM 11.13 52.034 0.119 7.22 2.1 11.66
4/20/2023 10:00:00 AM 11.3 52.34 0.118 7.25 2.28 11.7
4/20/2023 10:15:00 AM 11.48 52.664 0.118 7.27 2.22 11.73
4/20/2023 10:30:00 AM 11.63 52.934 0.118 7.29 2.05 11.74
4/20/2023 10:45:00 AM 11.81 53.258 0.118 7.31 2.1 11.74
4/20/2023 11:00:00 AM 12 53.6 0.118 7.33 2.24 11.75
4/20/2023 11:15:00 AM 12.19 53.942 0.118 7.35 2.11 11.74
4/20/2023 11:30:00 AM 12.4 54.32 0.118 7.36 2.2 11.72
4/20/2023 11:45:00 AM 12.61 54.698 0.118 7.38 2.1 11.71
4/20/2023 12:00:00 PM 12.84 55.112 0.118 7.4 2.13 11.68
4/20/2023 12:15:00 PM 13.11 55.598 0.118 7.41 2.05 11.66
4/20/2023 12:30:00 PM 13.43 56.174 0.118 7.43 2.09 11.62
4/20/2023 12:45:00 PM 13.78 56.804 0.118 7.45 2.15 11.58
4/20/2023 1:00:00 PM 14.15 57.47 0.118 7.46 2.18 11.52
4/20/2023 1:15:00 PM 14.53 58.154 0.118 7.48 2.17 11.47
4/20/2023 1:30:00 PM 14.88 58.784 0.118 7.5 2.09 11.41
4/20/2023 1:45:00 PM 15.23 59.414 0.118 7.51 2.14 11.36
4/20/2023 2:00:00 PM 15.56 60.008 0.118 7.53 2.03 11.3
4/20/2023 2:15:00 PM 15.88 60.584 0.118 7.54 2.23 11.25
4/20/2023 2:30:00 PM 16.16 61.088 0.118 7.56 2.16 11.19
4/20/2023 2:45:00 PM 16.41 61.538 0.118 7.57 2.26 11.14
4/20/2023 3:00:00 PM 16.61 61.898 0.118 7.59 2.22 11.09
4/20/2023 3:15:00 PM 16.63 61.934 0.118 7.6 2.53 11.06
4/20/2023 3:30:00 PM 16.62 61.916 0.119 7.62 2.58 11.04
4/20/2023 3:45:00 PM 16.67 62.006 0.119 7.64 2.21 11.01
4/20/2023 4:00:00 PM 16.76 62.168 0.119 7.65 2.15 11
4/20/2023 4:15:00 PM 16.66 61.988 0.119 7.66 2.28 10.97
4/20/2023 4:30:00 PM 16.46 61.628 0.119 7.65 2.08 10.94
4/20/2023 4:45:00 PM 16.28 61.304 0.119 7.64 2.15 10.92
4/20/2023 5:00:00 PM 16.13 61.034 0.119 7.62 2.1 10.89
4/20/2023 5:15:00 PM 15.8 60.44 0.119 7.57 2.28 10.81
4/20/2023 5:30:00 PM 15.56 60.008 0.12 7.53 2.31 10.77
4/20/2023 5:45:00 PM 15.39 59.702 0.12 7.51 2.1 10.76
4/20/2023 6:00:00 PM 15.29 59.522 0.12 7.5 2.14 10.8
4/20/2023 6:15:00 PM 15.13 59.234 0.12 7.49 2.18 10.79
4/20/2023 6:30:00 PM 14.94 58.892 0.12 7.46 2.17 10.78
4/20/2023 6:45:00 PM 14.71 58.478 0.12 7.41 2.28 10.71
4/20/2023 7:00:00 PM 14.47 58.046 0.12 7.36 2.27 10.64
4/20/2023 7:15:00 PM 14.23 57.614 0.12 7.31 2.28 10.58
4/20/2023 7:30:00 PM 13.99 57.182 0.121 7.27 2.37 10.53
4/20/2023 7:45:00 PM 13.75 56.75 0.121 7.23 2.21 10.48
4/20/2023 8:00:00 PM 13.53 56.354 0.121 7.19 2.3 10.42
4/20/2023 8:15:00 PM 13.32 55.976 0.121 7.16 2.35 10.38
4/20/2023 8:30:00 PM 13.13 55.634 0.121 7.13 2.34 10.35
4/20/2023 8:45:00 PM 12.95 55.31 0.122 7.1 2.43 10.33
4/20/2023 9:00:00 PM 12.77 54.986 0.122 7.08 2.43 10.33
4/20/2023 9:15:00 PM 12.61 54.698 0.122 7.07 2.36 10.33
4/20/2023 9:30:00 PM 12.46 54.428 0.122 7.05 2.5 10.34
4/20/2023 9:45:00 PM 12.32 54.176 0.122 7.04 2.38 10.35
4/20/2023 10:00:00 PM 12.18 53.924 0.122 7.03 2.39 10.36
4/20/2023 10:15:00 PM 12.05 53.69 0.123 7.02 2.27 10.37
4/20/2023 10:30:00 PM 11.93 53.474 0.123 7.02 2.31 10.38
4/20/2023 10:45:00 PM 11.83 53.294 0.123 7.01 2.43 10.39
4/20/2023 11:00:00 PM 11.74 53.132 0.123 7 2.36 10.39
4/20/2023 11:15:00 PM 11.66 52.988 0.123 7 2.35 10.41
4/20/2023 11:30:00 PM 11.61 52.898 0.123 7 2.31 10.41
4/20/2023 11:45:00 PM 11.56 52.808 0.123 6.99 2.32 10.41
4/21/2023 12:00:00 AM 11.53 52.754 0.123 6.99 2.21 10.41
4/21/2023 12:15:00 AM 11.51 52.718 0.123 6.98 2.33 10.41
4/21/2023 12:30:00 AM 11.49 52.682 0.123 6.98 2.33 10.41
4/21/2023 12:45:00 AM 11.48 52.664 0.123 6.97 2.27 10.41
4/21/2023 1:00:00 AM 11.48 52.664 0.123 6.97 2.19 10.4
4/21/2023 1:15:00 AM 11.5 52.7 0.123 6.97 2.21 10.39
4/21/2023 1:30:00 AM 11.52 52.736 0.123 6.97 2.31 10.38
4/21/2023 1:45:00 AM 11.54 52.772 0.123 6.96 2.27 10.37
4/21/2023 2:00:00 AM 11.58 52.844 0.123 6.96 2.34 10.36
4/21/2023 2:15:00 AM 11.62 52.916 0.123 6.96 2.26 10.35
4/21/2023 2:30:00 AM 11.65 52.97 0.123 6.96 2.21 10.33
4/21/2023 2:45:00 AM 11.68 53.024 0.123 6.96 2.22 10.32
4/21/2023 3:00:00 AM 11.7 53.06 0.123 6.96 2.18 10.31
4/21/2023 3:15:00 AM 11.73 53.114 0.122 6.96 2.51 10.3
4/21/2023 3:30:00 AM 11.75 53.15 0.122 6.95 2.29 10.29
4/21/2023 3:45:00 AM 11.77 53.186 0.122 6.95 2.18 10.29
4/21/2023 4:00:00 AM 11.8 53.24 0.122 6.95 2.2 10.28
4/21/2023 4:15:00 AM 11.83 53.294 0.122 6.95 2.23 10.27
4/21/2023 4:30:00 AM 11.85 53.33 0.122 6.95 2.17 10.26
4/21/2023 4:45:00 AM 11.88 53.384 0.122 6.95 2.12 10.25
4/21/2023 5:00:00 AM 11.91 53.438 0.122 6.95 2.29 10.24
4/21/2023 5:15:00 AM 11.93 53.474 0.122 6.95 2.35 10.23
4/21/2023 5:30:00 AM 11.95 53.51 0.122 6.95 2.39 10.22
4/21/2023 5:45:00 AM 11.96 53.528 0.122 6.95 2.33 10.22
4/21/2023 6:00:00 AM 11.97 53.546 0.122 6.95 2.19 10.21
4/21/2023 6:15:00 AM 11.98 53.564 0.122 6.95 2.37 10.21
4/21/2023 6:30:00 AM 11.98 53.564 0.122 6.95 2.1 10.23
4/21/2023 6:45:00 AM 11.98 53.564 0.122 6.96 2.24 10.28
4/21/2023 7:00:00 AM 11.99 53.582 0.122 6.97 2.23 10.35
4/21/2023 7:15:00 AM 12 53.6 0.122 6.99 2.13 10.42
4/21/2023 7:30:00 AM 12.01 53.618 0.122 7 2.2 10.51
4/21/2023 7:45:00 AM 12.02 53.636 0.121 7.02 2.1 10.59
4/21/2023 8:00:00 AM 12.03 53.654 0.121 7.04 2.19 10.68
4/21/2023 8:15:00 AM 12.08 53.744 0.121 7.06 2.07 10.79
4/21/2023 8:30:00 AM 12.16 53.888 0.121 7.09 2.11 10.91
4/21/2023 8:45:00 AM 12.26 54.068 0.121 7.12 2.04 10.99
4/21/2023 9:00:00 AM 12.36 54.248 0.12 7.15 2.15 11.05
4/21/2023 9:15:00 AM 12.48 54.464 0.12 7.17 2.04 11.11
4/21/2023 9:30:00 AM 12.6 54.68 0.12 7.19 2.09 11.16
4/21/2023 9:45:00 AM 12.73 54.914 0.12 7.22 2.08 11.2
4/21/2023 10:00:00 AM 12.87 55.166 0.12 7.25 2.08 11.24
4/21/2023 10:15:00 AM 13.04 55.472 0.12 7.27 2.11 11.27
4/21/2023 10:30:00 AM 13.24 55.832 0.12 7.3 2.04 11.29
4/21/2023 10:45:00 AM 13.44 56.192 0.12 7.33 2.08 11.3
4/21/2023 11:00:00 AM 13.64 56.552 0.119 7.35 2.1 11.32
4/21/2023 11:15:00 AM 13.87 56.966 0.119 7.38 2.08 11.32
4/21/2023 11:30:00 AM 14.14 57.452 0.119 7.41 2.09 11.31
4/21/2023 11:45:00 AM 14.44 57.992 0.119 7.43 2.07 11.3
4/21/2023 12:00:00 PM 14.76 58.568 0.119 7.46 2.03 11.28
4/21/2023 12:15:00 PM 15.11 59.198 0.119 7.48 2.17 11.26
4/21/2023 12:30:00 PM 15.48 59.864 0.119 7.5 2 11.22
4/21/2023 12:45:00 PM 15.86 60.548 0.119 7.53 2.05 11.17
4/21/2023 1:00:00 PM 16.24 61.232 0.119 7.56 2.12 11.12
4/21/2023 1:15:00 PM 16.63 61.934 0.119 7.58 2.12 11.07
4/21/2023 1:30:00 PM 17.02 62.636 0.119 7.61 2.25 11
4/21/2023 1:45:00 PM 17.39 63.302 0.119 7.63 2.18 10.95
4/21/2023 2:00:00 PM 17.73 63.914 0.119 7.66 2.11 10.89
4/21/2023 2:15:00 PM 18.03 64.454 0.119 7.68 2.06 10.85
4/21/2023 2:30:00 PM 18.3 64.94 0.119 7.7 2.15 10.79
4/21/2023 2:45:00 PM 18.54 65.372 0.119 7.72 2.11 10.75
4/21/2023 3:00:00 PM 18.63 65.534 0.119 7.73 2.23 10.68
4/21/2023 3:15:00 PM 18.44 65.192 0.119 7.72 2.33 10.61
4/21/2023 3:30:00 PM 18.19 64.742 0.119 7.7 2.18 10.56
4/21/2023 3:45:00 PM 18.18 64.724 0.119 7.72 2.26 10.57
4/21/2023 4:00:00 PM 18 64.4 0.119 7.72 2.1 10.55
4/21/2023 4:15:00 PM 17.9 64.22 0.119 7.73 2.14 10.56
4/21/2023 4:30:00 PM 17.63 63.734 0.12 7.71 2.2 10.55
4/21/2023 4:45:00 PM 17.42 63.356 0.12 7.69 2.38 10.53
4/21/2023 5:00:00 PM 17.15 62.87 0.12 7.63 2.16 10.46
4/21/2023 5:15:00 PM 17.09 62.762 0.12 7.65 2.29 10.54
4/21/2023 5:30:00 PM 16.82 62.276 0.12 7.63 2.2 10.53
4/21/2023 5:45:00 PM 16.59 61.862 0.12 7.58 2.18 10.49
4/21/2023 6:00:00 PM 16.4 61.52 0.121 7.52 2.22 10.42
4/21/2023 6:15:00 PM 16.23 61.214 0.121 7.49 2.24 10.42
4/21/2023 6:30:00 PM 16.06 60.908 0.121 7.48 2.24 10.43
4/21/2023 6:45:00 PM 15.85 60.53 0.121 7.43 2.19 10.38
4/21/2023 7:00:00 PM 15.63 60.134 0.121 7.37 2.33 10.29
4/21/2023 7:15:00 PM 15.42 59.756 0.122 7.31 2.33 10.21
4/21/2023 7:30:00 PM 15.2 59.36 0.122 7.27 2.27 10.14
4/21/2023 7:45:00 PM 14.99 58.982 0.123 7.22 2.4 10.06
4/21/2023 8:00:00 PM 14.77 58.586 0.123 7.18 2.36 10
4/21/2023 8:15:00 PM 14.56 58.208 0.123 7.15 2.54 9.96
4/21/2023 8:30:00 PM 14.37 57.866 0.123 7.12 2.96 9.95
4/21/2023 8:45:00 PM 14.18 57.524 0.123 7.1 2.66 9.94
4/21/2023 9:00:00 PM 14.01 57.218 0.124 7.08 2.76 9.94
4/21/2023 9:15:00 PM 13.86 56.948 0.124 7.07 2.65 9.93
4/21/2023 9:30:00 PM 13.74 56.732 0.124 7.06 2.56 9.93
4/21/2023 9:45:00 PM 13.65 56.57 0.124 7.05 2.57 9.93
4/21/2023 10:00:00 PM 13.57 56.426 0.124 7.04 2.5 9.92
4/21/2023 10:15:00 PM 13.51 56.318 0.124 7.03 2.55 9.91
4/21/2023 10:30:00 PM 13.47 56.246 0.124 7.02 2.52 9.91
4/21/2023 10:45:00 PM 13.44 56.192 0.124 7.02 2.45 9.89
4/21/2023 11:00:00 PM 13.42 56.156 0.124 7.01 2.34 9.89
4/21/2023 11:15:00 PM 13.41 56.138 0.124 7.01 2.5 9.88
4/21/2023 11:30:00 PM 13.37 56.066 0.124 7 2.54 9.87
4/21/2023 11:45:00 PM 13.33 55.994 0.124 7 2.47 9.88
4/22/2023 12:00:00 AM 13.29 55.922 0.124 6.99 2.52 9.89
4/22/2023 12:15:00 AM 13.23 55.814 0.124 6.99 2.48 9.9
4/22/2023 12:30:00 AM 13.15 55.67 0.124 6.98 2.48 9.91
4/22/2023 12:45:00 AM 13.1 55.58 0.124 6.98 2.46 9.92
4/22/2023 1:00:00 AM 13.06 55.508 0.124 6.98 2.87 9.92
4/22/2023 1:15:00 AM 13.07 55.526 0.124 6.97 2.42 9.91
4/22/2023 1:30:00 AM 13.1 55.58 0.124 6.97 2.48 9.89
4/22/2023 1:45:00 AM 13.16 55.688 0.124 6.96 2.43 9.86
4/22/2023 2:00:00 AM 13.23 55.814 0.124 6.96 2.41 9.83
4/22/2023 2:15:00 AM 13.33 55.994 0.123 6.96 2.81 9.8
4/22/2023 2:30:00 AM 13.43 56.174 0.123 6.96 2.36 9.77
4/22/2023 2:45:00 AM 13.54 56.372 0.123 6.96 2.39 9.74
4/22/2023 3:00:00 AM 13.64 56.552 0.123 6.96 2.67 9.71
4/22/2023 3:15:00 AM 13.72 56.696 0.123 6.96 2.32 9.67
4/22/2023 3:30:00 AM 13.79 56.822 0.123 6.95 2.33 9.65
4/22/2023 3:45:00 AM 13.86 56.948 0.123 6.95 2.41 9.64
4/22/2023 4:00:00 AM 13.91 57.038 0.123 6.95 2.43 9.62
4/22/2023 4:15:00 AM 13.95 57.11 0.123 6.96 2.42 9.61
4/22/2023 4:30:00 AM 13.99 57.182 0.123 6.96 2.54 9.61
4/22/2023 4:45:00 AM 14.01 57.218 0.124 6.96 3.28 9.6
4/22/2023 5:00:00 AM 14.01 57.218 0.123 6.96 2.46 9.61
4/22/2023 5:15:00 AM 14.02 57.236 0.123 6.96 2.4 9.6
4/22/2023 5:30:00 AM 14.03 57.254 0.123 6.96 2.4 9.6
4/22/2023 5:45:00 AM 14.03 57.254 0.123 6.97 2.4 9.59
4/22/2023 6:00:00 AM 14.04 57.272 0.123 6.97 2.42 9.6
4/22/2023 6:15:00 AM 14.05 57.29 0.123 6.97 2.42 9.6
4/22/2023 6:30:00 AM 14.06 57.308 0.123 6.97 2.42 9.6
4/22/2023 6:45:00 AM 14.08 57.344 0.123 6.98 2.39 9.64
4/22/2023 7:00:00 AM 14.11 57.398 0.123 6.99 2.27 9.72
4/22/2023 7:15:00 AM 14.15 57.47 0.123 7.01 2.24 9.83
4/22/2023 7:30:00 AM 14.19 57.542 0.123 7.04 2.32 9.94
4/22/2023 7:45:00 AM 14.23 57.614 0.123 7.06 2.3 10.04
4/22/2023 8:00:00 AM 14.25 57.65 0.123 7.09 2.3 10.15
4/22/2023 8:15:00 AM 14.29 57.722 0.122 7.12 2.33 10.25
4/22/2023 8:30:00 AM 14.32 57.776 0.122 7.14 2.51 10.35
4/22/2023 8:45:00 AM 14.4 57.92 0.122 7.18 2.25 10.47
4/22/2023 9:00:00 AM 14.51 58.118 0.122 7.23 2.47 10.6
4/22/2023 9:15:00 AM 14.67 58.406 0.122 7.27 2.24 10.72
4/22/2023 9:30:00 AM 14.83 58.694 0.121 7.32 2.29 10.8
4/22/2023 9:45:00 AM 14.92 58.856 0.121 7.37 2.2 10.88
4/22/2023 10:00:00 AM 15.02 59.036 0.121 7.42 2.31 10.94
4/22/2023 10:15:00 AM 15.11 59.198 0.121 7.46 2.27 10.99
4/22/2023 10:30:00 AM 15.16 59.288 0.121 7.5 2.23 11.02
4/22/2023 10:45:00 AM 15.22 59.396 0.121 7.53 2.17 11.03
4/22/2023 11:00:00 AM 15.32 59.576 0.121 7.57 2.27 11.05
4/22/2023 11:15:00 AM 15.42 59.756 0.12 7.6 2.2 11.07
4/22/2023 11:30:00 AM 15.5 59.9 0.12 7.63 2.19 11.07
4/22/2023 11:45:00 AM 15.51 59.918 0.12 7.64 2.29 11.04
4/22/2023 12:00:00 PM 15.46 59.828 0.12 7.55 2.36 10.84
4/22/2023 12:15:00 PM 15.44 59.792 0.12 7.49 2.13 10.73
4/22/2023 12:30:00 PM 15.44 59.792 0.12 7.48 2.16 10.69
4/22/2023 12:45:00 PM 15.43 59.774 0.12 7.43 2.13 10.59
4/22/2023 1:00:00 PM 15.48 59.864 0.12 7.46 2.42 10.63
4/22/2023 1:15:00 PM 15.5 59.9 0.12 7.48 2.19 10.65
4/22/2023 1:30:00 PM 15.68 60.224 0.12 7.55 2.21 10.77
4/22/2023 1:45:00 PM 15.94 60.692 0.12 7.62 2.2 10.83
4/22/2023 2:00:00 PM 16.09 60.962 0.12 7.68 2.18 10.87
4/22/2023 2:15:00 PM 16.13 61.034 0.12 7.7 2.33 10.82
4/22/2023 2:30:00 PM 16 60.8 0.12 7.68 2.34 10.78
4/22/2023 2:45:00 PM 15.86 60.548 0.12 7.59 2.3 10.61
4/22/2023 3:00:00 PM 15.73 60.314 0.121 7.48 2.44 10.42
4/22/2023 3:15:00 PM 15.6 60.08 0.121 7.39 2.37 10.25
4/22/2023 3:30:00 PM 15.45 59.81 0.12 7.33 2.42 10.15
4/22/2023 3:45:00 PM 15.33 59.594 0.12 7.31 4.31 10.12
4/22/2023 4:00:00 PM 15.23 59.414 0.12 7.35 4.22 10.14
4/22/2023 4:15:00 PM 15.13 59.234 0.12 7.32 3.17 10.19
4/22/2023 4:30:00 PM 15.04 59.072 0.12 7.3 2.85 10.18
4/22/2023 4:45:00 PM 14.95 58.91 0.12 7.27 3.48 10.13
4/22/2023 5:00:00 PM 14.85 58.73 0.12 7.24 8.03 10.06
4/22/2023 5:15:00 PM 14.75 58.55 0.12 7.21 3.68 10.02
4/22/2023 5:30:00 PM 14.67 58.406 0.119 7.23 3.95 10.09
4/22/2023 5:45:00 PM 14.56 58.208 0.119 7.23 3.35 10.18
4/22/2023 6:00:00 PM 14.45 58.01 0.119 7.23 3.33 10.25
4/22/2023 6:15:00 PM 14.34 57.812 0.12 7.23 3.52 10.29
4/22/2023 6:30:00 PM 14.2 57.56 0.12 7.21 3.27 10.25
4/22/2023 6:45:00 PM 14.07 57.326 0.12 7.18 3 10.19
4/22/2023 7:00:00 PM 13.95 57.11 0.12 7.15 2.74 10.13
4/22/2023 7:15:00 PM 13.83 56.894 0.12 7.13 2.69 10.1
4/22/2023 7:30:00 PM 13.74 56.732 0.12 7.11 2.64 10.06
4/22/2023 7:45:00 PM 13.67 56.606 0.121 7.1 2.53 10.03
4/22/2023 8:00:00 PM 13.63 56.534 0.121 7.08 2.61 9.98
4/22/2023 8:15:00 PM 13.6 56.48 0.121 7.07 2.71 9.94
4/22/2023 8:30:00 PM 13.59 56.462 0.121 7.05 2.68 9.91
4/22/2023 8:45:00 PM 13.59 56.462 0.121 7.05 2.71 9.88
4/22/2023 9:00:00 PM 13.59 56.462 0.122 7.04 2.8 9.86
4/22/2023 9:15:00 PM 13.6 56.48 0.122 7.03 2.73 9.84
4/22/2023 9:30:00 PM 13.6 56.48 0.122 7.03 2.68 9.82
4/22/2023 9:45:00 PM 13.61 56.498 0.122 7.02 2.66 9.81
4/22/2023 10:00:00 PM 13.61 56.498 0.123 7.02 2.59 9.81
4/22/2023 10:15:00 PM 13.61 56.498 0.123 7.02 2.87 9.8
4/22/2023 10:30:00 PM 13.61 56.498 0.123 7.01 2.57 9.79
4/22/2023 10:45:00 PM 13.61 56.498 0.123 7.01 2.69 9.79
4/22/2023 11:00:00 PM 13.59 56.462 0.123 7.01 2.61 9.79
4/22/2023 11:15:00 PM 13.56 56.408 0.123 7.01 2.71 9.79
4/22/2023 11:30:00 PM 13.55 56.39 0.124 7 2.72 9.8
4/22/2023 11:45:00 PM 13.54 56.372 0.124 7 2.72 9.79
4/23/2023 12:00:00 AM 13.54 56.372 0.124 7 2.67 9.8
4/23/2023 12:15:00 AM 13.55 56.39 0.124 7 2.75 9.79
4/23/2023 12:30:00 AM 13.55 56.39 0.124 7 2.76 9.8
4/23/2023 12:45:00 AM 13.54 56.372 0.124 7 2.84 9.81
4/23/2023 1:00:00 AM 13.55 56.39 0.124 7 2.86 9.82
4/23/2023 1:15:00 AM 13.57 56.426 0.124 7 2.96 9.82
4/23/2023 1:30:00 AM 13.58 56.444 0.124 7 3.1 9.83
4/23/2023 1:45:00 AM 13.59 56.462 0.124 7 3.39 9.84
4/23/2023 2:00:00 AM 13.62 56.516 0.125 7 3.57 9.85
4/23/2023 2:15:00 AM 13.63 56.534 0.125 7.01 4.2 9.86
4/23/2023 2:30:00 AM 13.66 56.588 0.125 7.01 4.62 9.87
4/23/2023 2:45:00 AM 13.68 56.624 0.125 7.01 4.97 9.89
4/23/2023 3:00:00 AM 13.71 56.678 0.126 7.01 4.99 9.91
4/23/2023 3:15:00 AM 13.74 56.732 0.126 7.02 5.25 9.94
4/23/2023 3:30:00 AM 13.75 56.75 0.127 7.02 5.8 9.96
4/23/2023 3:45:00 AM 13.73 56.714 0.127 7.02 5.78 10
4/23/2023 4:00:00 AM 13.72 56.696 0.127 7.01 5.66 10.04
4/23/2023 4:15:00 AM 13.69 56.642 0.127 7 6.07 10.08
4/23/2023 4:30:00 AM 13.64 56.552 0.127 7 5.92 10.11
4/23/2023 4:45:00 AM 13.6 56.48 0.128 7 5.97 10.13
4/23/2023 5:00:00 AM 13.56 56.408 0.128 7 5.78 10.16
4/23/2023 5:15:00 AM 13.53 56.354 0.128 6.99 5.88 10.17
4/23/2023 5:30:00 AM 13.48 56.264 0.128 6.99 5.54 10.2
4/23/2023 5:45:00 AM 13.41 56.138 0.128 6.99 5.57 10.23
4/23/2023 6:00:00 AM 13.34 56.012 0.128 6.98 5.8 10.25
4/23/2023 6:15:00 AM 13.27 55.886 0.128 6.98 5.62 10.28
4/23/2023 6:30:00 AM 13.21 55.778 0.127 7 5.24 10.31
4/23/2023 6:45:00 AM 13.17 55.706 0.127 7.01 5.05 10.34
4/23/2023 7:00:00 AM 13.13 55.634 0.126 7.02 5.11 10.38
4/23/2023 7:15:00 AM 13.09 55.562 0.125 7.02 4.89 10.43
4/23/2023 7:30:00 AM 13.04 55.472 0.124 7.04 4.85 10.49
4/23/2023 7:45:00 AM 13 55.4 0.123 7.05 4.69 10.56
4/23/2023 8:00:00 AM 12.97 55.346 0.122 7.06 4.94 10.62
4/23/2023 8:15:00 AM 12.94 55.292 0.122 7.07 4.77 10.69
4/23/2023 8:30:00 AM 12.93 55.274 0.121 7.09 4.69 10.79
4/23/2023 8:45:00 AM 12.92 55.256 0.121 7.11 4.71 10.86
4/23/2023 9:00:00 AM 12.9 55.22 0.12 7.13 4.86 10.95
4/23/2023 9:15:00 AM 12.89 55.202 0.119 7.15 5.08 11.02
4/23/2023 9:30:00 AM 12.91 55.238 0.119 7.18 5.3 11.09
4/23/2023 9:45:00 AM 12.92 55.256 0.118 7.19 5.19 11.13
4/23/2023 10:00:00 AM 12.98 55.364 0.118 7.21 5.11 11.17
4/23/2023 10:15:00 AM 12.99 55.382 0.118 7.23 5.09 11.2
4/23/2023 10:30:00 AM 13.05 55.49 0.118 7.24 5.23 11.22
4/23/2023 10:45:00 AM 13.12 55.616 0.117 7.26 5.33 11.25
4/23/2023 11:00:00 AM 13.1 55.58 0.117 7.27 5.38 11.22
4/23/2023 11:15:00 AM 13.06 55.508 0.118 7.25 5.23 11.14
4/23/2023 11:30:00 AM 13.01 55.418 0.118 7.23 6.03 11.08
4/23/2023 11:45:00 AM 13.07 55.526 0.118 7.23 5.59 11.12
4/23/2023 12:00:00 PM 13.23 55.814 0.118 7.26 5.24 11.18
4/23/2023 12:15:00 PM 13.23 55.814 0.118 7.28 5.41 11.21
4/23/2023 12:30:00 PM 13.18 55.724 0.118 7.29 5.45 11.22
4/23/2023 12:45:00 PM 13.19 55.742 0.118 7.3 5.53 11.26
4/23/2023 1:00:00 PM 13.25 55.85 0.117 7.31 5.54 11.29
4/23/2023 1:15:00 PM 13.32 55.976 0.117 7.33 5.64 11.31
4/23/2023 1:30:00 PM 13.3 55.94 0.117 7.33 5.9 11.3
4/23/2023 1:45:00 PM 13.26 55.868 0.117 7.34 5.77 11.28
4/23/2023 2:00:00 PM 13.25 55.85 0.117 7.33 5.64 11.23
4/23/2023 2:15:00 PM 13.21 55.778 0.117 7.31 5.36 11.15
4/23/2023 2:30:00 PM 13.21 55.778 0.118 7.3 5.01 11.1
4/23/2023 2:45:00 PM 13.23 55.814 0.118 7.29 5.24 11.04
4/23/2023 3:00:00 PM 13.24 55.832 0.119 7.27 4.78 10.99
4/23/2023 3:15:00 PM 13.26 55.868 0.119 7.26 4.86 10.94
4/23/2023 3:30:00 PM 13.2 55.76 0.119 7.25 4.66 10.89
4/23/2023 3:45:00 PM 13.19 55.742 0.12 7.23 4.79 10.86
4/23/2023 4:00:00 PM 13.18 55.724 0.12 7.24 4.74 10.91
4/23/2023 4:15:00 PM 13.2 55.76 0.12 7.26 4.77 10.97
4/23/2023 4:30:00 PM 13.12 55.616 0.119 7.27 4.7 11
4/23/2023 4:45:00 PM 13 55.4 0.119 7.27 4.98 11.02
4/23/2023 5:00:00 PM 12.82 55.076 0.118 7.24 5.18 10.96
4/23/2023 5:15:00 PM 12.66 54.788 0.118 7.23 5.51 11.01
4/23/2023 5:30:00 PM 12.53 54.554 0.117 7.23 5.49 11.06
4/23/2023 5:45:00 PM 12.39 54.302 0.116 7.22 5.74 11.04
4/23/2023 6:00:00 PM 12.27 54.086 0.115 7.2 5.59 11.02
4/23/2023 6:15:00 PM 12.17 53.906 0.115 7.19 5.81 11
4/23/2023 6:30:00 PM 12.07 53.726 0.114 7.18 5.75 10.99
4/23/2023 6:45:00 PM 12.03 53.654 0.114 7.16 5.58 10.97
4/23/2023 7:00:00 PM 12.02 53.636 0.114 7.16 5.75 10.94
4/23/2023 7:15:00 PM 12 53.6 0.114 7.15 5.79 10.9
4/23/2023 7:30:00 PM 11.99 53.582 0.114 7.13 5.35 10.84
4/23/2023 7:45:00 PM 12.02 53.636 0.114 7.12 5.23 10.77
4/23/2023 8:00:00 PM 12.07 53.726 0.115 7.1 5.28 10.71
4/23/2023 8:15:00 PM 12.12 53.816 0.116 7.09 5.21 10.64
4/23/2023 8:30:00 PM 12.17 53.906 0.117 7.08 5.15 10.59
4/23/2023 8:45:00 PM 12.22 53.996 0.117 7.07 5.14 10.55
4/23/2023 9:00:00 PM 12.23 54.014 0.117 7.06 5.03 10.53
4/23/2023 9:15:00 PM 12.2 53.96 0.117 7.06 5.3 10.53
4/23/2023 9:30:00 PM 12.15 53.87 0.116 7.05 5.26 10.53
4/23/2023 9:45:00 PM 12.08 53.744 0.116 7.05 5.31 10.54
4/23/2023 10:00:00 PM 12.01 53.618 0.116 7.04 5.27 10.55
4/23/2023 10:15:00 PM 11.95 53.51 0.115 7.04 5.34 10.55
4/23/2023 10:30:00 PM 11.91 53.438 0.115 7.03 5.28 10.56
4/23/2023 10:45:00 PM 11.86 53.348 0.115 7.03 5.3 10.56
4/23/2023 11:00:00 PM 11.84 53.312 0.115 7.03 5.23 10.56
4/23/2023 11:15:00 PM 11.82 53.276 0.115 7.03 4.98 10.57
4/23/2023 11:30:00 PM 11.8 53.24 0.116 7.02 4.94 10.57
4/23/2023 11:45:00 PM 11.79 53.222 0.116 7.02 4.81 10.57
4/24/2023 12:00:00 AM 11.77 53.186 0.116 7.02 4.93 10.57
4/24/2023 12:15:00 AM 11.76 53.168 0.116 7.02 4.88 10.57
4/24/2023 12:30:00 AM 11.74 53.132 0.117 7.02 4.73 10.56
4/24/2023 12:45:00 AM 11.73 53.114 0.117 7.02 4.77 10.56
4/24/2023 1:00:00 AM 11.7 53.06 0.117 7.02 4.84 10.56
4/24/2023 1:15:00 AM 11.67 53.006 0.117 7.01 4.73 10.58
4/24/2023 1:30:00 AM 11.64 52.952 0.117 7.01 4.61 10.58
4/24/2023 1:45:00 AM 11.6 52.88 0.116 7.01 4.73 10.59
4/24/2023 2:00:00 AM 11.53 52.754 0.116 7 4.81 10.6
4/24/2023 2:15:00 AM 11.47 52.646 0.116 7 4.7 10.62
4/24/2023 2:30:00 AM 11.4 52.52 0.115 7 4.75 10.64
4/24/2023 2:45:00 AM 11.32 52.376 0.115 7 5.02 10.65
4/24/2023 3:00:00 AM 11.25 52.25 0.115 7 5.12 10.66
4/24/2023 3:15:00 AM 11.19 52.142 0.114 7 5.15 10.68
4/24/2023 3:30:00 AM 11.14 52.052 0.114 7 5.26 10.69
4/24/2023 3:45:00 AM 11.1 51.98 0.114 7 5.28 10.7
4/24/2023 4:00:00 AM 11.05 51.89 0.113 7 5.2 10.72
4/24/2023 4:15:00 AM 11.02 51.836 0.113 7 5.54 10.72
4/24/2023 4:30:00 AM 10.97 51.746 0.113 6.98 5.44 10.74
4/24/2023 4:45:00 AM 10.93 51.674 0.113 6.98 5.7 10.75
4/24/2023 5:00:00 AM 10.89 51.602 0.113 6.97 5.73 10.75
4/24/2023 5:15:00 AM 10.84 51.512 0.112 6.96 5.59 10.76
4/24/2023 5:30:00 AM 10.79 51.422 0.112 6.96 5.5 10.77
4/24/2023 5:45:00 AM 10.75 51.35 0.112 6.96 5.46 10.78
4/24/2023 6:00:00 AM 10.73 51.314 0.112 6.96 5.27 10.78
4/24/2023 6:15:00 AM 10.71 51.278 0.112 6.96 5.21 10.79
4/24/2023 6:30:00 AM 10.7 51.26 0.112 6.97 4.91 10.81
4/24/2023 6:45:00 AM 10.68 51.224 0.112 6.97 4.88 10.84
4/24/2023 7:00:00 AM 10.65 51.17 0.112 6.98 4.77 10.89
4/24/2023 7:15:00 AM 10.62 51.116 0.113 7 4.77 10.94
4/24/2023 7:30:00 AM 10.59 51.062 0.113 7.01 4.58 10.98
4/24/2023 7:45:00 AM 10.55 50.99 0.113 7.01 4.46 11.04
4/24/2023 8:00:00 AM 10.52 50.936 0.113 7.02 4.31 11.08
4/24/2023 8:15:00 AM 10.53 50.954 0.113 7.04 4.24 11.18
4/24/2023 8:30:00 AM 10.55 50.99 0.113 7.06 4.28 11.25
4/24/2023 8:45:00 AM 10.58 51.044 0.113 7.08 4.14 11.32
4/24/2023 9:00:00 AM 10.62 51.116 0.113 7.11 4.16 11.38
4/24/2023 9:15:00 AM 10.68 51.224 0.112 7.13 3.95 11.46
4/24/2023 9:30:00 AM 10.69 51.242 0.112 7.16 4.11 11.52
4/24/2023 9:45:00 AM 10.78 51.404 0.112 7.19 4.16 11.59
4/24/2023 10:00:00 AM 10.81 51.458 0.112 7.21 4.06 11.65
4/24/2023 10:15:00 AM 10.86 51.548 0.112 7.23 4 11.69
4/24/2023 10:30:00 AM 11.09 51.962 0.112 7.27 4.12 11.75
4/24/2023 10:45:00 AM 11.12 52.016 0.112 7.29 3.91 11.77
4/24/2023 11:00:00 AM 11.17 52.106 0.112 7.31 4.06 11.79
4/24/2023 11:15:00 AM 11.3 52.34 0.112 7.32 4.01 11.8
4/24/2023 11:30:00 AM 11.37 52.466 0.111 7.34 3.89 11.81
4/24/2023 11:45:00 AM 11.35 52.43 0.111 7.35 3.97 11.79
4/24/2023 12:00:00 PM 11.53 52.754 0.111 7.36 3.9 11.8
4/24/2023 12:15:00 PM 11.61 52.898 0.111 7.38 4.01 11.81
4/24/2023 12:30:00 PM 11.64 52.952 0.111 7.41 3.94 11.84
4/24/2023 12:45:00 PM 11.8 53.24 0.111 7.42 3.82 11.84
4/24/2023 1:00:00 PM 11.68 53.024 0.111 7.41 3.85 11.77
4/24/2023 1:15:00 PM 11.58 52.844 0.111 7.41 3.82 11.79
4/24/2023 1:30:00 PM 11.6 52.88 0.111 7.43 3.86 11.83
4/24/2023 1:45:00 PM 11.71 53.078 0.111 7.45 3.86 11.87
4/24/2023 2:00:00 PM 11.82 53.276 0.111 7.46 3.86 11.89
4/24/2023 2:15:00 PM 11.67 53.006 0.111 7.46 3.78 11.89
4/24/2023 2:30:00 PM 11.53 52.754 0.111 7.46 3.83 11.88
4/24/2023 2:45:00 PM 11.57 52.826 0.111 7.47 3.77 11.9
4/24/2023 3:00:00 PM 11.56 52.808 0.111 7.47 3.71 11.88
4/24/2023 3:15:00 PM 11.48 52.664 0.111 7.48 3.8 11.89
4/24/2023 3:30:00 PM 11.59 52.862 0.111 7.49 3.68 11.9
4/24/2023 3:45:00 PM 11.67 53.006 0.111 7.49 3.86 11.86
4/24/2023 4:00:00 PM 11.55 52.79 0.111 7.48 3.71 11.83
4/24/2023 4:15:00 PM 11.72 53.096 0.111 7.48 3.72 11.83
4/24/2023 4:30:00 PM 11.69 53.042 0.111 7.49 3.79 11.79
4/24/2023 4:45:00 PM 11.67 53.006 0.111 7.49 3.77 11.76
4/24/2023 5:00:00 PM 11.81 53.258 0.111 7.49 3.98 11.73
4/24/2023 5:15:00 PM 11.76 53.168 0.111 7.48 3.9 11.66
4/24/2023 5:30:00 PM 11.8 53.24 0.111 7.46 3.82 11.62
4/24/2023 5:45:00 PM 11.74 53.132 0.111 7.44 3.99 11.57
4/24/2023 6:00:00 PM 11.73 53.114 0.111 7.43 3.89 11.54
4/24/2023 6:15:00 PM 11.71 53.078 0.112 7.41 3.97 11.5
4/24/2023 6:30:00 PM 11.62 52.916 0.112 7.37 3.93 11.43
4/24/2023 6:45:00 PM 11.53 52.754 0.112 7.33 3.96 11.34
4/24/2023 7:00:00 PM 11.42 52.556 0.112 7.29 3.99 11.28
4/24/2023 7:15:00 PM 11.28 52.304 0.112 7.24 3.8 11.22
4/24/2023 7:30:00 PM 11.09 51.962 0.112 7.21 3.92 11.19
4/24/2023 7:45:00 PM 10.85 51.53 0.112 7.18 3.81 11.19
4/24/2023 8:00:00 PM 10.61 51.098 0.112 7.15 3.74 11.19
4/24/2023 8:15:00 PM 10.4 50.72 0.112 7.13 3.59 11.19
4/24/2023 8:30:00 PM 10.21 50.378 0.112 7.1 3.75 11.19
4/24/2023 8:45:00 PM 10.07 50.126 0.112 7.07 3.5 11.19
4/24/2023 9:00:00 PM 9.96 49.928 0.112 7.04 3.56 11.18
4/24/2023 9:15:00 PM 9.89 49.802 0.112 7.02 3.54 11.17
4/24/2023 9:30:00 PM 9.84 49.712 0.112 7.01 3.55 11.15
4/24/2023 9:45:00 PM 9.83 49.694 0.112 7 3.39 11.13
4/24/2023 10:00:00 PM 9.84 49.712 0.112 7.01 3.49 11.1
4/24/2023 10:15:00 PM 9.89 49.802 0.112 7.01 3.57 11.05
4/24/2023 10:30:00 PM 9.95 49.91 0.113 7.01 3.7 11.02
4/24/2023 10:45:00 PM 10.02 50.036 0.113 7.02 3.68 10.99
4/24/2023 11:00:00 PM 10.09 50.162 0.113 7.02 3.65 10.96
4/24/2023 11:15:00 PM 10.15 50.27 0.113 7.02 3.7 10.94
4/24/2023 11:30:00 PM 10.19 50.342 0.113 7.02 3.73 10.93
4/24/2023 11:45:00 PM 10.22 50.396 0.113 7.01 3.73 10.91
4/25/2023 12:00:00 AM 10.23 50.414 0.113 7.01 3.79 10.9
4/25/2023 12:15:00 AM 10.24 50.432 0.113 7.01 3.77 10.9
4/25/2023 12:30:00 AM 10.25 50.45 0.113 7.01 3.85 10.89
4/25/2023 12:45:00 AM 10.25 50.45 0.113 7.01 3.7 10.9
4/25/2023 1:00:00 AM 10.22 50.396 0.113 7.01 3.72 10.9
4/25/2023 1:15:00 AM 10.19 50.342 0.113 7.01 3.58 10.9
4/25/2023 1:30:00 AM 10.15 50.27 0.113 7.01 3.54 10.92
4/25/2023 1:45:00 AM 10.12 50.216 0.113 7 3.51 10.94
4/25/2023 2:00:00 AM 10.06 50.108 0.113 7 3.61 10.96
4/25/2023 2:15:00 AM 10.01 50.018 0.113 7 3.49 10.98
4/25/2023 2:30:00 AM 9.94 49.892 0.112 7 3.39 11
4/25/2023 2:45:00 AM 9.87 49.766 0.112 7 3.52 11.01
4/25/2023 3:00:00 AM 9.79 49.622 0.112 6.99 3.42 11.04
4/25/2023 3:15:00 AM 9.72 49.496 0.112 6.99 3.47 11.05
4/25/2023 3:30:00 AM 9.65 49.37 0.112 6.99 3.42 11.09
4/25/2023 3:45:00 AM 9.59 49.262 0.112 7 3.45 11.1
4/25/2023 4:00:00 AM 9.53 49.154 0.112 6.99 3.31 11.11
4/25/2023 4:15:00 AM 9.48 49.064 0.112 6.98 3.36 11.13
4/25/2023 4:30:00 AM 9.43 48.974 0.112 6.98 3.36 11.14
4/25/2023 4:45:00 AM 9.38 48.884 0.112 6.97 3.25 11.16
4/25/2023 5:00:00 AM 9.33 48.794 0.112 6.97 3.41 11.17
4/25/2023 5:15:00 AM 9.3 48.74 0.112 6.97 3.18 11.18
4/25/2023 5:30:00 AM 9.27 48.686 0.112 6.97 3.12 11.19
4/25/2023 5:45:00 AM 9.26 48.668 0.112 6.97 3.17 11.2
4/25/2023 6:00:00 AM 9.24 48.632 0.112 6.97 3 11.21
4/25/2023 6:15:00 AM 9.23 48.614 0.111 6.97 3.15 11.22
4/25/2023 6:30:00 AM 9.24 48.632 0.111 6.98 2.96 11.24
4/25/2023 6:45:00 AM 9.24 48.632 0.111 6.99 2.93 11.26
4/25/2023 7:00:00 AM 9.24 48.632 0.111 7 3.1 11.31
4/25/2023 7:15:00 AM 9.26 48.668 0.111 7.01 2.95 11.36
4/25/2023 7:30:00 AM 9.29 48.722 0.111 7.03 2.92 11.45
4/25/2023 7:45:00 AM 9.32 48.776 0.111 7.06 3 11.54
4/25/2023 8:00:00 AM 9.32 48.776 0.111 7.08 2.95 11.61
4/25/2023 8:15:00 AM 9.34 48.812 0.111 7.1 2.89 11.65
4/25/2023 8:30:00 AM 9.38 48.884 0.111 7.11 2.92 11.71
4/25/2023 8:45:00 AM 9.42 48.956 0.111 7.13 2.96 11.75
4/25/2023 9:00:00 AM 9.47 49.046 0.11 7.15 2.84 11.8
4/25/2023 9:15:00 AM 9.51 49.118 0.11 7.16 2.84 11.85
4/25/2023 9:30:00 AM 9.57 49.226 0.11 7.18 2.85 11.9
4/25/2023 9:45:00 AM 9.62 49.316 0.11 7.2 2.86 11.95
4/25/2023 10:00:00 AM 9.71 49.478 0.11 7.23 2.99 11.99
4/25/2023 10:15:00 AM 9.83 49.694 0.11 7.25 2.75 12.05
4/25/2023 10:30:00 AM 9.92 49.856 0.11 7.27 2.82 12.07
4/25/2023 10:45:00 AM 9.99 49.982 0.11 7.29 2.9 12.08
4/25/2023 11:00:00 AM 10.15 50.27 0.11 7.31 2.76 12.1
4/25/2023 11:15:00 AM 10.29 50.522 0.11 7.32 2.85 12.11
4/25/2023 11:30:00 AM 10.43 50.774 0.109 7.34 2.8 12.12
4/25/2023 11:45:00 AM 10.49 50.882 0.109 7.36 2.78 12.12
4/25/2023 12:00:00 PM 10.57 51.026 0.109 7.38 2.88 12.11
4/25/2023 12:15:00 PM 10.82 51.476 0.109 7.4 2.83 12.12
4/25/2023 12:30:00 PM 11 51.8 0.109 7.42 2.87 12.12
4/25/2023 12:45:00 PM 11.07 51.926 0.109 7.43 2.86 12.11
4/25/2023 1:00:00 PM 11.17 52.106 0.109 7.45 2.92 12.1
4/25/2023 1:15:00 PM 11.22 52.196 0.109 7.46 2.91 12.08
4/25/2023 1:30:00 PM 11.23 52.214 0.109 7.47 3 12.06
4/25/2023 1:45:00 PM 11.45 52.61 0.109 7.49 2.89 12.06
4/25/2023 2:00:00 PM 11.42 52.556 0.109 7.49 2.97 12.03
4/25/2023 2:15:00 PM 11.44 52.592 0.109 7.49 2.87 12.01
4/25/2023 2:30:00 PM 11.22 52.196 0.109 7.49 2.96 12.01
4/25/2023 2:45:00 PM 11.17 52.106 0.109 7.49 2.83 12.02
4/25/2023 3:00:00 PM 11.07 51.926 0.109 7.49 2.79 12.01
4/25/2023 3:15:00 PM 11.15 52.07 0.109 7.5 2.77 12.04
4/25/2023 3:30:00 PM 11.32 52.376 0.109 7.51 2.83 12.04
4/25/2023 3:45:00 PM 11.29 52.322 0.109 7.5 2.7 12
4/25/2023 4:00:00 PM 11.31 52.358 0.109 7.49 2.84 11.95
4/25/2023 4:15:00 PM 11.24 52.232 0.109 7.47 2.82 11.89
4/25/2023 4:30:00 PM 11.25 52.25 0.109 7.46 2.71 11.85
4/25/2023 4:45:00 PM 11.42 52.556 0.109 7.47 2.8 11.85
4/25/2023 5:00:00 PM 11.32 52.376 0.109 7.46 2.8 11.81
4/25/2023 5:15:00 PM 11.24 52.232 0.109 7.45 2.8 11.79
4/25/2023 5:30:00 PM 11.18 52.124 0.109 7.44 2.97 11.81
4/25/2023 5:45:00 PM 11.14 52.052 0.109 7.45 2.82 11.81
4/25/2023 6:00:00 PM 11.11 51.998 0.109 7.44 2.85 11.78
4/25/2023 6:15:00 PM 11.06 51.908 0.11 7.42 2.85 11.74
4/25/2023 6:30:00 PM 11 51.8 0.11 7.39 2.87 11.68
4/25/2023 6:45:00 PM 10.91 51.638 0.11 7.36 2.9 11.62
4/25/2023 7:00:00 PM 10.8 51.44 0.11 7.33 2.99 11.57
4/25/2023 7:15:00 PM 10.69 51.242 0.11 7.29 3.06 11.51
4/25/2023 7:30:00 PM 10.57 51.026 0.11 7.25 2.89 11.44
4/25/2023 7:45:00 PM 10.43 50.774 0.11 7.22 2.81 11.39
4/25/2023 8:00:00 PM 10.27 50.486 0.111 7.18 2.93 11.35
4/25/2023 8:15:00 PM 10.1 50.18 0.111 7.15 2.89 11.31
4/25/2023 8:30:00 PM 9.94 49.892 0.111 7.13 2.95 11.28
4/25/2023 8:45:00 PM 9.8 49.64 0.111 7.11 3.09 11.26
4/25/2023 9:00:00 PM 9.68 49.424 0.111 7.09 3.05 11.25
4/25/2023 9:15:00 PM 9.57 49.226 0.111 7.08 2.92 11.25
4/25/2023 9:30:00 PM 9.48 49.064 0.111 7.06 2.87 11.24
4/25/2023 9:45:00 PM 9.39 48.902 0.111 7.05 3.26 11.25
4/25/2023 10:00:00 PM 9.3 48.74 0.111 7.04 2.97 11.25
4/25/2023 10:15:00 PM 9.22 48.596 0.111 7.04 2.81 11.25
4/25/2023 10:30:00 PM 9.15 48.47 0.111 7.03 2.8 11.27
4/25/2023 10:45:00 PM 9.1 48.38 0.111 7.02 2.92 11.27
4/25/2023 11:00:00 PM 9.06 48.308 0.111 7.02 2.83 11.28
4/25/2023 11:15:00 PM 9.05 48.29 0.111 7.02 2.75 11.28
4/25/2023 11:30:00 PM 9.05 48.29 0.111 7.01 2.79 11.27
4/25/2023 11:45:00 PM 9.08 48.344 0.111 7.01 2.84 11.25
4/26/2023 12:00:00 AM 9.13 48.434 0.111 7.01 2.79 11.24
4/26/2023 12:15:00 AM 9.19 48.542 0.111 7.01 2.82 11.22
4/26/2023 12:30:00 AM 9.24 48.632 0.111 7 2.72 11.2
4/26/2023 12:45:00 AM 9.3 48.74 0.111 7.01 2.73 11.18
4/26/2023 1:00:00 AM 9.37 48.866 0.111 7 2.8 11.16
4/26/2023 1:15:00 AM 9.44 48.992 0.111 7 2.76 11.14
4/26/2023 1:30:00 AM 9.51 49.118 0.111 7 2.89 11.12
4/26/2023 1:45:00 AM 9.59 49.262 0.111 7 2.85 11.1
4/26/2023 2:00:00 AM 9.67 49.406 0.111 7 2.84 11.05
4/26/2023 2:15:00 AM 9.74 49.532 0.111 7 2.81 11.05
4/26/2023 2:30:00 AM 9.8 49.64 0.111 7 2.76 11.03
4/26/2023 2:45:00 AM 9.84 49.712 0.111 7 2.74 11.01
4/26/2023 3:00:00 AM 9.87 49.766 0.111 7 2.78 11
4/26/2023 3:15:00 AM 9.89 49.802 0.111 7 2.75 10.99
4/26/2023 3:30:00 AM 9.91 49.838 0.111 7 2.7 10.99
4/26/2023 3:45:00 AM 9.92 49.856 0.111 7 2.77 10.99
4/26/2023 4:00:00 AM 9.93 49.874 0.111 7 2.68 10.99
4/26/2023 4:15:00 AM 9.93 49.874 0.111 7 2.83 10.99
4/26/2023 4:30:00 AM 9.94 49.892 0.111 7 2.81 10.99
4/26/2023 4:45:00 AM 9.94 49.892 0.111 7 2.79 10.98
4/26/2023 5:00:00 AM 9.94 49.892 0.111 7 2.74 10.99
4/26/2023 5:15:00 AM 9.94 49.892 0.111 7 2.83 10.99
4/26/2023 5:30:00 AM 9.93 49.874 0.111 6.99 2.82 10.99
4/26/2023 5:45:00 AM 9.9 49.82 0.111 6.99 2.77 11
4/26/2023 6:00:00 AM 9.87 49.766 0.111 6.99 2.83 11
4/26/2023 6:15:00 AM 9.83 49.694 0.111 6.99 2.89 11.01
4/26/2023 6:30:00 AM 9.8 49.64 0.111 6.99 2.99 11.04
4/26/2023 6:45:00 AM 9.77 49.586 0.111 7 2.69 11.09
4/26/2023 7:00:00 AM 9.75 49.55 0.111 7.01 2.63 11.15
4/26/2023 7:15:00 AM 9.73 49.514 0.11 7.03 2.76 11.21
4/26/2023 7:30:00 AM 9.72 49.496 0.11 7.04 2.7 11.3
4/26/2023 7:45:00 AM 9.71 49.478 0.11 7.06 2.59 11.39
4/26/2023 8:00:00 AM 9.72 49.496 0.11 7.08 2.64 11.47
4/26/2023 8:15:00 AM 9.75 49.55 0.11 7.11 2.58 11.57
4/26/2023 8:30:00 AM 9.77 49.586 0.11 7.13 2.53 11.64
4/26/2023 8:45:00 AM 9.82 49.676 0.11 7.15 2.54 11.72
4/26/2023 9:00:00 AM 9.87 49.766 0.109 7.18 2.65 11.79
4/26/2023 9:15:00 AM 9.92 49.856 0.109 7.21 2.76 11.85
4/26/2023 9:30:00 AM 9.99 49.982 0.109 7.23 2.68 11.91
4/26/2023 9:45:00 AM 10.05 50.09 0.109 7.26 2.58 11.96
4/26/2023 10:00:00 AM 10.11 50.198 0.109 7.29 2.48 12.01
4/26/2023 10:15:00 AM 10.22 50.396 0.109 7.32 2.61 12.06
4/26/2023 10:30:00 AM 10.24 50.432 0.109 7.34 2.62 12.08
4/26/2023 10:45:00 AM 10.38 50.684 0.109 7.37 2.54 12.12
4/26/2023 11:00:00 AM 10.55 50.99 0.108 7.39 2.57 12.14
4/26/2023 11:15:00 AM 10.76 51.368 0.108 7.42 2.54 12.16
4/26/2023 11:30:00 AM 10.88 51.584 0.108 7.44 2.54 12.15
4/26/2023 11:45:00 AM 10.97 51.746 0.108 7.46 2.59 12.12
4/26/2023 12:00:00 PM 10.93 51.674 0.108 7.45 2.61 12.02
4/26/2023 12:15:00 PM 10.86 51.548 0.108 7.4 2.61 11.9
4/26/2023 12:30:00 PM 10.78 51.404 0.108 7.37 2.57 11.85
4/26/2023 12:45:00 PM 10.8 51.44 0.108 7.38 2.46 11.88
4/26/2023 1:00:00 PM 10.88 51.584 0.108 7.41 2.51 11.93
4/26/2023 1:15:00 PM 11.03 51.854 0.108 7.45 2.54 12
4/26/2023 1:30:00 PM 11.26 52.268 0.108 7.49 2.51 12.04
4/26/2023 1:45:00 PM 11.35 52.43 0.108 7.5 2.56 12.04
4/26/2023 2:00:00 PM 11.54 52.772 0.108 7.51 2.57 12.04
4/26/2023 2:15:00 PM 11.52 52.736 0.108 7.51 2.55 12.02
4/26/2023 2:30:00 PM 11.58 52.844 0.108 7.51 2.55 12.02
4/26/2023 2:45:00 PM 11.45 52.61 0.108 7.5 2.63 12
4/26/2023 3:00:00 PM 11.32 52.376 0.108 7.51 2.61 12
4/26/2023 3:15:00 PM 11.13 52.034 0.108 7.47 2.59 11.93
4/26/2023 3:30:00 PM 11.1 51.98 0.108 7.47 2.59 11.97
4/26/2023 3:45:00 PM 11.38 52.484 0.108 7.5 2.52 12.02
4/26/2023 4:00:00 PM 11.4 52.52 0.108 7.5 2.61 12
4/26/2023 4:15:00 PM 11.25 52.25 0.108 7.49 2.42 11.95
4/26/2023 4:30:00 PM 11.21 52.178 0.108 7.49 2.46 11.93
4/26/2023 4:45:00 PM 11.25 52.25 0.108 7.49 2.52 11.9
4/26/2023 5:00:00 PM 11.36 52.448 0.108 7.5 2.51 11.9
4/26/2023 5:15:00 PM 11.25 52.25 0.108 7.5 2.5 11.88
4/26/2023 5:30:00 PM 11.17 52.106 0.108 7.49 2.52 11.85
4/26/2023 5:45:00 PM 11.15 52.07 0.108 7.48 2.39 11.82
4/26/2023 6:00:00 PM 11.21 52.178 0.108 7.48 2.55 11.79
4/26/2023 6:15:00 PM 11.24 52.232 0.108 7.47 2.55 11.73
4/26/2023 6:30:00 PM 11.27 52.286 0.108 7.44 2.5 11.66
4/26/2023 6:45:00 PM 11.28 52.304 0.108 7.42 2.69 11.6
4/26/2023 7:00:00 PM 11.25 52.25 0.109 7.39 2.43 11.52
4/26/2023 7:15:00 PM 11.23 52.214 0.109 7.35 2.55 11.44
4/26/2023 7:30:00 PM 11.19 52.142 0.109 7.31 2.54 11.35
4/26/2023 7:45:00 PM 11.14 52.052 0.109 7.27 2.47 11.24
4/26/2023 8:00:00 PM 11.07 51.926 0.109 7.23 2.59 11.15
4/26/2023 8:15:00 PM 11.01 51.818 0.11 7.19 2.66 11.08
4/26/2023 8:30:00 PM 10.96 51.728 0.11 7.16 2.59 11.01
4/26/2023 8:45:00 PM 10.9 51.62 0.11 7.14 2.74 10.97
4/26/2023 9:00:00 PM 10.83 51.494 0.11 7.12 2.66 10.94
4/26/2023 9:15:00 PM 10.73 51.314 0.11 7.1 2.65 10.93
4/26/2023 9:30:00 PM 10.64 51.152 0.11 7.09 2.59 10.93
4/26/2023 9:45:00 PM 10.56 51.008 0.11 7.07 2.6 10.92
4/26/2023 10:00:00 PM 10.49 50.882 0.11 7.06 2.66 10.92
4/26/2023 10:15:00 PM 10.43 50.774 0.11 7.05 2.64 10.92
4/26/2023 10:30:00 PM 10.39 50.702 0.11 7.05 2.62 10.93
4/26/2023 10:45:00 PM 10.35 50.63 0.11 7.04 2.64 10.92
4/26/2023 11:00:00 PM 10.3 50.54 0.11 7.03 2.57 10.93
4/26/2023 11:15:00 PM 10.27 50.486 0.11 7.03 2.79 10.93
4/26/2023 11:30:00 PM 10.24 50.432 0.11 7.02 2.73 10.94
4/26/2023 11:45:00 PM 10.21 50.378 0.11 7.02 2.65 10.95
4/27/2023 12:00:00 AM 10.19 50.342 0.11 7.01 2.58 10.96
4/27/2023 12:15:00 AM 10.16 50.288 0.11 7.01 2.61 10.96
4/27/2023 12:30:00 AM 10.15 50.27 0.11 7.01 2.57 10.97
4/27/2023 12:45:00 AM 10.14 50.252 0.11 7.01 2.58 10.97
4/27/2023 1:00:00 AM 10.12 50.216 0.11 7 2.56 10.98
4/27/2023 1:15:00 AM 10.11 50.198 0.11 7 2.51 10.98
4/27/2023 1:30:00 AM 10.1 50.18 0.11 7 2.64 10.99
4/27/2023 1:45:00 AM 10.09 50.162 0.11 7 2.54 11
4/27/2023 2:00:00 AM 10.08 50.144 0.11 6.99 2.46 10.99
4/27/2023 2:15:00 AM 10.07 50.126 0.11 7 2.59 10.99
4/27/2023 2:30:00 AM 10.07 50.126 0.11 7 2.54 11
4/27/2023 2:45:00 AM 10.08 50.144 0.11 6.99 2.58 10.99
4/27/2023 3:00:00 AM 10.1 50.18 0.11 6.99 2.57 10.99
4/27/2023 3:15:00 AM 10.11 50.198 0.11 6.98 2.7 10.98
4/27/2023 3:30:00 AM 10.12 50.216 0.11 6.99 2.68 10.98
4/27/2023 3:45:00 AM 10.13 50.234 0.11 6.99 2.5 10.98
4/27/2023 4:00:00 AM 10.14 50.252 0.11 6.99 2.59 10.97
4/27/2023 4:15:00 AM 10.15 50.27 0.11 6.99 2.56 10.97
4/27/2023 4:30:00 AM 10.15 50.27 0.11 6.99 2.55 10.97
4/27/2023 4:45:00 AM 10.16 50.288 0.109 6.99 2.52 10.97
4/27/2023 5:00:00 AM 10.17 50.306 0.109 6.99 2.62 10.97
4/27/2023 5:15:00 AM 10.17 50.306 0.109 6.98 2.51 10.96
4/27/2023 5:30:00 AM 10.18 50.324 0.109 6.98 2.52 10.97
4/27/2023 5:45:00 AM 10.18 50.324 0.109 6.98 2.35 10.96
4/27/2023 6:00:00 AM 10.19 50.342 0.109 6.98 2.54 10.96
4/27/2023 6:15:00 AM 10.19 50.342 0.109 6.98 2.56 10.96
4/27/2023 6:30:00 AM 10.2 50.36 0.109 6.98 2.5 10.97
4/27/2023 6:45:00 AM 10.2 50.36 0.109 6.99 2.43 11
4/27/2023 7:00:00 AM 10.2 50.36 0.109 7 2.4 11.03
4/27/2023 7:15:00 AM 10.2 50.36 0.109 7 2.85 11.07
4/27/2023 7:30:00 AM 10.21 50.378 0.109 7.01 2.33 11.12
4/27/2023 7:45:00 AM 10.21 50.378 0.109 7.03 2.36 11.17
4/27/2023 8:00:00 AM 10.23 50.414 0.109 7.04 2.26 11.23
4/27/2023 8:15:00 AM 10.25 50.45 0.109 7.07 2.27 11.31
4/27/2023 8:30:00 AM 10.29 50.522 0.108 7.09 2.31 11.45
4/27/2023 8:45:00 AM 10.34 50.612 0.108 7.13 2.22 11.58
4/27/2023 9:00:00 AM 10.38 50.684 0.108 7.17 2.27 11.67
4/27/2023 9:15:00 AM 10.42 50.756 0.108 7.2 2.29 11.76
4/27/2023 9:30:00 AM 10.47 50.846 0.107 7.24 2.24 11.83
4/27/2023 9:45:00 AM 10.57 51.026 0.107 7.28 2.18 11.91
4/27/2023 10:00:00 AM 10.64 51.152 0.107 7.3 2.27 11.95
4/27/2023 10:15:00 AM 10.79 51.422 0.107 7.34 2.34 11.99
4/27/2023 10:30:00 AM 10.87 51.566 0.107 7.36 2.47 12.01
4/27/2023 10:45:00 AM 11 51.8 0.107 7.38 2.31 12.03
4/27/2023 11:00:00 AM 11.13 52.034 0.107 7.4 2.23 12.03
4/27/2023 11:15:00 AM 11.35 52.43 0.107 7.43 2.23 12.04
4/27/2023 11:30:00 AM 11.39 52.502 0.107 7.44 2.29 12.01
4/27/2023 11:45:00 AM 11.47 52.646 0.106 7.45 2.25 12
4/27/2023 12:00:00 PM 11.62 52.916 0.107 7.47 2.29 11.99
4/27/2023 12:15:00 PM 11.85 53.33 0.107 7.49 2.24 11.99
4/27/2023 12:30:00 PM 12.09 53.762 0.106 7.51 2.28 11.96
4/27/2023 12:45:00 PM 12.45 54.41 0.107 7.53 2.26 11.93
4/27/2023 1:00:00 PM 12.7 54.86 0.107 7.55 2.23 11.89
4/27/2023 1:15:00 PM 12.85 55.13 0.107 7.55 2.34 11.85
4/27/2023 1:30:00 PM 13.02 55.436 0.107 7.57 2.38 11.83
4/27/2023 1:45:00 PM 13.11 55.598 0.107 7.58 2.32 11.79
4/27/2023 2:00:00 PM 13.55 56.39 0.107 7.61 2.37 11.78
4/27/2023 2:15:00 PM 13.56 56.408 0.107 7.6 2.34 11.7
4/27/2023 2:30:00 PM 13.93 57.074 0.107 7.63 2.27 11.69
4/27/2023 2:45:00 PM 14.11 57.398 0.107 7.63 2.22 11.63
4/27/2023 3:00:00 PM 14.1 57.38 0.107 7.63 2.27 11.6
4/27/2023 3:15:00 PM 14.03 57.254 0.107 7.63 2.41 11.56
4/27/2023 3:30:00 PM 13.91 57.038 0.107 7.64 2.45 11.55
4/27/2023 3:45:00 PM 13.81 56.858 0.107 7.63 2.39 11.54
4/27/2023 4:00:00 PM 13.8 56.84 0.107 7.64 2.66 11.56
4/27/2023 4:15:00 PM 13.66 56.588 0.107 7.65 2.41 11.59
4/27/2023 4:30:00 PM 13.4 56.12 0.107 7.64 2.47 11.57
4/27/2023 4:45:00 PM 13.3 55.94 0.107 7.64 2.5 11.59
4/27/2023 5:00:00 PM 13.11 55.598 0.107 7.63 2.58 11.59
4/27/2023 5:15:00 PM 12.9 55.22 0.107 7.62 2.47 11.61
4/27/2023 5:30:00 PM 12.69 54.842 0.107 7.61 2.46 11.63
4/27/2023 5:45:00 PM 12.49 54.482 0.107 7.6 2.58 11.65
4/27/2023 6:00:00 PM 12.27 54.086 0.107 7.58 2.49 11.66
4/27/2023 6:15:00 PM 12.08 53.744 0.107 7.56 2.59 11.66
4/27/2023 6:30:00 PM 11.91 53.438 0.107 7.53 2.53 11.64
4/27/2023 6:45:00 PM 11.74 53.132 0.108 7.48 2.42 11.6
4/27/2023 7:00:00 PM 11.58 52.844 0.108 7.44 2.47 11.55
4/27/2023 7:15:00 PM 11.44 52.592 0.108 7.39 2.44 11.49
4/27/2023 7:30:00 PM 11.28 52.304 0.108 7.33 2.55 11.41
4/27/2023 7:45:00 PM 11.12 52.016 0.108 7.28 2.72 11.33
4/27/2023 8:00:00 PM 10.97 51.746 0.108 7.24 2.46 11.25
4/27/2023 8:15:00 PM 10.82 51.476 0.108 7.19 2.53 11.18
4/27/2023 8:30:00 PM 10.7 51.26 0.108 7.16 2.56 11.12
4/27/2023 8:45:00 PM 10.59 51.062 0.108 7.13 2.45 11.08
4/27/2023 9:00:00 PM 10.5 50.9 0.109 7.11 2.59 11.06
4/27/2023 9:15:00 PM 10.42 50.756 0.109 7.09 2.74 11.03
4/27/2023 9:30:00 PM 10.36 50.648 0.109 7.08 2.56 11.01
4/27/2023 9:45:00 PM 10.32 50.576 0.109 7.06 2.56 10.98
4/27/2023 10:00:00 PM 10.31 50.558 0.109 7.05 2.49 10.95
4/27/2023 10:15:00 PM 10.31 50.558 0.109 7.04 2.35 10.93
4/27/2023 10:30:00 PM 10.3 50.54 0.109 7.04 2.58 10.91
4/27/2023 10:45:00 PM 10.3 50.54 0.109 7.03 2.44 10.89
4/27/2023 11:00:00 PM 10.3 50.54 0.109 7.02 2.42 10.88
4/27/2023 11:15:00 PM 10.3 50.54 0.109 7.02 2.57 10.87
4/27/2023 11:30:00 PM 10.31 50.558 0.109 7.01 2.49 10.87
4/27/2023 11:45:00 PM 10.32 50.576 0.109 7.01 2.34 10.86
4/28/2023 12:00:00 AM 10.33 50.594 0.109 7.01 2.34 10.85
4/28/2023 12:15:00 AM 10.34 50.612 0.109 7 2.42 10.85
4/28/2023 12:30:00 AM 10.36 50.648 0.109 7 2.41 10.84
4/28/2023 12:45:00 AM 10.38 50.684 0.109 7 2.33 10.84
4/28/2023 1:00:00 AM 10.4 50.72 0.109 6.99 2.39 10.83
4/28/2023 1:15:00 AM 10.4 50.72 0.109 6.99 2.38 10.83
4/28/2023 1:30:00 AM 10.42 50.756 0.109 6.99 2.41 10.83
4/28/2023 1:45:00 AM 10.45 50.81 0.109 6.99 2.39 10.81
4/28/2023 2:00:00 AM 10.51 50.918 0.109 6.99 2.38 10.79
4/28/2023 2:15:00 AM 10.57 51.026 0.109 6.99 2.29 10.77
4/28/2023 2:30:00 AM 10.65 51.17 0.109 6.99 2.45 10.75
4/28/2023 2:45:00 AM 10.74 51.332 0.108 6.99 2.37 10.72
4/28/2023 3:00:00 AM 10.84 51.512 0.108 6.99 2.33 10.69
4/28/2023 3:15:00 AM 10.92 51.656 0.108 6.99 2.54 10.67
4/28/2023 3:30:00 AM 11 51.8 0.108 6.99 2.36 10.65
4/28/2023 3:45:00 AM 11.08 51.944 0.108 6.99 2.26 10.63
4/28/2023 4:00:00 AM 11.14 52.052 0.108 6.99 2.44 10.61
4/28/2023 4:15:00 AM 11.19 52.142 0.108 6.98 2.37 10.6
4/28/2023 4:30:00 AM 11.24 52.232 0.108 6.98 2.39 10.58
4/28/2023 4:45:00 AM 11.28 52.304 0.108 6.98 2.49 10.58
4/28/2023 5:00:00 AM 11.31 52.358 0.108 6.98 2.36 10.57
4/28/2023 5:15:00 AM 11.33 52.394 0.108 6.98 2.28 10.56
4/28/2023 5:30:00 AM 11.36 52.448 0.108 6.98 2.53 10.56
4/28/2023 5:45:00 AM 11.37 52.466 0.108 6.98 2.4 10.55
4/28/2023 6:00:00 AM 11.39 52.502 0.108 6.98 2.43 10.55
4/28/2023 6:15:00 AM 11.4 52.52 0.108 6.98 2.35 10.55
4/28/2023 6:30:00 AM 11.41 52.538 0.108 6.99 2.5 10.56
4/28/2023 6:45:00 AM 11.42 52.556 0.108 7 2.37 10.6
4/28/2023 7:00:00 AM 11.43 52.574 0.108 7 2.48 10.65
4/28/2023 7:15:00 AM 11.43 52.574 0.108 7.02 2.22 10.71
4/28/2023 7:30:00 AM 11.44 52.592 0.108 7.04 2.33 10.79
4/28/2023 7:45:00 AM 11.44 52.592 0.108 7.06 2.32 10.85
4/28/2023 8:00:00 AM 11.44 52.592 0.108 7.08 2.35 10.92
4/28/2023 8:15:00 AM 11.46 52.628 0.107 7.1 2.23 11
4/28/2023 8:30:00 AM 11.47 52.646 0.107 7.11 2.21 11.02
4/28/2023 8:45:00 AM 11.49 52.682 0.107 7.13 2.29 11.1
4/28/2023 9:00:00 AM 11.51 52.718 0.107 7.16 2.25 11.19
4/28/2023 9:15:00 AM 11.53 52.754 0.107 7.18 2.26 11.24
4/28/2023 9:30:00 AM 11.54 52.772 0.107 7.21 2.22 11.29
4/28/2023 9:45:00 AM 11.57 52.826 0.107 7.23 2.29 11.36
4/28/2023 10:00:00 AM 11.59 52.862 0.107 7.26 2.27 11.41
4/28/2023 10:15:00 AM 11.6 52.88 0.107 7.28 2.29 11.44
4/28/2023 10:30:00 AM 11.61 52.898 0.106 7.29 2.31 11.48
4/28/2023 10:45:00 AM 11.61 52.898 0.106 7.31 2.25 11.5
4/28/2023 11:00:00 AM 11.61 52.898 0.106 7.32 2.37 11.51
4/28/2023 11:15:00 AM 11.61 52.898 0.106 7.32 2.21 11.48
4/28/2023 11:30:00 AM 11.61 52.898 0.106 7.33 2.3 11.49
4/28/2023 11:45:00 AM 11.61 52.898 0.106 7.34 2.33 11.52
4/28/2023 12:00:00 PM 11.6 52.88 0.106 7.35 2.4 11.52
4/28/2023 12:15:00 PM 11.6 52.88 0.106 7.36 2.36 11.53
4/28/2023 12:30:00 PM 11.6 52.88 0.106 7.36 2.35 11.55
4/28/2023 12:45:00 PM 11.6 52.88 0.106 7.38 2.36 11.58
4/28/2023 1:00:00 PM 11.6 52.88 0.106 7.4 2.41 11.61
4/28/2023 1:15:00 PM 11.61 52.898 0.106 7.42 2.38 11.64
4/28/2023 1:30:00 PM 11.63 52.934 0.106 7.44 2.44 11.67
4/28/2023 1:45:00 PM 11.63 52.934 0.106 7.46 2.28 11.67
4/28/2023 2:00:00 PM 11.62 52.916 0.106 7.45 2.32 11.66
4/28/2023 2:15:00 PM 11.61 52.898 0.106 7.45 2.25 11.63
4/28/2023 2:30:00 PM 11.59 52.862 0.106 7.42 2.29 11.59
4/28/2023 2:45:00 PM 11.57 52.826 0.106 7.41 2.29 11.57
4/28/2023 3:00:00 PM 11.55 52.79 0.106 7.4 2.24 11.56
4/28/2023 3:15:00 PM 11.53 52.754 0.106 7.4 2.3 11.55
4/28/2023 3:30:00 PM 11.51 52.718 0.106 7.39 2.38 11.55
4/28/2023 3:45:00 PM 11.49 52.682 0.106 7.4 2.9 11.55
4/28/2023 4:00:00 PM 11.5 52.7 0.106 7.41 2.32 11.59
4/28/2023 4:15:00 PM 11.52 52.736 0.106 7.44 2.39 11.63
4/28/2023 4:30:00 PM 11.51 52.718 0.106 7.45 2.33 11.63
4/28/2023 4:45:00 PM 11.5 52.7 0.106 7.44 2.43 11.61
4/28/2023 5:00:00 PM 11.48 52.664 0.106 7.43 2.39 11.58
4/28/2023 5:15:00 PM 11.45 52.61 0.106 7.38 2.41 11.49
4/28/2023 5:30:00 PM 11.42 52.556 0.106 7.35 2.54 11.4
4/28/2023 5:45:00 PM 11.4 52.52 0.106 7.33 2.7 11.38
4/28/2023 6:00:00 PM 11.38 52.484 0.106 7.31 2.38 11.35
4/28/2023 6:15:00 PM 11.36 52.448 0.106 7.29 2.49 11.32
4/28/2023 6:30:00 PM 11.34 52.412 0.106 7.28 2.77 11.28
4/28/2023 6:45:00 PM 11.32 52.376 0.107 7.25 2.58 11.21
4/28/2023 7:00:00 PM 11.3 52.34 0.107 7.23 2.61 11.17
4/28/2023 7:15:00 PM 11.27 52.286 0.107 7.21 2.45 11.14
4/28/2023 7:30:00 PM 11.23 52.214 0.107 7.19 2.41 11.08
4/28/2023 7:45:00 PM 11.18 52.124 0.107 7.16 2.61 11.01
4/28/2023 8:00:00 PM 11.13 52.034 0.107 7.14 2.53 10.95
4/28/2023 8:15:00 PM 11.08 51.944 0.107 7.12 2.47 10.9
4/28/2023 8:30:00 PM 11.02 51.836 0.108 7.1 2.65 10.87
4/28/2023 8:45:00 PM 10.97 51.746 0.108 7.09 2.5 10.84
4/28/2023 9:00:00 PM 10.93 51.674 0.108 7.07 2.67 10.82
4/28/2023 9:15:00 PM 10.88 51.584 0.108 7.06 2.63 10.8
4/28/2023 9:30:00 PM 10.83 51.494 0.108 7.05 2.61 10.79
4/28/2023 9:45:00 PM 10.8 51.44 0.108 7.05 2.55 10.78
4/28/2023 10:00:00 PM 10.77 51.386 0.108 7.04 2.62 10.77
4/28/2023 10:15:00 PM 10.75 51.35 0.108 7.03 2.69 10.75
4/28/2023 10:30:00 PM 10.74 51.332 0.108 7.03 2.59 10.75
4/28/2023 10:45:00 PM 10.72 51.296 0.108 7.02 2.56 10.74
4/28/2023 11:00:00 PM 10.71 51.278 0.108 7.02 2.54 10.73
4/28/2023 11:15:00 PM 10.7 51.26 0.108 7.01 2.62 10.73
4/28/2023 11:30:00 PM 10.69 51.242 0.108 7.01 2.6 10.73
4/28/2023 11:45:00 PM 10.69 51.242 0.108 7.01 2.48 10.73
4/29/2023 12:00:00 AM 10.68 51.224 0.108 7.01 2.63 10.73
4/29/2023 12:15:00 AM 10.68 51.224 0.108 7 2.57 10.72
4/29/2023 12:30:00 AM 10.67 51.206 0.108 7 2.43 10.72
4/29/2023 12:45:00 AM 10.67 51.206 0.108 7 2.43 10.73
4/29/2023 1:00:00 AM 10.66 51.188 0.108 7 2.45 10.72
4/29/2023 1:15:00 AM 10.66 51.188 0.108 7 2.51 10.72
4/29/2023 1:30:00 AM 10.65 51.17 0.108 6.99 2.57 10.72
4/29/2023 1:45:00 AM 10.65 51.17 0.108 6.99 2.46 10.72
4/29/2023 2:00:00 AM 10.65 51.17 0.108 6.99 2.5 10.72
4/29/2023 2:15:00 AM 10.64 51.152 0.108 6.99 2.54 10.72
4/29/2023 2:30:00 AM 10.64 51.152 0.108 6.99 2.47 10.72
4/29/2023 2:45:00 AM 10.64 51.152 0.108 6.99 2.5 10.72
4/29/2023 3:00:00 AM 10.63 51.134 0.108 6.99 2.48 10.72
4/29/2023 3:15:00 AM 10.63 51.134 0.107 6.98 2.53 10.72
4/29/2023 3:30:00 AM 10.63 51.134 0.107 6.98 2.48 10.72
4/29/2023 3:45:00 AM 10.63 51.134 0.107 6.98 2.63 10.71
4/29/2023 4:00:00 AM 10.63 51.134 0.107 6.98 2.51 10.72
4/29/2023 4:15:00 AM 10.64 51.152 0.107 6.98 2.47 10.71
4/29/2023 4:30:00 AM 10.64 51.152 0.107 6.98 2.74 10.71
4/29/2023 4:45:00 AM 10.64 51.152 0.108 6.98 2.54 10.72
4/29/2023 5:00:00 AM 10.63 51.134 0.108 6.98 2.49 10.73
4/29/2023 5:15:00 AM 10.61 51.098 0.108 6.98 2.45 10.73
4/29/2023 5:30:00 AM 10.58 51.044 0.108 6.98 2.53 10.74
4/29/2023 5:45:00 AM 10.55 50.99 0.108 6.98 2.59 10.75
4/29/2023 6:00:00 AM 10.53 50.954 0.108 6.98 2.6 10.76
4/29/2023 6:15:00 AM 10.51 50.918 0.108 6.98 2.53 10.77
4/29/2023 6:30:00 AM 10.49 50.882 0.108 6.98 2.53 10.79
4/29/2023 6:45:00 AM 10.47 50.846 0.108 6.98 2.62 10.81
4/29/2023 7:00:00 AM 10.46 50.828 0.108 6.98 2.61 10.83
4/29/2023 7:15:00 AM 10.46 50.828 0.108 7 2.53 10.88
4/29/2023 7:30:00 AM 10.46 50.828 0.107 7.01 2.5 10.97
4/29/2023 7:45:00 AM 10.48 50.864 0.107 7.03 2.47 11.04
4/29/2023 8:00:00 AM 10.49 50.882 0.107 7.05 2.51 11.08
4/29/2023 8:15:00 AM 10.49 50.882 0.107 7.06 2.53 11.12
4/29/2023 8:30:00 AM 10.49 50.882 0.107 7.06 2.42 11.15
4/29/2023 8:45:00 AM 10.5 50.9 0.107 7.08 2.43 11.19
4/29/2023 9:00:00 AM 10.52 50.936 0.107 7.1 2.56 11.29
4/29/2023 9:15:00 AM 10.55 50.99 0.107 7.13 2.42 11.38
4/29/2023 9:30:00 AM 10.57 51.026 0.107 7.16 2.44 11.47
4/29/2023 9:45:00 AM 10.6 51.08 0.107 7.18 2.6 11.54
4/29/2023 10:00:00 AM 10.63 51.134 0.106 7.21 2.43 11.59
4/29/2023 10:15:00 AM 10.64 51.152 0.106 7.23 2.37 11.63
4/29/2023 10:30:00 AM 10.66 51.188 0.106 7.25 2.44 11.65
4/29/2023 10:45:00 AM 10.67 51.206 0.106 7.26 2.36 11.67
4/29/2023 11:00:00 AM 10.67 51.206 0.106 7.27 2.35 11.67
4/29/2023 11:15:00 AM 10.72 51.296 0.106 7.29 2.43 11.72
4/29/2023 11:30:00 AM 10.85 51.53 0.106 7.32 2.46 11.8
4/29/2023 11:45:00 AM 10.92 51.656 0.106 7.35 2.42 11.82
4/29/2023 12:00:00 PM 10.9 51.62 0.106 7.36 2.55 11.81
4/29/2023 12:15:00 PM 10.88 51.584 0.106 7.36 2.4 11.8
4/29/2023 12:30:00 PM 10.85 51.53 0.106 7.37 2.63 11.78
4/29/2023 12:45:00 PM 10.85 51.53 0.106 7.37 2.5 11.79
4/29/2023 1:00:00 PM 10.9 51.62 0.106 7.39 2.6 11.82
4/29/2023 1:15:00 PM 10.91 51.638 0.106 7.41 2.56 11.85
4/29/2023 1:30:00 PM 10.89 51.602 0.106 7.41 2.64 11.83
4/29/2023 1:45:00 PM 10.88 51.584 0.106 7.41 2.62 11.82
4/29/2023 2:00:00 PM 10.89 51.602 0.106 7.42 2.6 11.83
4/29/2023 2:15:00 PM 10.9 51.62 0.107 7.43 2.9 11.85
4/29/2023 2:30:00 PM 10.93 51.674 0.107 7.44 2.71 11.87
4/29/2023 2:45:00 PM 10.94 51.692 0.107 7.45 2.65 11.86
4/29/2023 3:00:00 PM 10.95 51.71 0.107 7.45 2.62 11.86
4/29/2023 3:15:00 PM 10.93 51.674 0.107 7.45 2.63 11.85
4/29/2023 3:30:00 PM 10.93 51.674 0.107 7.45 2.71 11.85
4/29/2023 3:45:00 PM 10.9 51.62 0.107 7.44 2.7 11.81
4/29/2023 4:00:00 PM 10.84 51.512 0.107 7.39 2.76 11.71
4/29/2023 4:15:00 PM 10.79 51.422 0.107 7.35 2.92 11.64
4/29/2023 4:30:00 PM 10.75 51.35 0.107 7.32 2.73 11.62
4/29/2023 4:45:00 PM 10.69 51.242 0.107 7.28 2.65 11.53
4/29/2023 5:00:00 PM 10.63 51.134 0.107 7.24 2.96 11.46
4/29/2023 5:15:00 PM 10.58 51.044 0.108 7.22 2.72 11.44
4/29/2023 5:30:00 PM 10.54 50.972 0.108 7.19 2.71 11.39
4/29/2023 5:45:00 PM 10.53 50.954 0.108 7.2 2.7 11.45
4/29/2023 6:00:00 PM 10.52 50.936 0.108 7.2 2.82 11.46
4/29/2023 6:15:00 PM 10.48 50.864 0.108 7.18 3.08 11.4
4/29/2023 6:30:00 PM 10.45 50.81 0.108 7.16 2.9 11.36
4/29/2023 6:45:00 PM 10.42 50.756 0.108 7.14 2.89 11.33
4/29/2023 7:00:00 PM 10.39 50.702 0.108 7.12 2.85 11.3
4/29/2023 7:15:00 PM 10.37 50.666 0.108 7.11 2.87 11.27
4/29/2023 7:30:00 PM 10.35 50.63 0.108 7.1 2.87 11.25
4/29/2023 7:45:00 PM 10.34 50.612 0.108 7.08 2.98 11.21
4/29/2023 8:00:00 PM 10.33 50.594 0.108 7.07 2.93 11.17
4/29/2023 8:15:00 PM 10.33 50.594 0.108 7.05 2.95 11.13
4/29/2023 8:30:00 PM 10.34 50.612 0.108 7.04 2.83 11.1
4/29/2023 8:45:00 PM 10.34 50.612 0.108 7.03 3.26 11.07
4/29/2023 9:00:00 PM 10.34 50.612 0.108 7.02 3 11.05
4/29/2023 9:15:00 PM 10.35 50.63 0.108 7.02 3.05 11.03
4/29/2023 9:30:00 PM 10.35 50.63 0.108 7.01 3.19 11.01
4/29/2023 9:45:00 PM 10.36 50.648 0.108 7 3.07 11
4/29/2023 10:00:00 PM 10.37 50.666 0.108 6.99 2.97 10.99
4/29/2023 10:15:00 PM 10.38 50.684 0.108 6.99 3.23 10.99
4/29/2023 10:30:00 PM 10.39 50.702 0.108 6.99 3.07 10.98
4/29/2023 10:45:00 PM 10.4 50.72 0.108 6.98 3 10.97
4/29/2023 11:00:00 PM 10.41 50.738 0.108 6.98 2.82 10.97
4/29/2023 11:15:00 PM 10.42 50.756 0.108 6.98 2.86 10.97
4/29/2023 11:30:00 PM 10.43 50.774 0.108 6.98 2.7 10.96
4/29/2023 11:45:00 PM 10.44 50.792 0.108 6.98 2.97 10.96
4/30/2023 12:00:00 AM 10.45 50.81 0.108 6.97 2.87 10.96
4/30/2023 12:15:00 AM 10.45 50.81 0.108 6.98 2.74 10.95
4/30/2023 12:30:00 AM 10.46 50.828 0.108 6.97 2.7 10.96
4/30/2023 12:45:00 AM 10.46 50.828 0.108 6.97 2.82 10.95
4/30/2023 1:00:00 AM 10.46 50.828 0.108 6.97 2.65 10.95
4/30/2023 1:15:00 AM 10.46 50.828 0.108 6.98 2.78 10.95
4/30/2023 1:30:00 AM 10.46 50.828 0.107 6.97 2.88 10.95
4/30/2023 1:45:00 AM 10.46 50.828 0.107 6.97 2.83 10.95
4/30/2023 2:00:00 AM 10.47 50.846 0.107 6.97 2.69 10.95
4/30/2023 2:15:00 AM 10.46 50.828 0.107 6.98 2.93 10.94
4/30/2023 2:30:00 AM 10.46 50.828 0.107 6.98 2.77 10.95
4/30/2023 2:45:00 AM 10.46 50.828 0.107 6.98 2.72 10.95
4/30/2023 3:00:00 AM 10.46 50.828 0.107 6.98 2.61 10.94
4/30/2023 3:15:00 AM 10.45 50.81 0.107 6.98 2.63 10.94
4/30/2023 3:30:00 AM 10.45 50.81 0.107 6.99 2.69 10.94
4/30/2023 3:45:00 AM 10.44 50.792 0.107 6.99 2.71 10.94
4/30/2023 4:00:00 AM 10.44 50.792 0.107 6.99 2.75 10.94
4/30/2023 4:15:00 AM 10.44 50.792 0.107 6.99 2.82 10.94
4/30/2023 4:30:00 AM 10.44 50.792 0.107 6.99 2.97 10.93
4/30/2023 4:45:00 AM 10.43 50.774 0.106 6.99 2.91 10.93
4/30/2023 5:00:00 AM 10.42 50.756 0.106 6.99 2.93 10.94
4/30/2023 5:15:00 AM 10.41 50.738 0.106 6.99 3.1 10.93
4/30/2023 5:30:00 AM 10.41 50.738 0.106 6.99 3.5 10.92
4/30/2023 5:45:00 AM 10.39 50.702 0.106 6.99 3.37 10.93
4/30/2023 6:00:00 AM 10.38 50.684 0.106 6.99 3.42 10.93
4/30/2023 6:15:00 AM 10.38 50.684 0.106 6.98 3.52 10.92
4/30/2023 6:30:00 AM 10.37 50.666 0.106 6.98 3.5 10.93
4/30/2023 6:45:00 AM 10.36 50.648 0.106 6.98 3.23 10.95
4/30/2023 7:00:00 AM 10.35 50.63 0.106 6.99 3.11 10.98
4/30/2023 7:15:00 AM 10.35 50.63 0.106 7 2.99 11.02
4/30/2023 7:30:00 AM 10.35 50.63 0.106 7.01 2.94 11.08
4/30/2023 7:45:00 AM 10.34 50.612 0.106 7.02 3 11.12
4/30/2023 8:00:00 AM 10.34 50.612 0.106 7.04 2.91 11.16
4/30/2023 8:15:00 AM 10.34 50.612 0.106 7.05 2.9 11.21
4/30/2023 8:30:00 AM 10.35 50.63 0.106 7.06 2.96 11.24
4/30/2023 8:45:00 AM 10.36 50.648 0.106 7.08 2.83 11.3
4/30/2023 9:00:00 AM 10.38 50.684 0.106 7.09 2.84 11.33
4/30/2023 9:15:00 AM 10.39 50.702 0.106 7.1 2.83 11.34
4/30/2023 9:30:00 AM 10.4 50.72 0.106 7.1 2.79 11.32
4/30/2023 9:45:00 AM 10.41 50.738 0.106 7.1 2.79 11.29
4/30/2023 10:00:00 AM 10.42 50.756 0.105 7.11 2.78 11.3
4/30/2023 10:15:00 AM 10.43 50.774 0.105 7.12 2.79 11.35
4/30/2023 10:30:00 AM 10.44 50.792 0.105 7.14 2.69 11.41
4/30/2023 10:45:00 AM 10.46 50.828 0.105 7.15 2.73 11.44
4/30/2023 11:00:00 AM 10.48 50.864 0.105 7.17 2.93 11.47
4/30/2023 11:15:00 AM 10.5 50.9 0.105 7.18 2.87 11.47
4/30/2023 11:30:00 AM 10.52 50.936 0.104 7.19 2.94 11.48
4/30/2023 11:45:00 AM 10.54 50.972 0.104 7.19 3.15 11.47
4/30/2023 12:00:00 PM 10.56 51.008 0.104 7.2 3.52 11.49
4/30/2023 12:15:00 PM 10.56 51.008 0.104 7.21 3.29 11.52
4/30/2023 12:30:00 PM 10.58 51.044 0.103 7.23 3.78 11.52
4/30/2023 12:45:00 PM 10.59 51.062 0.103 7.24 3.81 11.55
4/30/2023 1:00:00 PM 10.59 51.062 0.103 7.25 3.89 11.57
4/30/2023 1:15:00 PM 10.58 51.044 0.103 7.23 3.76 11.51
4/30/2023 1:30:00 PM 10.58 51.044 0.103 7.21 3.64 11.47
4/30/2023 1:45:00 PM 10.59 51.062 0.102 7.22 4.22 11.47
4/30/2023 2:00:00 PM 10.58 51.044 0.102 7.22 4.18 11.47
4/30/2023 2:15:00 PM 10.58 51.044 0.102 7.23 4.41 11.51
4/30/2023 2:30:00 PM 10.6 51.08 0.102 7.24 4.44 11.53
4/30/2023 2:45:00 PM 10.59 51.062 0.102 7.23 4.23 11.51
4/30/2023 3:00:00 PM 10.58 51.044 0.102 7.22 4.29 11.48
4/30/2023 3:15:00 PM 10.57 51.026 0.102 7.21 4.34 11.46
4/30/2023 3:30:00 PM 10.58 51.044 0.102 7.21 4.47 11.44
4/30/2023 3:45:00 PM 10.57 51.026 0.102 7.2 4.82 11.43
4/30/2023 4:00:00 PM 10.56 51.008 0.101 7.19 4.87 11.4
4/30/2023 4:15:00 PM 10.55 50.99 0.101 7.18 5.04 11.37
4/30/2023 4:30:00 PM 10.54 50.972 0.101 7.17 5.04 11.36
4/30/2023 4:45:00 PM 10.52 50.936 0.101 7.16 5.15 11.35
4/30/2023 5:00:00 PM 10.5 50.9 0.101 7.15 5.23 11.32
4/30/2023 5:15:00 PM 10.49 50.882 0.101 7.14 5.25 11.31
4/30/2023 5:30:00 PM 10.48 50.864 0.101 7.12 5.28 11.28
4/30/2023 5:45:00 PM 10.46 50.828 0.101 7.1 5.37 11.24
4/30/2023 6:00:00 PM 10.45 50.81 0.101 7.08 5.52 11.21
4/30/2023 6:15:00 PM 10.43 50.774 0.101 7.07 5.77 11.17
4/30/2023 6:30:00 PM 10.42 50.756 0.101 7.05 5.92 11.15
4/30/2023 6:45:00 PM 10.41 50.738 0.101 7.05 6.36 11.14
4/30/2023 7:00:00 PM 10.4 50.72 0.101 7.04 6.36 11.12
4/30/2023 7:15:00 PM 10.39 50.702 0.101 7.03 7.23 11.11
4/30/2023 7:30:00 PM 10.39 50.702 0.101 7.01 7.61 11.09
4/30/2023 7:45:00 PM 10.38 50.684 0.101 6.99 8.37 11.07
4/30/2023 8:00:00 PM 10.38 50.684 0.101 6.97 9.31 11.07
4/30/2023 8:15:00 PM 10.38 50.684 0.101 6.97 10.31 11.08
4/30/2023 8:30:00 PM 10.38 50.684 0.102 6.96 11 11.09
4/30/2023 8:45:00 PM 10.38 50.684 0.102 6.95 11.93 11.11
4/30/2023 9:00:00 PM 10.37 50.666 0.102 6.96 13.12 11.12
4/30/2023 9:15:00 PM 10.37 50.666 0.103 6.96 14.04 11.14
4/30/2023 9:30:00 PM 10.36 50.648 0.103 6.96 14.42 11.15
4/30/2023 9:45:00 PM 10.36 50.648 0.103 6.96 14.41 11.15
4/30/2023 10:00:00 PM 10.34 50.612 0.103 6.96 13.83 11.18
4/30/2023 10:15:00 PM 10.32 50.576 0.103 6.96 18.55 11.2
4/30/2023 10:30:00 PM 10.31 50.558 0.102 6.96 14.9 11.21
4/30/2023 10:45:00 PM 10.3 50.54 0.102 6.98 16.29 11.23
4/30/2023 11:00:00 PM 10.29 50.522 0.102 7 16.45 11.24
4/30/2023 11:15:00 PM 10.28 50.504 0.102 6.99 21.22 11.26
4/30/2023 11:30:00 PM 10.27 50.486 0.101 6.99 14.1 11.26
4/30/2023 11:45:00 PM 10.25 50.45 0.1 6.99 14.48 11.26
5/1/2023 12:00:00 AM 10.23 50.414 0.099 6.96 17.75 11.26
5/1/2023 12:15:00 AM 10.23 50.414 0.098 6.95 32.75 11.31
5/1/2023 12:30:00 AM 10.21 50.378 0.098 6.96 17.72 11.33
5/1/2023 12:45:00 AM 10.19 50.342 0.097 6.95 23.46 11.35
5/1/2023 1:00:00 AM 10.18 50.324 0.096 6.96 21.78 11.36
5/1/2023 1:15:00 AM 10.17 50.306 0.095 6.96 25.46 11.36
5/1/2023 1:30:00 AM 10.15 50.27 0.094 6.95 25.41 11.35
5/1/2023 1:45:00 AM 10.14 50.252 0.094 6.93 25.07 11.34
5/1/2023 2:00:00 AM 10.12 50.216 0.093 6.95 24.9 11.34
5/1/2023 2:15:00 AM 10.11 50.198 0.093 6.95 25.7 11.34
5/1/2023 2:30:00 AM 10.1 50.18 0.092 6.94 25.27 11.33
5/1/2023 2:45:00 AM 10.07 50.126 0.091 6.93 26.64 11.34
5/1/2023 3:00:00 AM 10.03 50.054 0.089 6.94 26.24 11.34
5/1/2023 3:15:00 AM 10.02 50.036 0.089 6.94 26.54 11.34
5/1/2023 3:30:00 AM 10.02 50.036 0.09 6.94 23.42 11.33
5/1/2023 3:45:00 AM 10.02 50.036 0.091 6.93 22.15 11.33
5/1/2023 4:00:00 AM 9.99 49.982 0.09 6.93 23.6 11.33
5/1/2023 4:15:00 AM 9.93 49.874 0.088 6.93 24.7 11.34
5/1/2023 4:30:00 AM 9.88 49.784 0.087 6.92 21.61 11.36
5/1/2023 4:45:00 AM 9.84 49.712 0.086 6.91 28.9 11.35
5/1/2023 5:00:00 AM 9.82 49.676 0.086 6.92 23.6 11.36
5/1/2023 5:15:00 AM 9.82 49.676 0.086 6.92 24.67 11.36
5/1/2023 5:30:00 AM 9.8 49.64 0.086 6.92 27.04 11.37
5/1/2023 5:45:00 AM 9.78 49.604 0.085 6.92 22.38 11.36
5/1/2023 6:00:00 AM 9.78 49.604 0.086 6.92 21.72 11.38
5/1/2023 6:15:00 AM 9.76 49.568 0.085 6.91 23.73 11.37
5/1/2023 6:30:00 AM 9.71 49.478 0.084 6.91 20.93 11.4
5/1/2023 6:45:00 AM 9.67 49.406 0.084 6.91 19.36 11.41
5/1/2023 7:00:00 AM 9.59 49.262 0.083 6.9 18.6 11.42
5/1/2023 7:15:00 AM 9.54 49.172 0.083 6.9 18.95 11.44
5/1/2023 7:30:00 AM 9.51 49.118 0.082 6.9 20.26 11.46
5/1/2023 7:45:00 AM 9.52 49.136 0.082 6.9 18.92 11.48
5/1/2023 8:00:00 AM 9.56 49.208 0.083 6.91 21.12 11.47
5/1/2023 8:15:00 AM 9.59 49.262 0.083 6.91 19.98 11.47
5/1/2023 8:30:00 AM 9.6 49.28 0.082 6.91 18.28 11.5
5/1/2023 8:45:00 AM 9.57 49.226 0.082 6.91 18.15 11.51
5/1/2023 9:00:00 AM 9.55 49.19 0.082 6.91 18.1 11.51
5/1/2023 9:15:00 AM 9.53 49.154 0.081 6.91 18.78 11.53
5/1/2023 9:30:00 AM 9.53 49.154 0.082 6.91 16.69 11.54
5/1/2023 9:45:00 AM 9.55 49.19 0.081 6.91 17.31 11.55
5/1/2023 10:00:00 AM 9.51 49.118 0.081 6.91 16.52 11.58
5/1/2023 10:15:00 AM 9.41 48.938 0.08 6.91 16.39 11.62
5/1/2023 10:30:00 AM 9.37 48.866 0.08 6.91 15.64 11.63
5/1/2023 10:45:00 AM 9.38 48.884 0.079 6.91 15.24 11.65
5/1/2023 11:00:00 AM 9.36 48.848 0.079 6.91 14.81 11.67
5/1/2023 11:15:00 AM 9.39 48.902 0.079 6.91 15.25 11.7
5/1/2023 11:30:00 AM 9.38 48.884 0.079 6.92 14.63 11.72
5/1/2023 11:45:00 AM 9.32 48.776 0.079 6.91 14.59 11.71
5/1/2023 12:00:00 PM 9.26 48.668 0.078 6.9 13.91 11.72
5/1/2023 12:15:00 PM 9.22 48.596 0.078 6.91 13.39 11.75
5/1/2023 12:30:00 PM 9.16 48.488 0.077 6.9 13.12 11.75
5/1/2023 12:45:00 PM 9.19 48.542 0.077 6.9 13.11 11.76
5/1/2023 1:00:00 PM 9.27 48.686 0.078 6.91 13.15 11.77
5/1/2023 1:15:00 PM 9.26 48.668 0.078 6.91 13.1 11.76
5/1/2023 1:30:00 PM 9.35 48.83 0.078 6.9 12.82 11.81
5/1/2023 1:45:00 PM 9.32 48.776 0.076 6.92 12.49 11.81
5/1/2023 2:00:00 PM 9.34 48.812 0.076 6.92 12.33 11.82
5/1/2023 2:15:00 PM 9.38 48.884 0.076 6.93 12.08 11.82
5/1/2023 2:30:00 PM 9.5 49.1 0.076 6.93 12 11.83
5/1/2023 2:45:00 PM 9.61 49.298 0.076 6.94 11.81 11.86
5/1/2023 3:00:00 PM 9.68 49.424 0.076 6.93 11.42 11.88
5/1/2023 3:15:00 PM 9.73 49.514 0.075 6.95 10.89 11.88
5/1/2023 3:30:00 PM 9.61 49.298 0.075 6.95 10.91 11.84
5/1/2023 3:45:00 PM 9.47 49.046 0.075 6.93 10.33 11.78
5/1/2023 4:00:00 PM 9.41 48.938 0.074 6.91 10.56 11.77
5/1/2023 4:15:00 PM 9.4 48.92 0.074 6.92 10.14 11.75
5/1/2023 4:30:00 PM 9.37 48.866 0.074 6.92 10.04 11.74
5/1/2023 4:45:00 PM 9.38 48.884 0.074 6.92 10.26 11.74
5/1/2023 5:00:00 PM 9.37 48.866 0.073 6.92 9.8 11.7
5/1/2023 5:15:00 PM 9.42 48.956 0.073 6.92 9.63 11.7
5/1/2023 5:30:00 PM 9.37 48.866 0.073 6.91 9.58 11.68
5/1/2023 5:45:00 PM 9.35 48.83 0.073 6.9 9.48 11.67
5/1/2023 6:00:00 PM 9.34 48.812 0.073 6.9 9.39 11.67
5/1/2023 6:15:00 PM 9.33 48.794 0.073 6.9 9.22 11.67
5/1/2023 6:30:00 PM 9.33 48.794 0.073 6.89 9.16 11.65
5/1/2023 6:45:00 PM 9.37 48.866 0.072 6.9 9 11.63
5/1/2023 7:00:00 PM 9.41 48.938 0.072 6.89 8.79 11.61
5/1/2023 7:15:00 PM 9.42 48.956 0.072 6.88 8.88 11.58
5/1/2023 7:30:00 PM 9.4 48.92 0.072 6.87 8.63 11.57
5/1/2023 7:45:00 PM 9.38 48.884 0.072 6.87 8.67 11.57
5/1/2023 8:00:00 PM 9.37 48.866 0.072 6.87 8.64 11.55
5/1/2023 8:15:00 PM 9.38 48.884 0.072 6.86 8.69 11.54
5/1/2023 8:30:00 PM 9.4 48.92 0.072 6.86 8.96 11.52
5/1/2023 8:45:00 PM 9.42 48.956 0.072 6.86 8.66 11.5
5/1/2023 9:00:00 PM 9.43 48.974 0.072 6.85 8.33 11.5
5/1/2023 9:15:00 PM 9.44 48.992 0.072 6.85 8.15 11.49
5/1/2023 9:30:00 PM 9.47 49.046 0.071 6.85 8.15 11.48
5/1/2023 9:45:00 PM 9.51 49.118 0.071 6.85 7.91 11.47
5/1/2023 10:00:00 PM 9.53 49.154 0.071 6.85 7.89 11.45
5/1/2023 10:15:00 PM 9.53 49.154 0.071 6.85 7.77 11.46
5/1/2023 10:30:00 PM 9.54 49.172 0.071 6.85 7.82 11.45
5/1/2023 10:45:00 PM 9.54 49.172 0.071 6.85 7.64 11.45
5/1/2023 11:00:00 PM 9.54 49.172 0.071 6.85 7.65 11.45
5/1/2023 11:15:00 PM 9.53 49.154 0.07 6.84 7.42 11.46
5/1/2023 11:30:00 PM 9.52 49.136 0.07 6.84 7.29 11.46
5/1/2023 11:45:00 PM 9.51 49.118 0.07 6.85 7.07 11.46
5/2/2023 12:00:00 AM 9.5 49.1 0.07 6.84 7.08 11.46
5/2/2023 12:15:00 AM 9.51 49.118 0.071 6.84 7.16 11.46
5/2/2023 12:30:00 AM 9.49 49.082 0.071 6.85 7.2 11.45
5/2/2023 12:45:00 AM 9.46 49.028 0.07 6.84 7.07 11.46
5/2/2023 1:00:00 AM 9.44 48.992 0.07 6.84 7.29 11.46
5/2/2023 1:15:00 AM 9.41 48.938 0.07 6.82 6.8 11.46
5/2/2023 1:30:00 AM 9.38 48.884 0.07 6.83 7.03 11.48
5/2/2023 1:45:00 AM 9.34 48.812 0.07 6.83 7.1 11.48
5/2/2023 2:00:00 AM 9.32 48.776 0.07 6.82 6.85 11.48
5/2/2023 2:15:00 AM 9.3 48.74 0.07 6.83 6.95 11.48
5/2/2023 2:30:00 AM 9.27 48.686 0.07 6.82 6.97 11.49
5/2/2023 2:45:00 AM 9.25 48.65 0.07 6.83 6.81 11.5
5/2/2023 3:00:00 AM 9.23 48.614 0.07 6.83 6.72 11.5
5/2/2023 3:15:00 AM 9.2 48.56 0.07 6.82 6.73 11.5
5/2/2023 3:30:00 AM 9.19 48.542 0.07 6.82 6.61 11.5
5/2/2023 3:45:00 AM 9.16 48.488 0.07 6.82 6.59 11.5
5/2/2023 4:00:00 AM 9.14 48.452 0.07 6.82 6.58 11.51
5/2/2023 4:15:00 AM 9.1 48.38 0.069 6.82 6.5 11.51
5/2/2023 4:30:00 AM 9.05 48.29 0.07 6.81 6.53 11.52
5/2/2023 4:45:00 AM 9.03 48.254 0.07 6.81 6.51 11.53
5/2/2023 5:00:00 AM 9.01 48.218 0.069 6.81 6.25 11.55
5/2/2023 5:15:00 AM 8.99 48.182 0.069 6.81 6.28 11.56
5/2/2023 5:30:00 AM 8.97 48.146 0.069 6.81 6.33 11.56
5/2/2023 5:45:00 AM 8.93 48.074 0.069 6.81 6.37 11.58
5/2/2023 6:00:00 AM 8.91 48.038 0.069 6.81 6.29 11.58
5/2/2023 6:15:00 AM 8.91 48.038 0.069 6.8 6.3 11.59
5/2/2023 6:30:00 AM 8.89 48.002 0.069 6.8 6.36 11.59
5/2/2023 6:45:00 AM 8.86 47.948 0.069 6.8 6.26 11.6
5/2/2023 7:00:00 AM 8.83 47.894 0.069 6.81 6.15 11.63
5/2/2023 7:15:00 AM 8.8 47.84 0.069 6.82 6.18 11.65
5/2/2023 7:30:00 AM 8.77 47.786 0.069 6.83 6.41 11.69
5/2/2023 7:45:00 AM 8.78 47.804 0.069 6.84 6.33 11.72
5/2/2023 8:00:00 AM 8.78 47.804 0.069 6.84 6.24 11.75
5/2/2023 8:15:00 AM 8.78 47.804 0.069 6.84 6.13 11.78
5/2/2023 8:30:00 AM 8.77 47.786 0.069 6.86 6.27 11.81
5/2/2023 8:45:00 AM 8.75 47.75 0.069 6.87 5.9 11.84
5/2/2023 9:00:00 AM 8.75 47.75 0.068 6.87 5.85 11.87
5/2/2023 9:15:00 AM 8.74 47.732 0.068 6.87 5.76 11.88
5/2/2023 9:30:00 AM 8.77 47.786 0.068 6.89 6.06 11.9
5/2/2023 9:45:00 AM 8.76 47.768 0.068 6.89 5.72 11.92
5/2/2023 10:00:00 AM 8.76 47.768 0.069 6.9 5.73 11.94
5/2/2023 10:15:00 AM 8.78 47.804 0.069 6.9 5.65 11.95
5/2/2023 10:30:00 AM 8.8 47.84 0.068 6.9 5.87 11.95
5/2/2023 10:45:00 AM 8.8 47.84 0.069 6.91 5.86 11.97
5/2/2023 11:00:00 AM 8.79 47.822 0.068 6.9 5.96 11.96
5/2/2023 11:15:00 AM 8.8 47.84 0.069 6.91 5.62 11.98
5/2/2023 11:30:00 AM 8.8 47.84 0.069 6.92 5.54 11.99
5/2/2023 11:45:00 AM 8.76 47.768 0.069 6.91 5.71 11.99
5/2/2023 12:00:00 PM 8.75 47.75 0.069 6.91 5.46 12
5/2/2023 12:15:00 PM 8.77 47.786 0.069 6.91 5.5 12
5/2/2023 12:30:00 PM 8.79 47.822 0.068 6.91 5.42 12.01
5/2/2023 12:45:00 PM 8.79 47.822 0.068 6.92 5.45 12.01
5/2/2023 1:00:00 PM 8.81 47.858 0.068 6.92 5.47 12
5/2/2023 1:15:00 PM 8.92 48.056 0.068 6.93 5.37 12.02
5/2/2023 1:30:00 PM 8.96 48.128 0.068 6.94 5.35 12.02
5/2/2023 1:45:00 PM 8.98 48.164 0.068 6.94 5.33 12.02
5/2/2023 2:00:00 PM 9.03 48.254 0.068 6.94 5.29 12.02
5/2/2023 2:15:00 PM 9.05 48.29 0.068 6.95 5.21 12.02
5/2/2023 2:30:00 PM 8.99 48.182 0.068 6.94 5.13 11.98
5/2/2023 2:45:00 PM 8.96 48.128 0.068 6.94 5.09 11.98
5/2/2023 3:00:00 PM 8.97 48.146 0.068 6.95 5.1 12
5/2/2023 3:15:00 PM 8.93 48.074 0.068 6.95 4.91 11.99
5/2/2023 3:30:00 PM 8.93 48.074 0.069 6.95 4.93 11.98
5/2/2023 3:45:00 PM 8.92 48.056 0.069 6.95 5.09 11.99
5/2/2023 4:00:00 PM 8.92 48.056 0.068 6.94 5.05 11.97
5/2/2023 4:15:00 PM 8.93 48.074 0.068 6.95 4.96 11.96
5/2/2023 4:30:00 PM 8.98 48.164 0.068 6.96 4.95 11.97
5/2/2023 4:45:00 PM 8.97 48.146 0.068 6.95 4.78 11.94
5/2/2023 5:00:00 PM 8.97 48.146 0.069 6.95 4.81 11.94
5/2/2023 5:15:00 PM 8.95 48.11 0.068 6.95 4.97 11.94
5/2/2023 5:30:00 PM 8.96 48.128 0.069 6.95 4.81 11.93
5/2/2023 5:45:00 PM 8.97 48.146 0.069 6.95 4.75 11.91
5/2/2023 6:00:00 PM 9.01 48.218 0.069 6.94 4.76 11.9
5/2/2023 6:15:00 PM 9.02 48.236 0.069 6.95 4.72 11.88
5/2/2023 6:30:00 PM 9.02 48.236 0.069 6.93 4.69 11.85
5/2/2023 6:45:00 PM 9.03 48.254 0.069 6.94 4.78 11.83
5/2/2023 7:00:00 PM 9.04 48.272 0.069 6.93 4.6 11.81
5/2/2023 7:15:00 PM 9.04 48.272 0.069 6.92 4.56 11.78
5/2/2023 7:30:00 PM 9.03 48.254 0.069 6.92 4.57 11.75
5/2/2023 7:45:00 PM 9.03 48.254 0.069 6.9 4.8 11.72
5/2/2023 8:00:00 PM 9.03 48.254 0.069 6.89 4.74 11.69
5/2/2023 8:15:00 PM 9.04 48.272 0.069 6.88 4.62 11.66
5/2/2023 8:30:00 PM 9.06 48.308 0.069 6.88 4.61 11.64
5/2/2023 8:45:00 PM 9.07 48.326 0.069 6.87 4.8 11.61
5/2/2023 9:00:00 PM 9.08 48.344 0.069 6.86 4.59 11.6
5/2/2023 9:15:00 PM 9.09 48.362 0.069 6.86 4.66 11.59
5/2/2023 9:30:00 PM 9.1 48.38 0.069 6.86 4.68 11.59
5/2/2023 9:45:00 PM 9.1 48.38 0.069 6.85 4.74 11.58
5/2/2023 10:00:00 PM 9.1 48.38 0.069 6.84 4.66 11.58
5/2/2023 10:15:00 PM 9.09 48.362 0.069 6.85 4.56 11.58
5/2/2023 10:30:00 PM 9.09 48.362 0.069 6.85 4.54 11.57
5/2/2023 10:45:00 PM 9.09 48.362 0.069 6.85 4.47 11.57
5/2/2023 11:00:00 PM 9.1 48.38 0.069 6.84 4.52 11.58
5/2/2023 11:15:00 PM 9.1 48.38 0.069 6.84 4.54 11.57
5/2/2023 11:30:00 PM 9.1 48.38 0.069 6.84 4.35 11.57
5/2/2023 11:45:00 PM 9.09 48.362 0.069 6.84 4.56 11.57
5/3/2023 12:00:00 AM 9.09 48.362 0.069 6.84 4.59 11.57
5/3/2023 12:15:00 AM 9.08 48.344 0.069 6.85 4.4 11.56
5/3/2023 12:30:00 AM 9.07 48.326 0.069 6.84 4.46 11.57
5/3/2023 12:45:00 AM 9.05 48.29 0.069 6.83 4.4 11.57
5/3/2023 1:00:00 AM 9.05 48.29 0.069 6.84 4.32 11.57
5/3/2023 1:15:00 AM 9.06 48.308 0.068 6.83 4.26 11.57
5/3/2023 1:30:00 AM 9.07 48.326 0.069 6.84 4.34 11.56
5/3/2023 1:45:00 AM 9.06 48.308 0.069 6.83 4.42 11.56
5/3/2023 2:00:00 AM 9.06 48.308 0.069 6.83 4.28 11.56
5/3/2023 2:15:00 AM 9.05 48.29 0.069 6.83 4.32 11.55
5/3/2023 2:30:00 AM 9.04 48.272 0.069 6.84 4.33 11.56
5/3/2023 2:45:00 AM 9.03 48.254 0.069 6.83 4.36 11.57
5/3/2023 3:00:00 AM 9.02 48.236 0.069 6.83 4.3 11.56
5/3/2023 3:15:00 AM 9.01 48.218 0.069 6.82 4.31 11.56
5/3/2023 3:30:00 AM 8.98 48.164 0.069 6.82 4.19 11.55
5/3/2023 3:45:00 AM 8.95 48.11 0.069 6.76 4.29 11.56
5/3/2023 4:00:00 AM 8.93 48.074 0.069 6.8 4.1 11.57
5/3/2023 4:15:00 AM 8.92 48.056 0.069 6.81 4.21 11.56
5/3/2023 4:30:00 AM 8.9 48.02 0.069 6.81 4.22 11.57
5/3/2023 4:45:00 AM 8.88 47.984 0.069 6.81 4.24 11.57
5/3/2023 5:00:00 AM 8.86 47.948 0.069 6.81 4.14 11.58
5/3/2023 5:15:00 AM 8.84 47.912 0.069 6.81 4.23 11.58
5/3/2023 5:30:00 AM 8.81 47.858 0.069 6.81 4.21 11.58
5/3/2023 5:45:00 AM 8.8 47.84 0.069 6.8 4.16 11.59
5/3/2023 6:00:00 AM 8.77 47.786 0.069 6.81 4.25 11.59
5/3/2023 6:15:00 AM 8.75 47.75 0.069 6.81 4.21 11.6
5/3/2023 6:30:00 AM 8.72 47.696 0.069 6.81 4.06 11.62
5/3/2023 6:45:00 AM 8.7 47.66 0.069 6.81 4.05 11.64
5/3/2023 7:00:00 AM 8.68 47.624 0.069 6.81 4.07 11.66
5/3/2023 7:15:00 AM 8.67 47.606 0.069 6.82 4.01 11.69
5/3/2023 7:30:00 AM 8.67 47.606 0.069 6.83 4.15 11.71
5/3/2023 7:45:00 AM 8.66 47.588 0.069 6.83 4.2 11.75
5/3/2023 8:00:00 AM 8.67 47.606 0.069 6.84 4.12 11.8
5/3/2023 8:15:00 AM 8.67 47.606 0.069 6.85 3.98 11.84
5/3/2023 8:30:00 AM 8.68 47.624 0.069 6.87 3.99 11.89
5/3/2023 8:45:00 AM 8.68 47.624 0.069 6.86 3.92 11.93
5/3/2023 9:00:00 AM 8.67 47.606 0.069 6.88 3.8 11.95
5/3/2023 9:15:00 AM 8.68 47.624 0.069 6.88 3.98 11.97
5/3/2023 9:30:00 AM 8.67 47.606 0.069 6.89 3.78 11.98
5/3/2023 9:45:00 AM 8.67 47.606 0.069 6.91 3.98 12.01
5/3/2023 10:00:00 AM 8.69 47.642 0.069 6.91 3.91 12.03
5/3/2023 10:15:00 AM 8.7 47.66 0.069 6.91 3.92 12.05
5/3/2023 10:30:00 AM 8.72 47.696 0.069 6.92 3.8 12.07
5/3/2023 10:45:00 AM 8.77 47.786 0.069 6.94 3.89 12.09
5/3/2023 11:00:00 AM 8.85 47.93 0.069 6.94 4.31 12.11
5/3/2023 11:15:00 AM 8.84 47.912 0.069 6.95 3.91 12.1
5/3/2023 11:30:00 AM 8.86 47.948 0.069 6.94 3.9 12.1
5/3/2023 11:45:00 AM 8.93 48.074 0.069 6.95 3.79 12.1
5/3/2023 12:00:00 PM 8.97 48.146 0.069 6.96 3.82 12.1
5/3/2023 12:15:00 PM 9.06 48.308 0.069 6.97 4.37 12.1
5/3/2023 12:30:00 PM 9.04 48.272 0.069 6.96 4.07 12.07
5/3/2023 12:45:00 PM 9.09 48.362 0.069 6.96 3.89 12.08
5/3/2023 1:00:00 PM 9.05 48.29 0.069 6.97 3.74 12.07
5/3/2023 1:15:00 PM 9.09 48.362 0.069 6.97 3.68 12.09
5/3/2023 1:30:00 PM 9.16 48.488 0.069 6.97 3.71 12.1
5/3/2023 1:45:00 PM 9.4 48.92 0.069 6.98 3.7 12.1
5/3/2023 2:00:00 PM 9.58 49.244 0.069 6.98 3.64 12.09
5/3/2023 2:15:00 PM 9.55 49.19 0.069 6.99 3.71 12.06
5/3/2023 2:30:00 PM 9.61 49.298 0.069 6.99 3.81 12.07
5/3/2023 2:45:00 PM 9.57 49.226 0.07 7 3.75 12.05
5/3/2023 3:00:00 PM 9.65 49.37 0.07 7 3.7 12.06
5/3/2023 3:15:00 PM 9.66 49.388 0.07 7.01 3.71 12.05
5/3/2023 3:30:00 PM 9.49 49.082 0.07 7 3.63 12.05
5/3/2023 3:45:00 PM 9.43 48.974 0.07 7 3.72 12.06
5/3/2023 4:00:00 PM 9.39 48.902 0.07 7 3.65 12.06
5/3/2023 4:15:00 PM 9.28 48.704 0.07 7 3.94 12.03
5/3/2023 4:30:00 PM 9.15 48.47 0.069 6.98 3.84 11.99
5/3/2023 4:45:00 PM 9.13 48.434 0.07 6.98 3.56 12.01
5/3/2023 5:00:00 PM 9.15 48.47 0.07 6.99 3.63 12.01
5/3/2023 5:15:00 PM 9.13 48.434 0.069 6.99 3.66 12.01
5/3/2023 5:30:00 PM 9.11 48.398 0.069 6.98 3.6 11.99
5/3/2023 5:45:00 PM 9.07 48.326 0.069 6.97 3.64 11.97
5/3/2023 6:00:00 PM 9.08 48.344 0.069 6.97 3.68 11.96
5/3/2023 6:15:00 PM 9.1 48.38 0.069 6.96 3.63 11.95
5/3/2023 6:30:00 PM 9.09 48.362 0.07 6.95 3.54 11.87
5/3/2023 6:45:00 PM 9.08 48.344 0.07 6.94 3.89 11.84
5/3/2023 7:00:00 PM 9.09 48.362 0.07 6.94 3.56 11.83
5/3/2023 7:15:00 PM 9.08 48.344 0.07 6.93 3.54 11.81
5/3/2023 7:30:00 PM 9.07 48.326 0.07 6.91 3.53 11.78
5/3/2023 7:45:00 PM 9.06 48.308 0.07 6.91 3.72 11.74
5/3/2023 8:00:00 PM 9.06 48.308 0.07 6.9 3.64 11.71
5/3/2023 8:15:00 PM 9.07 48.326 0.07 6.88 3.57 11.67
5/3/2023 8:30:00 PM 9.07 48.326 0.07 6.88 3.51 11.65
5/3/2023 8:45:00 PM 9.07 48.326 0.07 6.87 3.6 11.62
5/3/2023 9:00:00 PM 9.07 48.326 0.07 6.86 3.7 11.6
5/3/2023 9:15:00 PM 9.07 48.326 0.07 6.86 3.65 11.59
5/3/2023 9:30:00 PM 9.06 48.308 0.07 6.86 3.87 11.58
5/3/2023 9:45:00 PM 9.06 48.308 0.07 6.85 3.58 11.58
5/3/2023 10:00:00 PM 9.05 48.29 0.07 6.85 3.83 11.57
5/3/2023 10:15:00 PM 9.04 48.272 0.07 6.85 3.63 11.59
5/3/2023 10:30:00 PM 9.03 48.254 0.07 6.85 3.68 11.59
5/3/2023 10:45:00 PM 9.02 48.236 0.07 6.85 3.63 11.59
5/3/2023 11:00:00 PM 9.02 48.236 0.07 6.84 3.58 11.59
5/3/2023 11:15:00 PM 9.02 48.236 0.07 6.85 3.55 11.6
5/3/2023 11:30:00 PM 9.01 48.218 0.07 6.85 3.66 11.6
5/3/2023 11:45:00 PM 9.01 48.218 0.07 6.85 3.61 11.6
5/4/2023 12:00:00 AM 9 48.2 0.07 6.84 3.44 11.61
5/4/2023 12:15:00 AM 9 48.2 0.071 6.85 3.4 11.61
5/4/2023 12:30:00 AM 8.99 48.182 0.07 6.84 3.44 11.61
5/4/2023 12:45:00 AM 8.99 48.182 0.071 6.85 3.62 11.61
5/4/2023 1:00:00 AM 8.98 48.164 0.07 6.84 3.69 11.61
5/4/2023 1:15:00 AM 8.98 48.164 0.071 6.84 3.5 11.61
5/4/2023 1:30:00 AM 8.98 48.164 0.071 6.85 3.65 11.61
5/4/2023 1:45:00 AM 8.98 48.164 0.071 6.84 3.52 11.61
5/4/2023 2:00:00 AM 8.98 48.164 0.071 6.84 3.54 11.61
5/4/2023 2:15:00 AM 8.98 48.164 0.071 6.84 3.51 11.6
5/4/2023 2:30:00 AM 8.98 48.164 0.071 6.84 3.54 11.61
5/4/2023 2:45:00 AM 8.97 48.146 0.071 6.83 3.49 11.61
5/4/2023 3:00:00 AM 8.95 48.11 0.071 6.83 3.57 11.61
5/4/2023 3:15:00 AM 8.93 48.074 0.071 6.82 3.44 11.62
5/4/2023 3:30:00 AM 8.91 48.038 0.071 6.83 3.47 11.62
5/4/2023 3:45:00 AM 8.9 48.02 0.072 6.83 3.34 11.63
5/4/2023 4:00:00 AM 8.89 48.002 0.072 6.83 3.7 11.63
5/4/2023 4:15:00 AM 8.88 47.984 0.072 6.82 3.48 11.63
5/4/2023 4:30:00 AM 8.86 47.948 0.072 6.83 3.48 11.63
5/4/2023 4:45:00 AM 8.84 47.912 0.071 6.82 3.45 11.64
5/4/2023 5:00:00 AM 8.82 47.876 0.072 6.82 3.42 11.64
5/4/2023 5:15:00 AM 8.79 47.822 0.072 6.83 3.53 11.65
5/4/2023 5:30:00 AM 8.77 47.786 0.072 6.81 3.42 11.66
5/4/2023 5:45:00 AM 8.76 47.768 0.072 6.82 3.53 11.66
5/4/2023 6:00:00 AM 8.74 47.732 0.071 6.81 3.5 11.67
5/4/2023 6:15:00 AM 8.73 47.714 0.071 6.82 3.46 11.68
5/4/2023 6:30:00 AM 8.72 47.696 0.071 6.82 3.5 11.7
5/4/2023 6:45:00 AM 8.71 47.678 0.071 6.82 3.34 11.72
5/4/2023 7:00:00 AM 8.7 47.66 0.071 6.83 3.47 11.75
5/4/2023 7:15:00 AM 8.7 47.66 0.071 6.84 3.46 11.8
5/4/2023 7:30:00 AM 8.71 47.678 0.071 6.85 3.4 11.84
5/4/2023 7:45:00 AM 8.72 47.696 0.071 6.86 3.45 11.89
5/4/2023 8:00:00 AM 8.73 47.714 0.071 6.87 3.4 11.93
5/4/2023 8:15:00 AM 8.74 47.732 0.071 6.88 3.3 11.97
5/4/2023 8:30:00 AM 8.76 47.768 0.071 6.89 3.34 12.02
5/4/2023 8:45:00 AM 8.77 47.786 0.071 6.91 3.2 12.07
5/4/2023 9:00:00 AM 8.78 47.804 0.071 6.92 3.36 12.1
5/4/2023 9:15:00 AM 8.79 47.822 0.071 6.93 3.4 12.12
5/4/2023 9:30:00 AM 8.81 47.858 0.071 6.94 3.19 12.15
5/4/2023 9:45:00 AM 8.83 47.894 0.071 6.94 3.23 12.16
5/4/2023 10:00:00 AM 8.85 47.93 0.071 6.95 3.27 12.18
5/4/2023 10:15:00 AM 8.88 47.984 0.071 6.96 3.27 12.19
5/4/2023 10:30:00 AM 8.9 48.02 0.071 6.98 3.22 12.2
5/4/2023 10:45:00 AM 8.92 48.056 0.071 6.98 3.25 12.21
5/4/2023 11:00:00 AM 8.93 48.074 0.071 6.98 3.32 12.22
5/4/2023 11:15:00 AM 8.92 48.056 0.072 6.98 3.33 12.21
5/4/2023 11:30:00 AM 8.99 48.182 0.072 6.98 3.27 12.24
5/4/2023 11:45:00 AM 9.01 48.218 0.072 6.99 3.26 12.24
5/4/2023 12:00:00 PM 9.01 48.218 0.072 6.99 3.18 12.24
5/4/2023 12:15:00 PM 9.07 48.326 0.072 6.99 3.18 12.24
5/4/2023 12:30:00 PM 9.24 48.632 0.072 7 3.23 12.25
5/4/2023 12:45:00 PM 9.2 48.56 0.072 7 3.26 12.22
5/4/2023 1:00:00 PM 9.23 48.614 0.072 7.01 3.3 12.23
5/4/2023 1:15:00 PM 9.37 48.866 0.072 7.01 3.27 12.23
5/4/2023 1:30:00 PM 9.38 48.884 0.072 7 3.29 12.23
5/4/2023 1:45:00 PM 9.42 48.956 0.072 7.02 3.16 12.23
5/4/2023 2:00:00 PM 9.46 49.028 0.072 7 3.17 12.24
5/4/2023 2:15:00 PM 9.63 49.334 0.072 7.01 3.16 12.25
5/4/2023 2:30:00 PM 9.86 49.748 0.072 7.02 3.23 12.24
5/4/2023 2:45:00 PM 9.66 49.388 0.072 7.01 3.14 12.15
5/4/2023 3:00:00 PM 9.39 48.902 0.072 6.99 3.3 12.08
5/4/2023 3:15:00 PM 9.47 49.046 0.072 6.98 3.42 12.13
5/4/2023 3:30:00 PM 9.36 48.848 0.072 6.99 3.31 12.13
5/4/2023 3:45:00 PM 9.24 48.632 0.072 6.99 3.52 12.12
5/4/2023 4:00:00 PM 9.19 48.542 0.072 6.99 3.54 12.14
5/4/2023 4:15:00 PM 9.18 48.524 0.072 6.99 3.39 12.15
5/4/2023 4:30:00 PM 9.3 48.74 0.072 7 3.28 12.17
5/4/2023 4:45:00 PM 9.38 48.884 0.072 7.01 3.37 12.18
5/4/2023 5:00:00 PM 9.41 48.938 0.072 7.01 3.18 12.17
5/4/2023 5:15:00 PM 9.45 49.01 0.072 7.02 3.15 12.16
5/4/2023 5:30:00 PM 9.45 49.01 0.072 7.02 3.17 12.14
5/4/2023 5:45:00 PM 9.44 48.992 0.072 7.03 3.17 12.12
5/4/2023 6:00:00 PM 9.37 48.866 0.072 7.01 3.02 12.06
5/4/2023 6:15:00 PM 9.31 48.758 0.072 7 3.13 12.05
5/4/2023 6:30:00 PM 9.28 48.704 0.072 6.99 3.18 12.05
5/4/2023 6:45:00 PM 9.26 48.668 0.072 6.99 3.26 12.02
5/4/2023 7:00:00 PM 9.26 48.668 0.072 6.98 3.55 11.98
5/4/2023 7:15:00 PM 9.25 48.65 0.072 6.96 3.42 11.94
5/4/2023 7:30:00 PM 9.27 48.686 0.072 6.96 3.17 11.91
5/4/2023 7:45:00 PM 9.28 48.704 0.073 6.96 3.07 11.86
5/4/2023 8:00:00 PM 9.28 48.704 0.073 6.94 3.17 11.82
5/4/2023 8:15:00 PM 9.29 48.722 0.073 6.93 3.16 11.78
5/4/2023 8:30:00 PM 9.29 48.722 0.073 6.92 3.27 11.73
5/4/2023 8:45:00 PM 9.3 48.74 0.073 6.91 3.26 11.69
5/4/2023 9:00:00 PM 9.31 48.758 0.073 6.9 3.07 11.67
5/4/2023 9:15:00 PM 9.33 48.794 0.073 6.9 3.35 11.64
5/4/2023 9:30:00 PM 9.36 48.848 0.073 6.89 3.34 11.62
5/4/2023 9:45:00 PM 9.38 48.884 0.073 6.88 3.14 11.6
5/4/2023 10:00:00 PM 9.39 48.902 0.073 6.88 3.16 11.6
5/4/2023 10:15:00 PM 9.4 48.92 0.074 6.88 3.15 11.6
5/4/2023 10:30:00 PM 9.41 48.938 0.074 6.88 3.26 11.59
5/4/2023 10:45:00 PM 9.43 48.974 0.074 6.88 3.06 11.59
5/4/2023 11:00:00 PM 9.44 48.992 0.075 6.87 3.15 11.59
5/4/2023 11:15:00 PM 9.47 49.046 0.075 6.87 3.3 11.58
5/4/2023 11:30:00 PM 9.49 49.082 0.075 6.87 3.17 11.56
5/4/2023 11:45:00 PM 9.51 49.118 0.075 6.87 3.1 11.57
5/5/2023 12:00:00 AM 9.52 49.136 0.076 6.87 3.23 11.56
5/5/2023 12:15:00 AM 9.53 49.154 0.076 6.87 3.2 11.56
5/5/2023 12:30:00 AM 9.54 49.172 0.076 6.87 3.14 11.55
5/5/2023 12:45:00 AM 9.55 49.19 0.076 6.87 3.38 11.56
5/5/2023 1:00:00 AM 9.56 49.208 0.077 6.87 3.18 11.55
5/5/2023 1:15:00 AM 9.57 49.226 0.077 6.87 3.2 11.55
5/5/2023 1:30:00 AM 9.57 49.226 0.077 6.87 3.24 11.55
5/5/2023 1:45:00 AM 9.57 49.226 0.077 6.86 3.12 11.55
5/5/2023 2:00:00 AM 9.56 49.208 0.078 6.86 3.16 11.55
5/5/2023 2:15:00 AM 9.55 49.19 0.078 6.87 3.18 11.55
5/5/2023 2:30:00 AM 9.54 49.172 0.078 6.86 3.13 11.56
5/5/2023 2:45:00 AM 9.52 49.136 0.078 6.86 3.19 11.54
5/5/2023 3:00:00 AM 9.52 49.136 0.078 6.86 3.16 11.55
5/5/2023 3:15:00 AM 9.51 49.118 0.078 6.86 3.21 11.56
5/5/2023 3:30:00 AM 9.5 49.1 0.078 6.86 3.18 11.56
5/5/2023 3:45:00 AM 9.49 49.082 0.078 6.86 3.21 11.56
5/5/2023 4:00:00 AM 9.48 49.064 0.078 6.86 3.19 11.56
5/5/2023 4:15:00 AM 9.46 49.028 0.078 6.85 3.22 11.56
5/5/2023 4:30:00 AM 9.45 49.01 0.078 6.85 3.09 11.56
5/5/2023 4:45:00 AM 9.44 48.992 0.078 6.85 3.13 11.56
5/5/2023 5:00:00 AM 9.44 48.992 0.078 6.85 3.45 11.56
5/5/2023 5:15:00 AM 9.44 48.992 0.078 6.85 3.18 11.56
5/5/2023 5:30:00 AM 9.43 48.974 0.078 6.85 3.3 11.57
5/5/2023 5:45:00 AM 9.43 48.974 0.078 6.85 3.26 11.57
5/5/2023 6:00:00 AM 9.42 48.956 0.078 6.85 3.13 11.57
5/5/2023 6:15:00 AM 9.41 48.938 0.077 6.84 3.28 11.57
5/5/2023 6:30:00 AM 9.4 48.92 0.077 6.86 3.13 11.59
5/5/2023 6:45:00 AM 9.39 48.902 0.077 6.85 3.27 11.62
5/5/2023 7:00:00 AM 9.38 48.884 0.077 6.86 3.12 11.66
5/5/2023 7:15:00 AM 9.37 48.866 0.077 6.86 3.14 11.72
5/5/2023 7:30:00 AM 9.37 48.866 0.077 6.88 3.15 11.77
5/5/2023 7:45:00 AM 9.4 48.92 0.077 6.89 3.25 11.84
5/5/2023 8:00:00 AM 9.43 48.974 0.076 6.91 3.24 11.89
5/5/2023 8:15:00 AM 9.46 49.028 0.076 6.91 3.27 11.94
5/5/2023 8:30:00 AM 9.51 49.118 0.076 6.94 3.3 11.98
5/5/2023 8:45:00 AM 9.51 49.118 0.076 6.94 3.25 12
5/5/2023 9:00:00 AM 9.52 49.136 0.076 6.93 3.2 12.01
5/5/2023 9:15:00 AM 9.54 49.172 0.076 6.95 3.15 12.02
5/5/2023 9:30:00 AM 9.57 49.226 0.076 6.96 3.17 12.06
5/5/2023 9:45:00 AM 9.61 49.298 0.076 6.97 3.16 12.08
5/5/2023 10:00:00 AM 9.68 49.424 0.076 6.99 3.16 12.1
5/5/2023 10:15:00 AM 9.78 49.604 0.076 6.99 3.14 12.12
5/5/2023 10:30:00 AM 9.89 49.802 0.075 7.01 3.11 12.15
5/5/2023 10:45:00 AM 10.03 50.054 0.075 7.02 3.09 12.16
5/5/2023 11:00:00 AM 10.14 50.252 0.075 7.02 3.12 12.17
5/5/2023 11:15:00 AM 10.23 50.414 0.075 7.04 3.18 12.15
5/5/2023 11:30:00 AM 10.4 50.72 0.075 7.05 3.1 12.16
5/5/2023 11:45:00 AM 10.52 50.936 0.075 7.06 3.18 12.15
5/5/2023 12:00:00 PM 10.59 51.062 0.075 7.06 3.22 12.14
5/5/2023 12:15:00 PM 10.6 51.08 0.075 7.06 3.14 12.12
5/5/2023 12:30:00 PM 10.67 51.206 0.075 7.07 3.11 12.12
5/5/2023 12:45:00 PM 10.62 51.116 0.075 7.07 3.19 12.09
5/5/2023 1:00:00 PM 10.58 51.044 0.075 7.08 3.36 12.09
5/5/2023 1:15:00 PM 10.5 50.9 0.075 7.07 3.12 12.08
5/5/2023 1:30:00 PM 10.46 50.828 0.075 7.07 3.2 12.09
5/5/2023 1:45:00 PM 10.39 50.702 0.075 7.08 3.08 12.08
5/5/2023 2:00:00 PM 10.33 50.594 0.075 7.08 3.15 12.07
5/5/2023 2:15:00 PM 10.23 50.414 0.074 7.06 3.17 12.02
5/5/2023 2:30:00 PM 10.17 50.306 0.074 7.05 3.21 12.02
5/5/2023 2:45:00 PM 10.21 50.378 0.074 7.06 3.2 12.07
5/5/2023 3:00:00 PM 10.15 50.27 0.074 7.07 3.22 12.09
5/5/2023 3:15:00 PM 10.13 50.234 0.074 7.07 3.26 12.09
5/5/2023 3:30:00 PM 10.2 50.36 0.074 7.08 3.24 12.09
5/5/2023 3:45:00 PM 10.45 50.81 0.074 7.09 3.2 12.1
5/5/2023 4:00:00 PM 10.69 51.242 0.074 7.1 3.07 12.07
5/5/2023 4:15:00 PM 10.73 51.314 0.075 7.09 3.26 11.99
5/5/2023 4:30:00 PM 10.68 51.224 0.075 7.07 3.19 11.89
5/5/2023 4:45:00 PM 10.69 51.242 0.074 7.07 3.14 11.89
5/5/2023 5:00:00 PM 10.77 51.386 0.074 7.09 3.13 11.92
5/5/2023 5:15:00 PM 10.73 51.314 0.074 7.08 3.09 11.89
5/5/2023 5:30:00 PM 10.7 51.26 0.074 7.08 3.08 11.87
5/5/2023 5:45:00 PM 10.65 51.17 0.074 7.07 3.24 11.88
5/5/2023 6:00:00 PM 10.62 51.116 0.074 7.08 3.21 11.9
5/5/2023 6:15:00 PM 10.56 51.008 0.074 7.06 3.23 11.83
5/5/2023 6:30:00 PM 10.53 50.954 0.074 7.04 3.12 11.76
5/5/2023 6:45:00 PM 10.5 50.9 0.074 7.02 3.05 11.73
5/5/2023 7:00:00 PM 10.47 50.846 0.074 7 3.18 11.69
5/5/2023 7:15:00 PM 10.42 50.756 0.074 6.99 3.15 11.63
5/5/2023 7:30:00 PM 10.37 50.666 0.074 6.97 3.14 11.61
5/5/2023 7:45:00 PM 10.32 50.576 0.074 6.96 3.08 11.57
5/5/2023 8:00:00 PM 10.26 50.468 0.074 6.94 3.22 11.54
5/5/2023 8:15:00 PM 10.22 50.396 0.074 6.93 3.1 11.51
5/5/2023 8:30:00 PM 10.18 50.324 0.074 6.91 3.16 11.48
5/5/2023 8:45:00 PM 10.16 50.288 0.074 6.9 3.36 11.46
5/5/2023 9:00:00 PM 10.16 50.288 0.074 6.89 3.19 11.43
5/5/2023 9:15:00 PM 10.18 50.324 0.074 6.87 3.4 11.4
5/5/2023 9:30:00 PM 10.19 50.342 0.074 6.88 3.34 11.38
5/5/2023 9:45:00 PM 10.2 50.36 0.075 6.87 3.2 11.37
5/5/2023 10:00:00 PM 10.21 50.378 0.075 6.86 3.19 11.36
5/5/2023 10:15:00 PM 10.22 50.396 0.075 6.87 3.33 11.35
5/5/2023 10:30:00 PM 10.24 50.432 0.075 6.87 3.3 11.34
5/5/2023 10:45:00 PM 10.25 50.45 0.075 6.86 3.19 11.33
5/5/2023 11:00:00 PM 10.27 50.486 0.075 6.87 3.25 11.32
5/5/2023 11:15:00 PM 10.3 50.54 0.075 6.87 3.14 11.31
5/5/2023 11:30:00 PM 10.33 50.594 0.075 6.87 3.09 11.31
5/5/2023 11:45:00 PM 10.36 50.648 0.075 6.87 3.18 11.3
5/6/2023 12:00:00 AM 10.36 50.648 0.076 6.87 3.18 11.3
5/6/2023 12:15:00 AM 10.36 50.648 0.076 6.87 3.15 11.3
5/6/2023 12:30:00 AM 10.36 50.648 0.076 6.87 3.17 11.3
5/6/2023 12:45:00 AM 10.35 50.63 0.077 6.87 3.18 11.3
5/6/2023 1:00:00 AM 10.33 50.594 0.078 6.87 3.19 11.31
5/6/2023 1:15:00 AM 10.31 50.558 0.078 6.87 3.1 11.31
5/6/2023 1:30:00 AM 10.29 50.522 0.078 6.87 3.14 11.31
5/6/2023 1:45:00 AM 10.26 50.468 0.079 6.87 3.12 11.32
5/6/2023 2:00:00 AM 10.25 50.45 0.079 6.87 3.11 11.33
5/6/2023 2:15:00 AM 10.23 50.414 0.079 6.86 3.13 11.32
5/6/2023 2:30:00 AM 10.22 50.396 0.079 6.86 3.19 11.33
5/6/2023 2:45:00 AM 10.2 50.36 0.079 6.86 3.18 11.33
5/6/2023 3:00:00 AM 10.18 50.324 0.079 6.86 3.08 11.34
5/6/2023 3:15:00 AM 10.17 50.306 0.079 6.86 3.16 11.34
5/6/2023 3:30:00 AM 10.16 50.288 0.079 6.85 3.16 11.34
5/6/2023 3:45:00 AM 10.15 50.27 0.079 6.86 3.32 11.34
5/6/2023 4:00:00 AM 10.15 50.27 0.079 6.86 3.14 11.34
5/6/2023 4:15:00 AM 10.15 50.27 0.078 6.85 3.14 11.34
5/6/2023 4:30:00 AM 10.13 50.234 0.078 6.85 3.08 11.35
5/6/2023 4:45:00 AM 10.12 50.216 0.078 6.85 3.09 11.35
5/6/2023 5:00:00 AM 10.1 50.18 0.078 6.86 3.11 11.36
5/6/2023 5:15:00 AM 10.08 50.144 0.078 6.86 3.15 11.36
5/6/2023 5:30:00 AM 10.06 50.108 0.078 6.86 3.13 11.37
5/6/2023 5:45:00 AM 10.04 50.072 0.078 6.86 3.32 11.38
5/6/2023 6:00:00 AM 10.03 50.054 0.078 6.85 3.18 11.38
5/6/2023 6:15:00 AM 10.01 50.018 0.078 6.86 3.06 11.39
5/6/2023 6:30:00 AM 10 50 0.078 6.86 3.15 11.42
5/6/2023 6:45:00 AM 9.99 49.982 0.078 6.87 3.07 11.45
5/6/2023 7:00:00 AM 9.99 49.982 0.078 6.88 3.02 11.5
5/6/2023 7:15:00 AM 10 50 0.078 6.9 3.03 11.56
5/6/2023 7:30:00 AM 10.01 50.018 0.077 6.9 2.98 11.62
5/6/2023 7:45:00 AM 10.02 50.036 0.077 6.92 3.03 11.68
5/6/2023 8:00:00 AM 10.03 50.054 0.077 6.93 2.96 11.74
5/6/2023 8:15:00 AM 10.06 50.108 0.077 6.95 2.99 11.82
5/6/2023 8:30:00 AM 10.07 50.126 0.077 6.97 2.89 11.86
5/6/2023 8:45:00 AM 10.07 50.126 0.077 6.98 2.87 11.87
5/6/2023 9:00:00 AM 10.09 50.162 0.077 6.98 2.95 11.87
5/6/2023 9:15:00 AM 10.11 50.198 0.077 6.99 2.94 11.89
5/6/2023 9:30:00 AM 10.13 50.234 0.077 6.99 2.97 11.91
5/6/2023 9:45:00 AM 10.18 50.324 0.077 6.99 2.85 11.93
5/6/2023 10:00:00 AM 10.24 50.432 0.077 7.01 3.03 11.95
5/6/2023 10:15:00 AM 10.31 50.558 0.078 7.02 3.07 11.97
5/6/2023 10:30:00 AM 10.41 50.738 0.078 7.04 2.89 11.99
5/6/2023 10:45:00 AM 10.52 50.936 0.078 7.05 2.99 12.01
5/6/2023 11:00:00 AM 10.65 51.17 0.078 7.07 2.93 12.02
5/6/2023 11:15:00 AM 10.79 51.422 0.078 7.07 3 12.03
5/6/2023 11:30:00 AM 10.93 51.674 0.078 7.09 2.88 12.04
5/6/2023 11:45:00 AM 11.08 51.944 0.078 7.1 2.87 12.04
5/6/2023 12:00:00 PM 11.23 52.214 0.079 7.12 2.99 12.04
5/6/2023 12:15:00 PM 11.37 52.466 0.079 7.13 2.98 12.04
5/6/2023 12:30:00 PM 11.51 52.718 0.079 7.14 2.87 12.03
5/6/2023 12:45:00 PM 11.64 52.952 0.079 7.14 2.92 12.02
5/6/2023 1:00:00 PM 11.76 53.168 0.079 7.16 3.01 12.03
5/6/2023 1:15:00 PM 11.87 53.366 0.079 7.16 2.89 12.02
5/6/2023 1:30:00 PM 11.97 53.546 0.079 7.16 2.93 12.01
5/6/2023 1:45:00 PM 12.05 53.69 0.079 7.16 3.05 12.01
5/6/2023 2:00:00 PM 12.12 53.816 0.079 7.18 2.99 12
5/6/2023 2:15:00 PM 12.17 53.906 0.079 7.17 3.04 12
5/6/2023 2:30:00 PM 12.2 53.96 0.079 7.18 3.08 11.99
5/6/2023 2:45:00 PM 12.17 53.906 0.079 7.17 3 11.97
5/6/2023 3:00:00 PM 12.18 53.924 0.078 7.18 3.07 11.97
5/6/2023 3:15:00 PM 12.17 53.906 0.078 7.19 3.06 11.97
5/6/2023 3:30:00 PM 12.04 53.672 0.078 7.18 2.94 11.96
5/6/2023 3:45:00 PM 11.93 53.474 0.079 7.17 2.96 11.96
5/6/2023 4:00:00 PM 11.77 53.186 0.079 7.18 2.94 11.95
5/6/2023 4:15:00 PM 11.66 52.988 0.079 7.17 3.13 11.94
5/6/2023 4:30:00 PM 11.52 52.736 0.079 7.16 2.9 11.93
5/6/2023 4:45:00 PM 11.47 52.646 0.079 7.16 3.25 11.93
5/6/2023 5:00:00 PM 11.34 52.412 0.079 7.15 2.94 11.9
5/6/2023 5:15:00 PM 11.17 52.106 0.079 7.14 2.89 11.88
5/6/2023 5:30:00 PM 11.06 51.908 0.079 7.12 3.09 11.88
5/6/2023 5:45:00 PM 10.97 51.746 0.079 7.12 2.88 11.84
5/6/2023 6:00:00 PM 10.87 51.566 0.079 7.09 2.91 11.8
5/6/2023 6:15:00 PM 10.78 51.404 0.079 7.08 2.82 11.75
5/6/2023 6:30:00 PM 10.72 51.296 0.079 7.06 3.12 11.71
5/6/2023 6:45:00 PM 10.67 51.206 0.079 7.04 2.93 11.66
5/6/2023 7:00:00 PM 10.65 51.17 0.079 7.03 3 11.62
5/6/2023 7:15:00 PM 10.65 51.17 0.079 7.02 3 11.59
5/6/2023 7:30:00 PM 10.69 51.242 0.079 7.01 2.9 11.54
5/6/2023 7:45:00 PM 10.73 51.314 0.079 6.99 2.83 11.47
5/6/2023 8:00:00 PM 10.78 51.404 0.08 6.97 2.87 11.39
5/6/2023 8:15:00 PM 10.85 51.53 0.08 6.96 3.07 11.3
5/6/2023 8:30:00 PM 10.94 51.692 0.08 6.94 2.86 11.23
5/6/2023 8:45:00 PM 11.02 51.836 0.08 6.93 2.84 11.16
5/6/2023 9:00:00 PM 11.08 51.944 0.08 6.92 3 11.11
5/6/2023 9:15:00 PM 11.15 52.07 0.08 6.91 2.94 11.06
5/6/2023 9:30:00 PM 11.22 52.196 0.08 6.91 2.99 11.02
5/6/2023 9:45:00 PM 11.28 52.304 0.08 6.9 2.95 10.99
5/6/2023 10:00:00 PM 11.34 52.412 0.08 6.9 2.92 10.96
5/6/2023 10:15:00 PM 11.4 52.52 0.08 6.89 2.93 10.93
5/6/2023 10:30:00 PM 11.48 52.664 0.08 6.89 3.03 10.89
5/6/2023 10:45:00 PM 11.54 52.772 0.08 6.88 3.09 10.88
5/6/2023 11:00:00 PM 11.57 52.826 0.08 6.88 3.18 10.87
5/6/2023 11:15:00 PM 11.59 52.862 0.08 6.88 3.02 10.86
5/6/2023 11:30:00 PM 11.58 52.844 0.08 6.88 2.96 10.86
5/6/2023 11:45:00 PM 11.55 52.79 0.08 6.88 3.03 10.87
5/7/2023 12:00:00 AM 11.52 52.736 0.08 6.88 2.99 10.88
5/7/2023 12:15:00 AM 11.49 52.682 0.08 6.88 3.27 10.89
5/7/2023 12:30:00 AM 11.43 52.574 0.08 6.88 3.08 10.9
5/7/2023 12:45:00 AM 11.37 52.466 0.08 6.87 3.01 10.92
5/7/2023 1:00:00 AM 11.32 52.376 0.081 6.88 2.97 10.93
5/7/2023 1:15:00 AM 11.29 52.322 0.081 6.87 3 10.94
5/7/2023 1:30:00 AM 11.27 52.286 0.081 6.87 3.1 10.94
5/7/2023 1:45:00 AM 11.26 52.268 0.081 6.87 3.21 10.94
5/7/2023 2:00:00 AM 11.25 52.25 0.08 6.86 3 10.94
5/7/2023 2:15:00 AM 11.24 52.232 0.081 6.87 2.9 10.94
5/7/2023 2:30:00 AM 11.24 52.232 0.081 6.87 3.01 10.94
5/7/2023 2:45:00 AM 11.25 52.25 0.081 6.87 2.92 10.94
5/7/2023 3:00:00 AM 11.25 52.25 0.081 6.87 2.93 10.93
5/7/2023 3:15:00 AM 11.26 52.268 0.081 6.87 3.02 10.93
5/7/2023 3:30:00 AM 11.26 52.268 0.081 6.86 3.11 10.92
5/7/2023 3:45:00 AM 11.26 52.268 0.081 6.87 2.93 10.92
5/7/2023 4:00:00 AM 11.25 52.25 0.081 6.86 2.85 10.92
5/7/2023 4:30:00 AM 11.21 52.178 0.081 6.86 3.06 10.93
5/7/2023 4:45:00 AM 11.19 52.142 0.081 6.86 3.03 10.94
5/7/2023 5:00:00 AM 11.17 52.106 0.081 6.87 3.14 10.94
5/7/2023 5:15:00 AM 11.14 52.052 0.081 6.86 2.88 10.94
5/7/2023 5:30:00 AM 11.13 52.034 0.081 6.86 2.93 10.94
5/7/2023 5:45:00 AM 11.12 52.016 0.081 6.86 2.97 10.94
5/7/2023 6:00:00 AM 11.11 51.998 0.081 6.87 3.05 10.94
5/7/2023 6:15:00 AM 11.09 51.962 0.081 6.86 2.93 10.96
5/7/2023 6:30:00 AM 11.08 51.944 0.081 6.87 2.79 10.99
5/7/2023 6:45:00 AM 11.08 51.944 0.081 6.88 2.68 11.02
5/7/2023 7:00:00 AM 11.07 51.926 0.081 6.88 2.89 11.05
5/7/2023 7:15:00 AM 11.06 51.908 0.081 6.9 2.79 11.08
5/7/2023 7:30:00 AM 11.05 51.89 0.081 6.9 2.83 11.12
5/7/2023 7:45:00 AM 11.05 51.89 0.081 6.91 2.67 11.19
5/7/2023 8:00:00 AM 11.09 51.962 0.081 6.94 2.69 11.3
5/7/2023 8:15:00 AM 11.12 52.016 0.08 6.96 2.79 11.4
5/7/2023 8:30:00 AM 11.16 52.088 0.08 6.99 2.67 11.46
5/7/2023 8:45:00 AM 11.19 52.142 0.08 7.01 2.68 11.52
5/7/2023 9:00:00 AM 11.21 52.178 0.08 7.02 2.7 11.56
5/7/2023 9:15:00 AM 11.27 52.286 0.08 7.05 2.69 11.62
5/7/2023 9:30:00 AM 11.33 52.394 0.08 7.07 2.6 11.67
5/7/2023 9:45:00 AM 11.39 52.502 0.08 7.1 2.73 11.72
5/7/2023 10:00:00 AM 11.44 52.592 0.08 7.11 2.75 11.75
5/7/2023 10:15:00 AM 11.49 52.682 0.08 7.14 2.74 11.77
5/7/2023 10:30:00 AM 11.53 52.754 0.08 7.15 2.7 11.79
5/7/2023 10:45:00 AM 11.57 52.826 0.08 7.17 2.66 11.8
5/7/2023 11:00:00 AM 11.6 52.88 0.08 7.17 2.78 11.81
5/7/2023 11:15:00 AM 11.64 52.952 0.08 7.19 2.8 11.82
5/7/2023 11:30:00 AM 11.7 53.06 0.08 7.21 2.75 11.84
5/7/2023 11:45:00 AM 11.76 53.168 0.08 7.22 2.81 11.85
5/7/2023 12:00:00 PM 11.83 53.294 0.08 7.23 2.71 11.86
5/7/2023 12:15:00 PM 11.92 53.456 0.08 7.25 2.71 11.86
5/7/2023 12:30:00 PM 12.06 53.708 0.08 7.26 3.11 11.87
5/7/2023 12:45:00 PM 12.17 53.906 0.08 7.27 2.78 11.86
5/7/2023 1:00:00 PM 12.2 53.96 0.08 7.28 2.84 11.85
5/7/2023 1:15:00 PM 12.2 53.96 0.08 7.29 2.84 11.85
5/7/2023 1:30:00 PM 12.24 54.032 0.08 7.29 2.77 11.85
5/7/2023 1:45:00 PM 12.15 53.87 0.08 7.27 2.79 11.78
5/7/2023 2:00:00 PM 12.06 53.708 0.08 7.26 2.83 11.75
5/7/2023 2:15:00 PM 11.93 53.474 0.081 7.22 2.82 11.64
5/7/2023 2:30:00 PM 11.83 53.294 0.081 7.18 2.89 11.58
5/7/2023 2:45:00 PM 11.75 53.15 0.081 7.17 2.73 11.58
5/7/2023 3:00:00 PM 11.65 52.97 0.081 7.14 2.92 11.51
5/7/2023 3:15:00 PM 11.54 52.772 0.081 7.13 3.03 11.5
5/7/2023 3:30:00 PM 11.44 52.592 0.081 7.12 2.79 11.51
5/7/2023 3:45:00 PM 11.33 52.394 0.081 7.1 2.71 11.49
5/7/2023 4:00:00 PM 11.22 52.196 0.081 7.08 2.86 11.45
5/7/2023 4:15:00 PM 11.13 52.034 0.081 7.06 3.04 11.42
5/7/2023 4:30:00 PM 11.06 51.908 0.081 7.05 2.7 11.43
5/7/2023 4:45:00 PM 11.01 51.818 0.082 7.06 2.75 11.47
5/7/2023 5:00:00 PM 10.97 51.746 0.082 7.05 2.72 11.44
5/7/2023 5:15:00 PM 10.94 51.692 0.082 7.03 2.84 11.4
5/7/2023 5:30:00 PM 10.94 51.692 0.082 7.02 2.62 11.38
5/7/2023 5:45:00 PM 10.99 51.782 0.082 7.03 2.67 11.45
5/7/2023 6:00:00 PM 11.04 51.872 0.082 7.06 2.67 11.51
5/7/2023 6:15:00 PM 11.07 51.926 0.081 7.07 2.67 11.49
5/7/2023 6:30:00 PM 11.13 52.034 0.081 7.08 2.82 11.5
5/7/2023 6:45:00 PM 11.18 52.124 0.081 7.06 2.66 11.42
5/7/2023 7:00:00 PM 11.25 52.25 0.081 7.06 2.64 11.4
5/7/2023 7:15:00 PM 11.32 52.376 0.081 7.05 2.74 11.31
5/7/2023 7:30:00 PM 11.4 52.52 0.081 7.03 2.65 11.23
5/7/2023 7:45:00 PM 11.49 52.682 0.081 7.01 2.78 11.12
5/7/2023 8:00:00 PM 11.55 52.79 0.081 7 2.78 11.05
5/7/2023 8:15:00 PM 11.58 52.844 0.081 6.98 2.83 10.99
5/7/2023 8:30:00 PM 11.59 52.862 0.082 6.96 2.67 10.92
5/7/2023 8:45:00 PM 11.58 52.844 0.082 6.94 2.88 10.87
5/7/2023 9:00:00 PM 11.58 52.844 0.082 6.94 2.86 10.84
5/7/2023 9:15:00 PM 11.58 52.844 0.082 6.92 2.77 10.81
5/7/2023 9:30:00 PM 11.58 52.844 0.082 6.91 2.8 10.78
5/7/2023 9:45:00 PM 11.56 52.808 0.082 6.9 3.04 10.77
5/7/2023 10:00:00 PM 11.53 52.754 0.082 6.89 3.1 10.76
5/7/2023 10:15:00 PM 11.49 52.682 0.082 6.88 2.99 10.76
5/7/2023 10:30:00 PM 11.46 52.628 0.082 6.87 2.96 10.77
5/7/2023 10:45:00 PM 11.43 52.574 0.082 6.87 2.98 10.77
5/7/2023 11:00:00 PM 11.41 52.538 0.082 6.87 2.87 10.77
5/7/2023 11:15:00 PM 11.39 52.502 0.082 6.87 2.81 10.79
5/7/2023 11:30:00 PM 11.36 52.448 0.082 6.86 2.86 10.79
5/7/2023 11:45:00 PM 11.33 52.394 0.082 6.86 2.89 10.8
5/8/2023 12:00:00 AM 11.3 52.34 0.082 6.87 2.97 10.8
5/8/2023 12:15:00 AM 11.27 52.286 0.082 6.86 2.94 10.81
5/8/2023 12:30:00 AM 11.23 52.214 0.082 6.85 2.81 10.82
5/8/2023 12:45:00 AM 11.21 52.178 0.082 6.85 2.84 10.83
5/8/2023 1:00:00 AM 11.18 52.124 0.082 6.86 2.89 10.84
5/8/2023 1:15:00 AM 11.16 52.088 0.083 6.85 3.03 10.85
5/8/2023 1:30:00 AM 11.14 52.052 0.083 6.85 2.95 10.84
5/8/2023 1:45:00 AM 11.14 52.052 0.083 6.85 2.9 10.85
5/8/2023 2:00:00 AM 11.13 52.034 0.083 6.84 3.01 10.85
5/8/2023 2:15:00 AM 11.12 52.016 0.083 6.85 3.02 10.85
5/8/2023 2:30:00 AM 11.12 52.016 0.083 6.85 2.95 10.85
5/8/2023 2:45:00 AM 11.11 51.998 0.083 6.86 2.85 10.87
5/8/2023 3:00:00 AM 11.1 51.98 0.083 6.85 2.76 10.86
5/8/2023 3:15:00 AM 11.09 51.962 0.083 6.85 2.87 10.87
5/8/2023 3:30:00 AM 11.09 51.962 0.083 6.85 2.76 10.87
5/8/2023 3:45:00 AM 11.09 51.962 0.083 6.86 2.85 10.87
5/8/2023 4:00:00 AM 11.09 51.962 0.083 6.86 2.78 10.86
5/8/2023 4:15:00 AM 11.08 51.944 0.083 6.86 2.8 10.87
5/8/2023 4:30:00 AM 11.07 51.926 0.083 6.86 2.83 10.87
5/8/2023 4:45:00 AM 11.07 51.926 0.083 6.85 2.83 10.87
5/8/2023 5:00:00 AM 11.06 51.908 0.083 6.86 2.91 10.87
5/8/2023 5:15:00 AM 11.05 51.89 0.083 6.85 2.97 10.88
5/8/2023 5:30:00 AM 11.04 51.872 0.083 6.85 2.87 10.88
5/8/2023 5:45:00 AM 11.04 51.872 0.083 6.85 2.81 10.86
5/8/2023 6:00:00 AM 11.03 51.854 0.083 6.85 2.99 10.88
5/8/2023 6:15:00 AM 11.03 51.854 0.083 6.85 2.81 10.89
5/8/2023 6:30:00 AM 11.04 51.872 0.083 6.85 2.75 10.9
5/8/2023 6:45:00 AM 11.05 51.89 0.083 6.86 2.79 10.93
5/8/2023 7:00:00 AM 11.06 51.908 0.083 6.87 2.77 10.99
5/8/2023 7:15:00 AM 11.08 51.944 0.083 6.89 2.85 11.04
5/8/2023 7:30:00 AM 11.1 51.98 0.083 6.9 2.67 11.1
5/8/2023 7:45:00 AM 11.12 52.016 0.083 6.92 2.68 11.15
5/8/2023 8:00:00 AM 11.14 52.052 0.083 6.94 2.86 11.24
5/8/2023 8:15:00 AM 11.17 52.106 0.082 6.96 2.64 11.34
5/8/2023 8:30:00 AM 11.19 52.142 0.082 6.98 2.77 11.39
5/8/2023 8:45:00 AM 11.24 52.232 0.082 7.02 2.91 11.46
5/8/2023 9:00:00 AM 11.3 52.34 0.082 7.04 2.81 11.53
5/8/2023 9:15:00 AM 11.34 52.412 0.082 7.07 3.01 11.57
5/8/2023 9:30:00 AM 11.37 52.466 0.082 7.08 2.75 11.59
5/8/2023 9:45:00 AM 11.38 52.484 0.082 7.09 2.77 11.61
5/8/2023 10:00:00 AM 11.48 52.664 0.082 7.13 2.69 11.64
5/8/2023 10:15:00 AM 11.58 52.844 0.082 7.14 2.78 11.65
5/8/2023 10:30:00 AM 11.73 53.114 0.082 7.15 2.87 11.65
5/8/2023 10:45:00 AM 11.88 53.384 0.081 7.17 2.73 11.65
5/8/2023 11:00:00 AM 12.04 53.672 0.081 7.18 2.61 11.64
5/8/2023 11:15:00 AM 12.24 54.032 0.081 7.2 2.72 11.62
5/8/2023 11:30:00 AM 12.43 54.374 0.081 7.22 2.63 11.61
5/8/2023 11:45:00 AM 12.65 54.77 0.081 7.24 2.63 11.6
5/8/2023 12:00:00 PM 12.85 55.13 0.081 7.26 2.58 11.59
5/8/2023 12:15:00 PM 13.05 55.49 0.081 7.27 2.58 11.59
5/8/2023 12:30:00 PM 13.13 55.634 0.081 7.29 2.68 11.57
5/8/2023 12:45:00 PM 13.22 55.796 0.081 7.3 2.76 11.56
5/8/2023 1:00:00 PM 13.3 55.94 0.081 7.32 2.64 11.56
5/8/2023 1:15:00 PM 13.37 56.066 0.081 7.33 2.74 11.54
5/8/2023 1:30:00 PM 13.27 55.886 0.081 7.32 2.65 11.51
5/8/2023 1:45:00 PM 13.28 55.904 0.081 7.33 2.84 11.53
5/8/2023 2:00:00 PM 13.32 55.976 0.081 7.34 2.81 11.53
5/8/2023 2:15:00 PM 13.4 56.12 0.081 7.34 2.73 11.53
5/8/2023 2:30:00 PM 13.44 56.192 0.081 7.34 2.79 11.51
5/8/2023 2:45:00 PM 13.34 56.012 0.081 7.33 2.78 11.49
5/8/2023 3:00:00 PM 13.38 56.084 0.081 7.34 2.77 11.48
5/8/2023 3:15:00 PM 13.58 56.444 0.081 7.34 2.74 11.49
5/8/2023 3:30:00 PM 13.74 56.732 0.081 7.35 2.75 11.46
5/8/2023 3:45:00 PM 13.72 56.696 0.08 7.35 2.71 11.41
5/8/2023 4:00:00 PM 13.83 56.894 0.08 7.36 2.76 11.39
5/8/2023 4:15:00 PM 13.86 56.948 0.08 7.35 2.72 11.36
5/8/2023 4:30:00 PM 13.63 56.534 0.08 7.32 2.75 11.29
5/8/2023 4:45:00 PM 13.5 56.3 0.08 7.31 2.73 11.28
5/8/2023 5:00:00 PM 13.53 56.354 0.08 7.31 2.69 11.31
5/8/2023 5:15:00 PM 13.36 56.048 0.08 7.3 2.79 11.28
5/8/2023 5:30:00 PM 13.27 55.886 0.08 7.28 2.83 11.23
5/8/2023 5:45:00 PM 13.28 55.904 0.08 7.26 2.89 11.19
5/8/2023 6:00:00 PM 13.25 55.85 0.08 7.25 2.67 11.15
5/8/2023 6:15:00 PM 13.21 55.778 0.08 7.23 2.77 11.14
5/8/2023 6:30:00 PM 13.16 55.688 0.08 7.23 2.8 11.13
5/8/2023 6:45:00 PM 13.09 55.562 0.081 7.22 2.76 11.1
5/8/2023 7:00:00 PM 13.02 55.436 0.081 7.19 2.84 11.04
5/8/2023 7:15:00 PM 12.96 55.328 0.081 7.16 2.72 10.98
5/8/2023 7:30:00 PM 12.91 55.238 0.081 7.13 2.73 10.92
5/8/2023 7:45:00 PM 12.87 55.166 0.081 7.11 2.73 10.84
5/8/2023 8:00:00 PM 12.85 55.13 0.081 7.08 2.75 10.76
5/8/2023 8:15:00 PM 12.84 55.112 0.081 7.05 2.78 10.67
5/8/2023 8:30:00 PM 12.84 55.112 0.081 7.02 2.83 10.6
5/8/2023 8:45:00 PM 12.82 55.076 0.081 7 2.89 10.55
5/8/2023 9:00:00 PM 12.79 55.022 0.082 6.98 2.94 10.5
5/8/2023 9:15:00 PM 12.76 54.968 0.082 6.96 2.77 10.47
5/8/2023 9:30:00 PM 12.73 54.914 0.082 6.95 2.86 10.45
5/8/2023 9:45:00 PM 12.7 54.86 0.082 6.94 2.81 10.43
5/8/2023 10:00:00 PM 12.69 54.842 0.082 6.93 3.02 10.41
5/8/2023 10:15:00 PM 12.68 54.824 0.082 6.92 2.96 10.4
5/8/2023 10:30:00 PM 12.67 54.806 0.082 6.92 3.03 10.4
5/8/2023 10:45:00 PM 12.64 54.752 0.082 6.91 3.03 10.4
5/8/2023 11:00:00 PM 12.61 54.698 0.082 6.91 2.88 10.4
5/8/2023 11:15:00 PM 12.6 54.68 0.082 6.91 2.92 10.4
5/8/2023 11:30:00 PM 12.58 54.644 0.082 6.91 2.97 10.41
5/8/2023 11:45:00 PM 12.55 54.59 0.082 6.9 2.9 10.42
5/9/2023 12:00:00 AM 12.51 54.518 0.082 6.91 2.93 10.43
5/9/2023 12:15:00 AM 12.49 54.482 0.082 6.9 2.86 10.43
5/9/2023 12:30:00 AM 12.47 54.446 0.082 6.9 2.93 10.44
5/9/2023 12:45:00 AM 12.46 54.428 0.082 6.89 2.93 10.44
5/9/2023 1:00:00 AM 12.44 54.392 0.082 6.89 2.94 10.45
5/9/2023 1:15:00 AM 12.42 54.356 0.082 6.89 2.78 10.44
5/9/2023 1:30:00 AM 12.4 54.32 0.082 6.89 2.83 10.45
5/9/2023 1:45:00 AM 12.41 54.338 0.082 6.89 2.94 10.44
5/9/2023 2:00:00 AM 12.42 54.356 0.082 6.89 2.87 10.44
5/9/2023 2:15:00 AM 12.43 54.374 0.082 6.89 2.88 10.43
5/9/2023 2:30:00 AM 12.44 54.392 0.082 6.89 2.9 10.42
5/9/2023 2:45:00 AM 12.45 54.41 0.082 6.89 2.76 10.43
5/9/2023 3:00:00 AM 12.46 54.428 0.082 6.89 2.82 10.42
5/9/2023 3:15:00 AM 12.46 54.428 0.082 6.89 2.83 10.42
5/9/2023 3:30:00 AM 12.47 54.446 0.082 6.89 2.8 10.42
5/9/2023 3:45:00 AM 12.47 54.446 0.082 6.88 2.73 10.41
5/9/2023 4:00:00 AM 12.48 54.464 0.082 6.89 2.74 10.41
5/9/2023 4:15:00 AM 12.48 54.464 0.082 6.89 2.81 10.41
5/9/2023 4:30:00 AM 12.48 54.464 0.082 6.89 2.78 10.41
5/9/2023 4:45:00 AM 12.47 54.446 0.082 6.89 2.77 10.42
5/9/2023 5:00:00 AM 12.47 54.446 0.082 6.88 2.81 10.41
5/9/2023 5:15:00 AM 12.46 54.428 0.082 6.88 2.78 10.42
5/9/2023 5:30:00 AM 12.46 54.428 0.082 6.9 2.85 10.42
5/9/2023 5:45:00 AM 12.45 54.41 0.082 6.9 2.86 10.42
5/9/2023 6:00:00 AM 12.44 54.392 0.082 6.9 2.83 10.43
5/9/2023 6:15:00 AM 12.43 54.374 0.082 6.89 2.9 10.44
5/9/2023 6:30:00 AM 12.43 54.374 0.082 6.91 2.84 10.48
5/9/2023 6:45:00 AM 12.43 54.374 0.082 6.92 2.81 10.53
5/9/2023 7:00:00 AM 12.43 54.374 0.082 6.92 2.79 10.57
5/9/2023 7:15:00 AM 12.44 54.392 0.082 6.94 2.7 10.65
5/9/2023 7:30:00 AM 12.44 54.392 0.082 6.96 2.8 10.71
5/9/2023 7:45:00 AM 12.45 54.41 0.082 6.97 2.63 10.77
5/9/2023 8:00:00 AM 12.46 54.428 0.082 6.99 2.59 10.82
5/9/2023 8:15:00 AM 12.46 54.428 0.082 7 2.7 10.86
5/9/2023 8:30:00 AM 12.47 54.446 0.082 7.01 2.56 10.91
5/9/2023 8:45:00 AM 12.48 54.464 0.082 7.03 2.65 10.96
5/9/2023 9:00:00 AM 12.49 54.482 0.082 7.04 2.64 11
5/9/2023 9:15:00 AM 12.52 54.536 0.082 7.06 2.65 11.08
5/9/2023 9:30:00 AM 12.59 54.662 0.082 7.09 2.61 11.19
5/9/2023 9:45:00 AM 12.66 54.788 0.081 7.13 2.7 11.27
5/9/2023 10:00:00 AM 12.73 54.914 0.081 7.16 2.59 11.34
5/9/2023 10:15:00 AM 12.78 55.004 0.081 7.19 2.73 11.39
5/9/2023 10:30:00 AM 12.88 55.184 0.081 7.22 2.75 11.43
5/9/2023 10:45:00 AM 12.94 55.292 0.081 7.25 2.63 11.46
5/9/2023 11:00:00 AM 13.02 55.436 0.081 7.28 2.71 11.5
5/9/2023 11:15:00 AM 13.1 55.58 0.081 7.31 2.66 11.52
5/9/2023 11:30:00 AM 13.22 55.796 0.081 7.33 2.69 11.53
5/9/2023 11:45:00 AM 13.4 56.12 0.081 7.35 2.86 11.53
5/9/2023 12:00:00 PM 13.53 56.354 0.081 7.36 2.67 11.51
5/9/2023 12:15:00 PM 13.67 56.606 0.081 7.37 2.65 11.51
5/9/2023 12:30:00 PM 13.81 56.858 0.082 7.38 3.33 11.49
5/9/2023 12:45:00 PM 13.98 57.164 0.082 7.39 2.71 11.48
5/9/2023 1:00:00 PM 14.17 57.506 0.082 7.4 2.81 11.47
5/9/2023 1:15:00 PM 14.36 57.848 0.083 7.42 3.34 11.44
5/9/2023 1:30:00 PM 14.55 58.19 0.083 7.43 3.11 11.4
5/9/2023 1:45:00 PM 14.72 58.496 0.083 7.43 3.01 11.38
5/9/2023 2:00:00 PM 14.86 58.748 0.083 7.44 2.77 11.35
5/9/2023 2:15:00 PM 15.01 59.018 0.083 7.45 2.98 11.32
5/9/2023 2:30:00 PM 15.15 59.27 0.083 7.45 3.79 11.29
5/9/2023 2:45:00 PM 15.24 59.432 0.083 7.45 3.95 11.27
5/9/2023 3:00:00 PM 15.3 59.54 0.083 7.45 7.56 11.24
5/9/2023 3:15:00 PM 15.34 59.612 0.083 7.46 3.54 11.21
5/9/2023 3:30:00 PM 15.36 59.648 0.083 7.46 3.26 11.18
5/9/2023 3:45:00 PM 15.37 59.666 0.083 7.45 6.22 11.15
5/9/2023 4:00:00 PM 15.36 59.648 0.082 7.45 4.05 11.11
5/9/2023 4:15:00 PM 15.32 59.576 0.082 7.44 3.07 11.07
5/9/2023 4:30:00 PM 15.23 59.414 0.082 7.43 2.76 11.05
5/9/2023 4:45:00 PM 15.13 59.234 0.082 7.43 3.53 11.03
5/9/2023 5:00:00 PM 15.01 59.018 0.082 7.42 3.19 11.01
5/9/2023 5:15:00 PM 14.86 58.748 0.082 7.41 2.76 10.98
5/9/2023 5:30:00 PM 14.74 58.532 0.082 7.39 2.76 10.97
5/9/2023 5:45:00 PM 14.67 58.406 0.082 7.4 2.78 10.98
5/9/2023 6:00:00 PM 14.58 58.244 0.082 7.39 4.73 10.97
5/9/2023 6:15:00 PM 14.48 58.064 0.082 7.36 3.15 10.92
5/9/2023 6:30:00 PM 14.41 57.938 0.082 7.33 3.03 10.89
5/9/2023 6:45:00 PM 14.33 57.794 0.082 7.32 2.82 10.86
5/9/2023 7:00:00 PM 14.23 57.614 0.083 7.29 2.74 10.83
5/9/2023 7:15:00 PM 14.14 57.452 0.083 7.25 2.92 10.75
5/9/2023 7:30:00 PM 14.06 57.308 0.083 7.21 2.79 10.66
5/9/2023 7:45:00 PM 13.96 57.128 0.083 7.17 2.76 10.58
5/9/2023 8:00:00 PM 13.88 56.984 0.084 7.14 2.75 10.5
5/9/2023 8:15:00 PM 13.8 56.84 0.084 7.1 2.87 10.44
5/9/2023 8:30:00 PM 13.71 56.678 0.085 7.07 2.78 10.37
5/9/2023 8:45:00 PM 13.61 56.498 0.085 7.04 2.92 10.33
5/9/2023 9:00:00 PM 13.52 56.336 0.086 7.02 2.89 10.3
5/9/2023 9:15:00 PM 13.43 56.174 0.086 7 2.84 10.28
5/9/2023 9:30:00 PM 13.35 56.03 0.086 6.99 2.98 10.27
5/9/2023 9:45:00 PM 13.27 55.886 0.086 6.98 2.9 10.26
5/9/2023 10:00:00 PM 13.2 55.76 0.087 6.97 3.08 10.25
5/9/2023 10:15:00 PM 13.15 55.67 0.087 6.96 3.05 10.25
5/9/2023 10:30:00 PM 13.1 55.58 0.087 6.95 2.76 10.25
5/9/2023 10:45:00 PM 13.06 55.508 0.087 6.95 2.94 10.25
5/9/2023 11:00:00 PM 13.02 55.436 0.087 6.95 2.83 10.26
5/9/2023 11:15:00 PM 12.98 55.364 0.087 6.94 2.79 10.26
5/9/2023 11:30:00 PM 12.94 55.292 0.087 6.94 2.76 10.27
5/9/2023 11:45:00 PM 12.9 55.22 0.088 6.93 2.82 10.28
5/10/2023 12:00:00 AM 12.86 55.148 0.088 6.94 3.1 10.29
5/10/2023 12:15:00 AM 12.81 55.058 0.088 6.93 2.75 10.31
5/10/2023 12:30:00 AM 12.75 54.95 0.088 6.93 2.92 10.32
5/10/2023 12:45:00 AM 12.7 54.86 0.088 6.93 2.94 10.33
5/10/2023 1:00:00 AM 12.65 54.77 0.088 6.92 2.82 10.35
5/10/2023 1:15:00 AM 12.6 54.68 0.088 6.92 2.82 10.36
5/10/2023 1:30:00 AM 12.55 54.59 0.088 6.92 2.85 10.37
5/10/2023 1:45:00 AM 12.5 54.5 0.088 6.92 2.89 10.39
5/10/2023 2:00:00 AM 12.45 54.41 0.088 6.91 2.92 10.4
5/10/2023 2:15:00 AM 12.41 54.338 0.088 6.91 2.76 10.41
5/10/2023 2:30:00 AM 12.37 54.266 0.088 6.91 2.85 10.42
5/10/2023 2:45:00 AM 12.34 54.212 0.088 6.91 2.89 10.42
5/10/2023 3:00:00 AM 12.31 54.158 0.088 6.91 2.84 10.43
5/10/2023 3:15:00 AM 12.29 54.122 0.088 6.91 2.74 10.44
5/10/2023 3:30:00 AM 12.26 54.068 0.088 6.9 2.97 10.45
5/10/2023 3:45:00 AM 12.23 54.014 0.088 6.9 2.91 10.46
5/10/2023 4:00:00 AM 12.2 53.96 0.088 6.91 2.85 10.46
5/10/2023 4:15:00 AM 12.17 53.906 0.089 6.9 2.93 10.47
5/10/2023 4:30:00 AM 12.15 53.87 0.088 6.9 2.91 10.48
5/10/2023 4:45:00 AM 12.12 53.816 0.089 6.91 2.89 10.48
5/10/2023 5:00:00 AM 12.1 53.78 0.089 6.91 2.78 10.49
5/10/2023 5:15:00 AM 12.09 53.762 0.089 6.9 2.79 10.49
5/10/2023 5:30:00 AM 12.07 53.726 0.089 6.91 2.89 10.5
5/10/2023 5:45:00 AM 12.05 53.69 0.089 6.91 2.89 10.5
5/10/2023 6:00:00 AM 12.03 53.654 0.089 6.9 3.12 10.51
5/10/2023 6:15:00 AM 12.01 53.618 0.089 6.91 2.84 10.53
5/10/2023 6:30:00 AM 12 53.6 0.089 6.91 2.71 10.57
5/10/2023 6:45:00 AM 11.98 53.564 0.089 6.92 2.75 10.62
5/10/2023 7:00:00 AM 11.97 53.546 0.088 6.93 3.15 10.68
5/10/2023 7:15:00 AM 11.96 53.528 0.088 6.95 2.75 10.74
5/10/2023 7:30:00 AM 11.95 53.51 0.088 6.96 2.71 10.81
5/10/2023 7:45:00 AM 11.95 53.51 0.088 6.97 2.75 10.87
5/10/2023 8:00:00 AM 11.98 53.564 0.088 6.99 2.66 10.96
5/10/2023 8:15:00 AM 12 53.6 0.088 7.01 2.71 11.03
5/10/2023 8:30:00 AM 12.03 53.654 0.088 7.03 2.78 11.1
5/10/2023 8:45:00 AM 12.08 53.744 0.088 7.05 2.62 11.17
5/10/2023 9:00:00 AM 12.12 53.816 0.088 7.07 2.74 11.22
5/10/2023 9:15:00 AM 12.18 53.924 0.088 7.09 2.57 11.27
5/10/2023 9:30:00 AM 12.24 54.032 0.088 7.11 2.77 11.3
5/10/2023 9:45:00 AM 12.31 54.158 0.088 7.13 2.62 11.35
5/10/2023 10:00:00 AM 12.39 54.302 0.088 7.14 2.68 11.38
5/10/2023 10:15:00 AM 12.5 54.5 0.088 7.16 2.63 11.41
5/10/2023 10:30:00 AM 12.62 54.716 0.088 7.18 2.64 11.43
5/10/2023 10:45:00 AM 12.77 54.986 0.088 7.19 2.63 11.45
5/10/2023 11:00:00 AM 12.93 55.274 0.088 7.22 2.61 11.47
5/10/2023 11:15:00 AM 13.12 55.616 0.088 7.24 2.62 11.48
5/10/2023 11:30:00 AM 13.31 55.958 0.088 7.26 2.69 11.49
5/10/2023 11:45:00 AM 13.51 56.318 0.088 7.29 2.64 11.5
5/10/2023 12:00:00 PM 13.72 56.696 0.088 7.31 2.65 11.49
5/10/2023 12:15:00 PM 13.9 57.02 0.088 7.33 2.8 11.49
5/10/2023 12:30:00 PM 14.09 57.362 0.088 7.35 2.69 11.48
5/10/2023 12:45:00 PM 14.27 57.686 0.088 7.37 2.71 11.48
5/10/2023 1:00:00 PM 14.46 58.028 0.088 7.39 2.77 11.46
5/10/2023 1:15:00 PM 14.64 58.352 0.088 7.41 2.75 11.46
5/10/2023 1:30:00 PM 14.82 58.676 0.088 7.42 2.6 11.43
5/10/2023 1:45:00 PM 14.98 58.964 0.088 7.44 2.73 11.43
5/10/2023 2:00:00 PM 15.1 59.18 0.088 7.45 2.66 11.4
5/10/2023 2:15:00 PM 15.19 59.342 0.088 7.46 2.74 11.39
5/10/2023 2:30:00 PM 15.28 59.504 0.089 7.47 2.77 11.38
5/10/2023 2:45:00 PM 15.31 59.558 0.089 7.47 2.71 11.36
5/10/2023 3:00:00 PM 15.32 59.576 0.089 7.48 2.71 11.36
5/10/2023 3:15:00 PM 15.31 59.558 0.089 7.48 2.79 11.34
5/10/2023 3:30:00 PM 15.29 59.522 0.089 7.49 2.74 11.33
5/10/2023 3:45:00 PM 15.24 59.432 0.089 7.48 2.73 11.31
5/10/2023 4:00:00 PM 15.2 59.36 0.089 7.48 2.83 11.28
5/10/2023 4:15:00 PM 15.15 59.27 0.089 7.47 2.66 11.24
5/10/2023 4:30:00 PM 15.07 59.126 0.089 7.46 2.71 11.2
5/10/2023 4:45:00 PM 14.96 58.928 0.089 7.44 2.72 11.17
5/10/2023 5:00:00 PM 14.81 58.658 0.089 7.42 2.71 11.12
5/10/2023 5:15:00 PM 14.61 58.298 0.089 7.39 2.87 11.06
5/10/2023 5:30:00 PM 14.39 57.902 0.089 7.35 2.79 11.02
5/10/2023 5:45:00 PM 14.2 57.56 0.089 7.32 2.72 11
5/10/2023 6:00:00 PM 14 57.2 0.089 7.29 2.75 10.97
5/10/2023 6:15:00 PM 13.82 56.876 0.09 7.26 2.91 10.94
5/10/2023 6:30:00 PM 13.66 56.588 0.09 7.24 2.68 10.94
5/10/2023 6:45:00 PM 13.52 56.336 0.09 7.22 2.77 10.93
5/10/2023 7:00:00 PM 13.38 56.084 0.09 7.2 2.66 10.92
5/10/2023 7:15:00 PM 13.24 55.832 0.09 7.18 2.72 10.9
5/10/2023 7:30:00 PM 13.11 55.598 0.09 7.16 2.77 10.85
5/10/2023 7:45:00 PM 13 55.4 0.09 7.13 2.87 10.8
5/10/2023 8:00:00 PM 12.9 55.22 0.091 7.1 2.8 10.74
5/10/2023 8:15:00 PM 12.81 55.058 0.091 7.07 2.81 10.67
5/10/2023 8:30:00 PM 12.74 54.932 0.091 7.05 2.69 10.6
5/10/2023 8:45:00 PM 12.69 54.842 0.091 7.02 2.75 10.55
5/10/2023 9:00:00 PM 12.64 54.752 0.091 7 2.93 10.51
5/10/2023 9:15:00 PM 12.61 54.698 0.091 6.99 2.7 10.48
5/10/2023 9:30:00 PM 12.59 54.662 0.091 6.97 2.96 10.45
5/10/2023 9:45:00 PM 12.58 54.644 0.091 6.96 2.75 10.43
5/10/2023 10:00:00 PM 12.59 54.662 0.091 6.95 2.85 10.39
5/10/2023 10:15:00 PM 12.61 54.698 0.091 6.95 2.88 10.37
5/10/2023 10:30:00 PM 12.64 54.752 0.091 6.94 2.77 10.34
5/10/2023 10:45:00 PM 12.68 54.824 0.091 6.94 2.76 10.32
5/10/2023 11:00:00 PM 12.73 54.914 0.091 6.93 2.78 10.29
5/10/2023 11:15:00 PM 12.77 54.986 0.091 6.93 2.91 10.28
5/10/2023 11:30:00 PM 12.8 55.04 0.091 6.93 2.74 10.27
5/10/2023 11:45:00 PM 12.83 55.094 0.091 6.92 2.84 10.26
5/11/2023 12:00:00 AM 12.85 55.13 0.091 6.92 2.88 10.25
5/11/2023 12:15:00 AM 12.87 55.166 0.091 6.92 2.74 10.25
5/11/2023 12:30:00 AM 12.87 55.166 0.091 6.92 2.93 10.25
5/11/2023 12:45:00 AM 12.86 55.148 0.091 6.91 2.98 10.25
5/11/2023 1:00:00 AM 12.85 55.13 0.091 6.91 2.82 10.25
5/11/2023 1:15:00 AM 12.85 55.13 0.091 6.9 2.77 10.25
5/11/2023 1:30:00 AM 12.85 55.13 0.091 6.91 2.81 10.25
5/11/2023 1:45:00 AM 12.85 55.13 0.091 6.91 2.64 10.25
5/11/2023 2:00:00 AM 12.85 55.13 0.091 6.91 2.8 10.25
5/11/2023 2:15:00 AM 12.86 55.148 0.091 6.9 2.71 10.24
5/11/2023 2:30:00 AM 12.87 55.166 0.091 6.9 2.83 10.23
5/11/2023 2:45:00 AM 12.89 55.202 0.091 6.89 2.66 10.23
5/11/2023 3:00:00 AM 12.91 55.238 0.091 6.89 2.78 10.22
5/11/2023 3:15:00 AM 12.92 55.256 0.091 6.89 2.82 10.22
5/11/2023 3:30:00 AM 12.92 55.256 0.091 6.89 2.7 10.22
5/11/2023 3:45:00 AM 12.92 55.256 0.091 6.89 2.77 10.22
5/11/2023 4:00:00 AM 12.92 55.256 0.091 6.89 2.95 10.21
5/11/2023 4:15:00 AM 12.92 55.256 0.091 6.89 2.92 10.21
5/11/2023 4:30:00 AM 12.91 55.238 0.091 6.88 2.73 10.21
5/11/2023 4:45:00 AM 12.9 55.22 0.091 6.89 2.83 10.22
5/11/2023 5:00:00 AM 12.87 55.166 0.091 6.89 3.06 10.22
5/11/2023 5:15:00 AM 12.84 55.112 0.091 6.89 2.82 10.23
5/11/2023 5:30:00 AM 12.8 55.04 0.091 6.89 2.74 10.25
5/11/2023 5:45:00 AM 12.76 54.968 0.091 6.89 2.82 10.25
5/11/2023 6:00:00 AM 12.72 54.896 0.091 6.89 2.93 10.28
5/11/2023 6:15:00 AM 12.7 54.86 0.091 6.89 2.91 10.31
5/11/2023 6:30:00 AM 12.67 54.806 0.091 6.9 2.65 10.36
5/11/2023 6:45:00 AM 12.65 54.77 0.091 6.91 2.97 10.43
5/11/2023 7:00:00 AM 12.64 54.752 0.091 6.93 2.87 10.51
5/11/2023 7:15:00 AM 12.63 54.734 0.091 6.95 2.88 10.59
5/11/2023 7:30:00 AM 12.62 54.716 0.091 6.96 2.76 10.67
5/11/2023 7:45:00 AM 12.61 54.698 0.091 6.98 2.6 10.76
5/11/2023 8:00:00 AM 12.63 54.734 0.091 7 2.76 10.85
5/11/2023 8:15:00 AM 12.65 54.77 0.09 7.02 2.65 10.93
5/11/2023 8:30:00 AM 12.68 54.824 0.09 7.05 2.66 11.01
5/11/2023 8:45:00 AM 12.73 54.914 0.09 7.07 2.76 11.08
5/11/2023 9:00:00 AM 12.78 55.004 0.09 7.1 2.69 11.14
5/11/2023 9:15:00 AM 12.84 55.112 0.09 7.12 2.83 11.2
5/11/2023 9:30:00 AM 12.9 55.22 0.09 7.14 2.7 11.25
5/11/2023 9:45:00 AM 12.99 55.382 0.09 7.17 2.75 11.29
5/11/2023 10:00:00 AM 13.08 55.544 0.09 7.19 2.66 11.32
5/11/2023 10:15:00 AM 13.18 55.724 0.09 7.21 2.74 11.34
5/11/2023 10:30:00 AM 13.3 55.94 0.09 7.24 2.71 11.37
5/11/2023 10:45:00 AM 13.44 56.192 0.089 7.26 2.71 11.37
5/11/2023 11:00:00 AM 13.61 56.498 0.09 7.28 2.81 11.37
5/11/2023 11:15:00 AM 13.79 56.822 0.09 7.3 2.79 11.36
5/11/2023 11:30:00 AM 14 57.2 0.09 7.32 2.69 11.35
5/11/2023 11:45:00 AM 14.2 57.56 0.09 7.34 2.62 11.34
5/11/2023 12:00:00 PM 14.42 57.956 0.09 7.36 2.7 11.33
5/11/2023 12:15:00 PM 14.64 58.352 0.09 7.38 2.74 11.32
5/11/2023 12:30:00 PM 14.85 58.73 0.09 7.4 2.84 11.32
5/11/2023 12:45:00 PM 15.05 59.09 0.09 7.42 2.76 11.3
5/11/2023 1:00:00 PM 15.27 59.486 0.09 7.44 2.72 11.29
5/11/2023 1:15:00 PM 15.43 59.774 0.09 7.47 2.66 11.28
5/11/2023 1:30:00 PM 15.62 60.116 0.09 7.49 2.98 11.27
5/11/2023 1:45:00 PM 15.75 60.35 0.09 7.51 2.74 11.26
5/11/2023 2:00:00 PM 15.81 60.458 0.09 7.53 2.94 11.26
5/11/2023 2:15:00 PM 15.8 60.44 0.09 7.55 2.78 11.26
5/11/2023 2:30:00 PM 15.75 60.35 0.091 7.56 2.9 11.25
5/11/2023 2:45:00 PM 15.84 60.512 0.091 7.56 2.94 11.25
5/11/2023 3:00:00 PM 15.94 60.692 0.091 7.57 2.88 11.23
5/11/2023 3:15:00 PM 16 60.8 0.091 7.57 2.8 11.22
5/11/2023 3:30:00 PM 16.02 60.836 0.091 7.56 2.8 11.2
5/11/2023 3:45:00 PM 15.98 60.764 0.091 7.56 3.05 11.19
5/11/2023 4:00:00 PM 15.69 60.242 0.091 7.52 2.9 11.14
5/11/2023 4:15:00 PM 15.4 59.72 0.091 7.51 3 11.14
5/11/2023 4:30:00 PM 15.2 59.36 0.091 7.49 2.85 11.14
5/11/2023 4:45:00 PM 14.96 58.928 0.091 7.48 3.01 11.12
5/11/2023 5:00:00 PM 14.76 58.568 0.092 7.46 2.99 11.14
5/11/2023 5:15:00 PM 14.62 58.316 0.092 7.45 2.83 11.12
5/11/2023 5:30:00 PM 14.44 57.992 0.092 7.42 3.12 11.09
5/11/2023 5:45:00 PM 14.34 57.812 0.092 7.4 2.91 11.08
5/11/2023 6:00:00 PM 14.23 57.614 0.092 7.38 2.93 11.07
5/11/2023 6:15:00 PM 14.11 57.398 0.092 7.37 2.79 11.08
5/11/2023 6:30:00 PM 14 57.2 0.092 7.35 2.74 11.08
5/11/2023 6:45:00 PM 13.88 56.984 0.092 7.32 2.87 11.04
5/11/2023 7:00:00 PM 13.77 56.786 0.092 7.29 2.77 10.98
5/11/2023 7:15:00 PM 13.67 56.606 0.092 7.25 2.89 10.91
5/11/2023 7:30:00 PM 13.59 56.462 0.092 7.21 2.94 10.81
5/11/2023 7:45:00 PM 13.54 56.372 0.093 7.17 2.93 10.72
5/11/2023 8:00:00 PM 13.49 56.282 0.093 7.13 2.86 10.64
5/11/2023 8:15:00 PM 13.45 56.21 0.093 7.1 2.9 10.55
5/11/2023 8:30:00 PM 13.43 56.174 0.093 7.07 2.83 10.45
5/11/2023 8:45:00 PM 13.43 56.174 0.093 7.04 3.01 10.37
5/11/2023 9:00:00 PM 13.46 56.228 0.093 7.02 2.8 10.3
5/11/2023 9:15:00 PM 13.5 56.3 0.094 6.99 2.87 10.23
5/11/2023 9:30:00 PM 13.57 56.426 0.094 6.98 2.93 10.17
5/11/2023 9:45:00 PM 13.67 56.606 0.094 6.96 3.03 10.1
5/11/2023 10:00:00 PM 13.77 56.786 0.094 6.96 2.88 10.04
5/11/2023 10:15:00 PM 13.85 56.93 0.094 6.94 2.95 10
5/11/2023 10:30:00 PM 13.91 57.038 0.094 6.94 2.82 9.97
5/11/2023 10:45:00 PM 13.93 57.074 0.094 6.93 2.94 9.95
5/11/2023 11:00:00 PM 13.94 57.092 0.094 6.93 2.85 9.94
5/11/2023 11:15:00 PM 13.93 57.074 0.094 6.93 2.94 9.94
5/11/2023 11:30:00 PM 13.9 57.02 0.094 6.92 3 9.94
5/11/2023 11:45:00 PM 13.86 56.948 0.094 6.91 3.02 9.95
5/12/2023 12:00:00 AM 13.82 56.876 0.094 6.92 2.91 9.96
5/12/2023 12:15:00 AM 13.79 56.822 0.094 6.91 3.19 9.97
5/12/2023 12:30:00 AM 13.76 56.768 0.094 6.91 3.26 9.98
5/12/2023 12:45:00 AM 13.74 56.732 0.094 6.91 3.13 9.98
5/12/2023 1:00:00 AM 13.72 56.696 0.094 6.9 2.99 9.98
5/12/2023 1:15:00 AM 13.71 56.678 0.094 6.9 2.96 9.98
5/12/2023 1:30:00 AM 13.71 56.678 0.094 6.89 3 9.98
5/12/2023 1:45:00 AM 13.71 56.678 0.094 6.9 3.05 9.98
5/12/2023 2:00:00 AM 13.71 56.678 0.094 6.89 3.11 9.97
5/12/2023 2:15:00 AM 13.71 56.678 0.094 6.89 3.05 9.97
5/12/2023 2:30:00 AM 13.71 56.678 0.094 6.89 3.04 9.97
5/12/2023 2:45:00 AM 13.71 56.678 0.094 6.89 3.08 9.97
5/12/2023 3:00:00 AM 13.71 56.678 0.094 6.89 3.05 9.97
5/12/2023 3:15:00 AM 13.71 56.678 0.094 6.89 3.02 9.96
5/12/2023 3:30:00 AM 13.71 56.678 0.094 6.89 3.2 9.96
5/12/2023 3:45:00 AM 13.71 56.678 0.094 6.89 2.94 9.96
5/12/2023 4:00:00 AM 13.71 56.678 0.094 6.89 2.98 9.96
5/12/2023 4:15:00 AM 13.72 56.696 0.094 6.89 3.17 9.96
5/12/2023 4:30:00 AM 13.71 56.678 0.094 6.89 3.02 9.96
5/12/2023 4:45:00 AM 13.7 56.66 0.094 6.89 2.87 9.96
5/12/2023 5:00:00 AM 13.69 56.642 0.094 6.89 3.12 9.97
5/12/2023 5:15:00 AM 13.67 56.606 0.094 6.88 3.17 9.97
5/12/2023 5:30:00 AM 13.64 56.552 0.094 6.88 3.06 9.98
5/12/2023 5:45:00 AM 13.62 56.516 0.094 6.88 3.06 9.98
5/12/2023 6:00:00 AM 13.59 56.462 0.094 6.88 3.08 10.01
5/12/2023 6:15:00 AM 13.56 56.408 0.094 6.89 3.25 10.04
5/12/2023 6:30:00 AM 13.54 56.372 0.094 6.9 2.94 10.11
5/12/2023 6:45:00 AM 13.52 56.336 0.094 6.92 3 10.19
5/12/2023 7:00:00 AM 13.51 56.318 0.094 6.93 2.88 10.27
5/12/2023 7:15:00 AM 13.5 56.3 0.094 6.95 2.97 10.34
5/12/2023 7:30:00 AM 13.48 56.264 0.094 6.96 3.02 10.42
5/12/2023 7:45:00 AM 13.48 56.264 0.094 6.98 2.98 10.49
5/12/2023 8:00:00 AM 13.48 56.264 0.094 7 2.92 10.56
5/12/2023 8:15:00 AM 13.51 56.318 0.094 7.02 2.9 10.66
5/12/2023 8:30:00 AM 13.55 56.39 0.094 7.05 2.9 10.75
5/12/2023 8:45:00 AM 13.6 56.48 0.093 7.07 2.9 10.83
5/12/2023 9:00:00 AM 13.64 56.552 0.093 7.1 2.93 10.9
5/12/2023 9:15:00 AM 13.71 56.678 0.093 7.12 2.9 10.97
5/12/2023 9:30:00 AM 13.77 56.786 0.093 7.15 2.79 11.03
5/12/2023 9:45:00 AM 13.83 56.894 0.093 7.18 2.85 11.08
5/12/2023 10:00:00 AM 13.93 57.074 0.093 7.21 2.93 11.13
5/12/2023 10:15:00 AM 14.03 57.254 0.093 7.24 2.87 11.17
5/12/2023 10:30:00 AM 14.11 57.398 0.093 7.27 2.92 11.2
5/12/2023 10:45:00 AM 14.22 57.596 0.092 7.3 2.74 11.24
5/12/2023 11:00:00 AM 14.38 57.884 0.092 7.33 2.98 11.26
5/12/2023 11:15:00 AM 14.57 58.226 0.092 7.35 2.78 11.27
5/12/2023 11:30:00 AM 14.74 58.532 0.092 7.38 2.75 11.27
5/12/2023 11:45:00 AM 14.91 58.838 0.092 7.41 2.8 11.27
5/12/2023 12:00:00 PM 15.1 59.18 0.092 7.43 2.82 11.24
5/12/2023 12:15:00 PM 15.31 59.558 0.093 7.45 2.76 11.22
5/12/2023 12:30:00 PM 15.54 59.972 0.093 7.46 2.79 11.2
5/12/2023 12:45:00 PM 15.76 60.368 0.093 7.49 2.86 11.18
5/12/2023 1:00:00 PM 15.96 60.728 0.093 7.5 2.79 11.15
5/12/2023 1:15:00 PM 16.2 61.16 0.093 7.52 2.74 11.13
5/12/2023 1:30:00 PM 16.39 61.502 0.093 7.54 2.87 11.12
5/12/2023 1:45:00 PM 16.46 61.628 0.093 7.56 2.8 11.1
5/12/2023 2:00:00 PM 16.62 61.916 0.093 7.58 2.84 11.09
5/12/2023 2:15:00 PM 16.71 62.078 0.093 7.6 2.84 11.07
5/12/2023 2:30:00 PM 16.8 62.24 0.093 7.61 2.96 11.05
5/12/2023 2:45:00 PM 16.96 62.528 0.094 7.62 2.8 11.03
5/12/2023 3:00:00 PM 17.07 62.726 0.094 7.62 2.8 11.01
5/12/2023 3:15:00 PM 16.95 62.51 0.094 7.61 2.9 10.96
5/12/2023 3:30:00 PM 17.01 62.618 0.094 7.61 3.06 10.97
5/12/2023 3:45:00 PM 17.1 62.78 0.094 7.62 3.09 10.95
5/12/2023 4:00:00 PM 16.89 62.402 0.094 7.61 3.02 10.91
5/12/2023 4:15:00 PM 16.84 62.312 0.094 7.59 2.96 10.89
5/12/2023 4:30:00 PM 16.7 62.06 0.095 7.57 2.84 10.88
5/12/2023 4:45:00 PM 16.63 61.934 0.095 7.56 2.75 10.86
5/12/2023 5:00:00 PM 16.38 61.484 0.095 7.51 2.89 10.77
5/12/2023 5:15:00 PM 16.1 60.98 0.095 7.44 2.78 10.71
5/12/2023 5:30:00 PM 15.92 60.656 0.095 7.41 2.79 10.67
5/12/2023 5:45:00 PM 15.78 60.404 0.095 7.38 2.78 10.65
5/12/2023 6:00:00 PM 15.66 60.188 0.095 7.36 2.84 10.62
5/12/2023 6:15:00 PM 15.54 59.972 0.095 7.33 2.84 10.58
5/12/2023 6:30:00 PM 15.42 59.756 0.096 7.29 2.79 10.54
5/12/2023 6:45:00 PM 15.3 59.54 0.095 7.29 9.49 10.56
5/12/2023 7:00:00 PM 15.18 59.324 0.096 7.27 3.16 10.52
5/12/2023 7:15:00 PM 15.08 59.144 0.096 7.23 2.74 10.45
5/12/2023 7:30:00 PM 14.99 58.982 0.096 7.2 2.72 10.39
5/12/2023 7:45:00 PM 14.89 58.802 0.096 7.16 2.71 10.31
5/12/2023 8:00:00 PM 14.79 58.622 0.096 7.12 2.96 10.21
5/12/2023 8:15:00 PM 14.72 58.496 0.096 7.09 3.01 10.12
5/12/2023 8:30:00 PM 14.69 58.442 0.096 7.06 2.79 10.03
5/12/2023 8:45:00 PM 14.69 58.442 0.097 7.03 2.9 9.96
5/12/2023 9:00:00 PM 14.69 58.442 0.097 7.01 2.8 9.91
5/12/2023 9:15:00 PM 14.7 58.46 0.097 6.99 3.04 9.86
5/12/2023 9:30:00 PM 14.7 58.46 0.097 6.98 2.84 9.83
5/12/2023 9:45:00 PM 14.68 58.424 0.097 6.96 3.01 9.8
5/12/2023 10:00:00 PM 14.64 58.352 0.097 6.95 2.85 9.78
5/12/2023 10:15:00 PM 14.6 58.28 0.097 6.94 2.9 9.78
5/12/2023 10:30:00 PM 14.56 58.208 0.097 6.93 2.83 9.77
5/12/2023 10:45:00 PM 14.52 58.136 0.097 6.93 2.93 9.77
5/12/2023 11:00:00 PM 14.48 58.064 0.097 6.92 2.92 9.78
5/12/2023 11:15:00 PM 14.45 58.01 0.097 6.92 2.8 9.77
5/12/2023 11:30:00 PM 14.42 57.956 0.097 6.91 2.89 9.78
5/12/2023 11:45:00 PM 14.42 57.956 0.097 6.9 2.9 9.77
5/13/2023 12:00:00 AM 14.44 57.992 0.097 6.9 2.9 9.76
5/13/2023 12:15:00 AM 14.49 58.082 0.097 6.9 2.93 9.74
5/13/2023 12:30:00 AM 14.55 58.19 0.097 6.9 2.83 9.72
5/13/2023 12:45:00 AM 14.63 58.334 0.097 6.89 3.05 9.7
5/13/2023 1:00:00 AM 14.71 58.478 0.097 6.89 2.84 9.67
5/13/2023 1:15:00 AM 14.78 58.604 0.097 6.89 2.97 9.66
5/13/2023 1:30:00 AM 14.84 58.712 0.098 6.89 2.9 9.64
5/13/2023 1:45:00 AM 14.88 58.784 0.098 6.89 2.87 9.62
5/13/2023 2:00:00 AM 14.91 58.838 0.098 6.89 3 9.61
5/13/2023 2:15:00 AM 14.93 58.874 0.098 6.89 2.88 9.61
5/13/2023 2:30:00 AM 14.94 58.892 0.098 6.88 3.12 9.61
5/13/2023 2:45:00 AM 14.95 58.91 0.098 6.88 2.84 9.6
5/13/2023 3:00:00 AM 14.97 58.946 0.098 6.88 2.92 9.6
5/13/2023 3:15:00 AM 14.98 58.964 0.098 6.88 2.86 9.6
5/13/2023 3:30:00 AM 14.99 58.982 0.098 6.88 2.95 9.59
5/13/2023 3:45:00 AM 15 59 0.098 6.88 2.99 9.6
5/13/2023 4:00:00 AM 15.01 59.018 0.098 6.88 2.91 9.59
5/13/2023 4:15:00 AM 15.01 59.018 0.098 6.88 2.86 9.6
5/13/2023 4:30:00 AM 15.01 59.018 0.098 6.88 2.99 9.6
5/13/2023 4:45:00 AM 15.02 59.036 0.098 6.88 3.07 9.6
5/13/2023 5:00:00 AM 15.01 59.018 0.098 6.88 2.93 9.6
5/13/2023 5:15:00 AM 15 59 0.098 6.88 3.07 9.6
5/13/2023 5:30:00 AM 14.99 58.982 0.098 6.88 2.98 9.6
5/13/2023 5:45:00 AM 14.96 58.928 0.098 6.88 3.02 9.61
5/13/2023 6:00:00 AM 14.94 58.892 0.098 6.88 3.02 9.61
5/13/2023 6:15:00 AM 14.93 58.874 0.098 6.88 3.13 9.65
5/13/2023 6:30:00 AM 14.93 58.874 0.098 6.89 3 9.7
5/13/2023 6:45:00 AM 14.94 58.892 0.097 6.9 3.14 9.75
5/13/2023 7:00:00 AM 14.96 58.928 0.098 6.91 2.84 9.82
5/13/2023 7:15:00 AM 14.98 58.964 0.098 6.93 2.82 9.91
5/13/2023 7:30:00 AM 15 59 0.097 6.95 2.85 10
5/13/2023 7:45:00 AM 15.02 59.036 0.097 6.97 3.07 10.1
5/13/2023 8:00:00 AM 15.04 59.072 0.097 6.99 2.97 10.16
5/13/2023 8:15:00 AM 15.06 59.108 0.097 7.01 2.86 10.25
5/13/2023 8:30:00 AM 15.07 59.126 0.097 7.03 2.97 10.33
5/13/2023 8:45:00 AM 15.09 59.162 0.097 7.06 2.78 10.43
5/13/2023 9:00:00 AM 15.12 59.216 0.096 7.08 2.81 10.54
5/13/2023 9:15:00 AM 15.14 59.252 0.096 7.12 2.88 10.63
5/13/2023 9:30:00 AM 15.17 59.306 0.096 7.15 2.96 10.7
5/13/2023 9:45:00 AM 15.19 59.342 0.096 7.17 2.76 10.76
5/13/2023 10:00:00 AM 15.19 59.342 0.096 7.19 3.03 10.76
5/13/2023 10:15:00 AM 15.2 59.36 0.096 7.2 2.96 10.78
5/13/2023 10:30:00 AM 15.23 59.414 0.096 7.23 3.1 10.84
5/13/2023 10:45:00 AM 15.27 59.486 0.096 7.26 3.26 10.89
5/13/2023 11:00:00 AM 15.32 59.576 0.096 7.29 2.95 10.94
5/13/2023 11:15:00 AM 15.35 59.63 0.096 7.32 3.02 10.96
5/13/2023 11:30:00 AM 15.37 59.666 0.096 7.34 3.56 10.97
5/13/2023 11:45:00 AM 15.4 59.72 0.096 7.36 3.11 10.99
5/13/2023 12:00:00 PM 15.45 59.81 0.096 7.39 3.6 11.02
5/13/2023 12:15:00 PM 15.51 59.918 0.096 7.42 3.1 11.05
5/13/2023 12:30:00 PM 15.56 60.008 0.096 7.45 3.29 11.08
5/13/2023 12:45:00 PM 15.66 60.188 0.096 7.49 2.9 11.11
5/13/2023 1:00:00 PM 15.78 60.404 0.097 7.52 3.1 11.12
5/13/2023 1:15:00 PM 15.9 60.62 0.097 7.55 2.87 11.12
5/13/2023 1:30:00 PM 15.95 60.71 0.097 7.57 3.3 11.1
5/13/2023 1:45:00 PM 16 60.8 0.097 7.6 3.15 11.09
5/13/2023 2:00:00 PM 16.11 60.998 0.097 7.61 3.06 11.09
5/13/2023 2:15:00 PM 16.12 61.016 0.097 7.61 2.98 11.04
5/13/2023 2:30:00 PM 16.13 61.034 0.097 7.62 3.51 11.03
5/13/2023 2:45:00 PM 16.2 61.16 0.097 7.63 2.89 11.02
5/13/2023 3:00:00 PM 16.31 61.358 0.097 7.66 2.96 11.02
5/13/2023 3:15:00 PM 16.39 61.502 0.097 7.67 3.12 11.01
5/13/2023 3:30:00 PM 16.4 61.52 0.097 7.68 2.96 11
5/13/2023 3:45:00 PM 16.4 61.52 0.097 7.69 2.78 10.99
5/13/2023 4:00:00 PM 16.5 61.7 0.097 7.7 3.27 10.99
5/13/2023 4:15:00 PM 16.6 61.88 0.098 7.7 2.79 10.98
5/13/2023 4:30:00 PM 16.48 61.664 0.098 7.68 3.08 10.93
5/13/2023 4:45:00 PM 16.5 61.7 0.098 7.67 2.84 10.92
5/13/2023 5:00:00 PM 16.31 61.358 0.098 7.64 2.78 10.87
5/13/2023 5:15:00 PM 16.29 61.322 0.098 7.63 2.72 10.85
5/13/2023 5:30:00 PM 16.26 61.268 0.098 7.61 2.77 10.82
5/13/2023 5:45:00 PM 16.24 61.232 0.098 7.58 2.81 10.75
5/13/2023 6:00:00 PM 16.26 61.268 0.098 7.54 2.77 10.67
5/13/2023 6:15:00 PM 16.31 61.358 0.098 7.5 2.65 10.57
5/13/2023 6:30:00 PM 16.37 61.466 0.098 7.45 2.53 10.45
5/13/2023 6:45:00 PM 16.43 61.574 0.098 7.4 2.7 10.33
5/13/2023 7:00:00 PM 16.47 61.646 0.098 7.34 2.77 10.23
5/13/2023 7:15:00 PM 16.45 61.61 0.098 7.3 2.73 10.15
5/13/2023 7:30:00 PM 16.37 61.466 0.099 7.26 2.75 10.07
5/13/2023 7:45:00 PM 16.26 61.268 0.099 7.22 2.65 9.99
5/13/2023 8:00:00 PM 16.12 61.016 0.099 7.18 2.74 9.91
5/13/2023 8:15:00 PM 15.98 60.764 0.099 7.14 2.65 9.84
5/13/2023 8:30:00 PM 15.87 60.566 0.1 7.1 3.22 9.77
5/13/2023 8:45:00 PM 15.8 60.44 0.1 7.07 3.04 9.69
5/13/2023 9:00:00 PM 15.78 60.404 0.1 7.05 3.21 9.62
5/13/2023 9:15:00 PM 15.82 60.476 0.1 7.03 2.88 9.55
5/13/2023 9:30:00 PM 15.88 60.584 0.1 7.02 2.97 9.49
5/13/2023 9:45:00 PM 15.94 60.692 0.1 7.01 3.32 9.44
5/13/2023 10:00:00 PM 15.96 60.728 0.1 6.99 2.91 9.41
5/13/2023 10:15:00 PM 15.92 60.656 0.1 6.98 3 9.39
5/13/2023 10:30:00 PM 15.86 60.548 0.1 6.98 3.03 9.39
5/13/2023 10:45:00 PM 15.76 60.368 0.1 6.97 3.27 9.41
5/13/2023 11:00:00 PM 15.65 60.17 0.1 6.97 2.93 9.43
5/13/2023 11:15:00 PM 15.53 59.954 0.1 6.95 3.37 9.45
5/13/2023 11:30:00 PM 15.43 59.774 0.1 6.95 2.92 9.47
5/13/2023 11:45:00 PM 15.33 59.594 0.1 6.94 3.28 9.49
5/14/2023 12:00:00 AM 15.23 59.414 0.1 6.95 3.63 9.52
5/14/2023 12:15:00 AM 15.15 59.27 0.1 6.94 3.46 9.53
5/14/2023 12:30:00 AM 15.07 59.126 0.1 6.93 3.06 9.55
5/14/2023 12:45:00 AM 15 59 0.1 6.94 3.56 9.57
5/14/2023 1:00:00 AM 14.94 58.892 0.1 6.93 3.07 9.58
5/14/2023 1:15:00 AM 14.87 58.766 0.1 6.93 3.01 9.6
5/14/2023 1:30:00 AM 14.79 58.622 0.1 6.93 3.18 9.62
5/14/2023 1:45:00 AM 14.71 58.478 0.1 6.92 3.19 9.64
5/14/2023 2:00:00 AM 14.63 58.334 0.1 6.92 3.16 9.66
5/14/2023 2:15:00 AM 14.55 58.19 0.1 6.92 3.46 9.68
5/14/2023 2:30:00 AM 14.47 58.046 0.1 6.92 3.17 9.7
5/14/2023 2:45:00 AM 14.4 57.92 0.1 6.92 3.02 9.72
5/14/2023 3:00:00 AM 14.34 57.812 0.101 6.92 3.02 9.74
5/14/2023 3:15:00 AM 14.27 57.686 0.101 6.91 2.92 9.76
5/14/2023 3:30:00 AM 14.22 57.596 0.101 6.91 1.84 9.77
5/14/2023 3:45:00 AM 14.17 57.506 0.101 6.91 4.15 9.78
5/14/2023 4:00:00 AM 14.11 57.398 0.101 6.91 3.2 9.8
5/14/2023 4:15:00 AM 14.07 57.326 0.101 6.91 3.13 9.81
5/14/2023 4:30:00 AM 14.02 57.236 0.101 6.91 2.88 9.82
5/14/2023 4:45:00 AM 13.97 57.146 0.101 6.91 3.13 9.84
5/14/2023 5:00:00 AM 13.94 57.092 0.101 6.91 2.98 9.84
5/14/2023 5:15:00 AM 13.91 57.038 0.101 6.91 3.23 9.85
5/14/2023 5:30:00 AM 13.88 56.984 0.101 6.91 3.19 9.86
5/14/2023 5:45:00 AM 13.86 56.948 0.101 6.91 2.98 9.86
5/14/2023 6:00:00 AM 13.84 56.912 0.101 6.91 2.85 9.88
5/14/2023 6:15:00 AM 13.83 56.894 0.101 6.92 2.86 9.92
5/14/2023 6:30:00 AM 13.82 56.876 0.101 6.93 2.9 9.97
5/14/2023 6:45:00 AM 13.82 56.876 0.1 6.94 3.05 10.05
5/14/2023 7:00:00 AM 13.83 56.894 0.1 6.95 3.68 10.14
5/14/2023 7:15:00 AM 13.84 56.912 0.1 6.97 3.04 10.24
5/14/2023 7:30:00 AM 13.87 56.966 0.1 7 2.96 10.34
5/14/2023 7:45:00 AM 13.9 57.02 0.1 7.02 2.77 10.45
5/14/2023 8:00:00 AM 13.94 57.092 0.099 7.04 3.02 10.55
5/14/2023 8:15:00 AM 13.97 57.146 0.099 7.07 3.6 10.63
5/14/2023 8:30:00 AM 14.02 57.236 0.099 7.09 3.21 10.68
5/14/2023 8:45:00 AM 14.09 57.362 0.099 7.11 3.69 10.73
5/14/2023 9:00:00 AM 14.15 57.47 0.099 7.13 3.2 10.77
5/14/2023 9:15:00 AM 14.21 57.578 0.099 7.15 3.47 10.81
5/14/2023 9:30:00 AM 14.24 57.632 0.099 7.17 2.82 10.84
5/14/2023 9:45:00 AM 14.29 57.722 0.099 7.19 2.82 10.87
5/14/2023 10:00:00 AM 14.37 57.866 0.099 7.21 2.95 10.91
5/14/2023 10:15:00 AM 14.45 58.01 0.099 7.24 2.89 10.96
5/14/2023 10:30:00 AM 14.53 58.154 0.098 7.26 6.44 10.99
5/14/2023 10:45:00 AM 14.64 58.352 0.098 7.28 4.26 11.01
5/14/2023 11:00:00 AM 14.78 58.604 0.098 7.31 3.12 11.02
5/14/2023 11:15:00 AM 14.96 58.928 0.098 7.33 2.67 11.05
5/14/2023 11:30:00 AM 15.12 59.216 0.098 7.35 2.77 11.04
5/14/2023 11:45:00 AM 15.33 59.594 0.098 7.37 2.87 11.04
5/14/2023 12:00:00 PM 15.56 60.008 0.098 7.38 2.86 11.02
5/14/2023 12:15:00 PM 15.78 60.404 0.098 7.4 2.87 11
5/14/2023 12:30:00 PM 16.02 60.836 0.098 7.42 3 10.99
5/14/2023 12:45:00 PM 16.27 61.286 0.098 7.44 3.56 10.97
5/14/2023 1:00:00 PM 16.51 61.718 0.098 7.46 2.92 10.96
5/14/2023 1:15:00 PM 16.76 62.168 0.098 7.48 2.92 10.94
5/14/2023 1:30:00 PM 17.01 62.618 0.099 7.5 2.81 10.92
5/14/2023 1:45:00 PM 17.23 63.014 0.099 7.52 2.72 10.89
5/14/2023 2:00:00 PM 17.5 63.5 0.099 7.55 2.75 10.87
5/14/2023 2:15:00 PM 17.72 63.896 0.099 7.57 2.84 10.83
5/14/2023 2:30:00 PM 17.9 64.22 0.099 7.58 2.83 10.79
5/14/2023 2:45:00 PM 18.09 64.562 0.099 7.6 3.27 10.75
5/14/2023 3:00:00 PM 18.21 64.778 0.099 7.62 2.88 10.71
5/14/2023 3:15:00 PM 18.32 64.976 0.099 7.63 2.85 10.67
5/14/2023 3:30:00 PM 18.39 65.102 0.099 7.63 2.64 10.63
5/14/2023 3:45:00 PM 18.35 65.03 0.099 7.63 2.94 10.6
5/14/2023 4:00:00 PM 18.23 64.814 0.099 7.63 2.8 10.57
5/14/2023 4:15:00 PM 18.06 64.508 0.099 7.63 2.63 10.55
5/14/2023 4:30:00 PM 17.92 64.256 0.099 7.64 2.93 10.55
5/14/2023 4:45:00 PM 17.81 64.058 0.099 7.64 2.84 10.56
5/14/2023 5:00:00 PM 17.71 63.878 0.099 7.64 2.7 10.56
5/14/2023 5:15:00 PM 17.54 63.572 0.099 7.62 2.75 10.54
5/14/2023 5:30:00 PM 17.31 63.158 0.099 7.56 2.77 10.45
5/14/2023 5:45:00 PM 17.1 62.78 0.1 7.5 2.81 10.38
5/14/2023 6:00:00 PM 16.93 62.474 0.1 7.45 2.69 10.32
5/14/2023 6:15:00 PM 16.78 62.204 0.1 7.41 2.75 10.28
5/14/2023 6:30:00 PM 16.64 61.952 0.1 7.37 2.82 10.24
5/14/2023 6:45:00 PM 16.5 61.7 0.1 7.33 3.36 10.2
5/14/2023 7:00:00 PM 16.35 61.43 0.1 7.31 3.22 10.18
5/14/2023 7:15:00 PM 16.2 61.16 0.101 7.28 2.7 10.14
5/14/2023 7:30:00 PM 16.07 60.926 0.101 7.25 3.27 10.09
5/14/2023 7:45:00 PM 15.94 60.692 0.101 7.22 3.16 10.03
5/14/2023 8:00:00 PM 15.84 60.512 0.101 7.18 2.9 9.95
5/14/2023 8:15:00 PM 15.75 60.35 0.101 7.15 2.95 9.86
5/14/2023 8:30:00 PM 15.67 60.206 0.101 7.12 2.9 9.79
5/14/2023 8:45:00 PM 15.59 60.062 0.102 7.09 3.18 9.73
5/14/2023 9:00:00 PM 15.51 59.918 0.102 7.07 3.02 9.69
5/14/2023 9:15:00 PM 15.42 59.756 0.102 7.05 3.18 9.66
5/14/2023 9:30:00 PM 15.31 59.558 0.102 7.04 3.29 9.65
5/14/2023 9:45:00 PM 15.2 59.36 0.102 7.03 3.09 9.64
5/14/2023 10:00:00 PM 15.1 59.18 0.102 7.02 3.06 9.65
5/14/2023 10:15:00 PM 15 59 0.102 7.01 3.1 9.65
5/14/2023 10:30:00 PM 14.91 58.838 0.102 7 3.85 9.65
5/14/2023 10:45:00 PM 14.82 58.676 0.102 6.99 3.39 9.67
5/14/2023 11:00:00 PM 14.74 58.532 0.103 6.98 3.06 9.66
5/14/2023 11:15:00 PM 14.66 58.388 0.104 6.98 3.46 9.68
5/14/2023 11:30:00 PM 14.58 58.244 0.103 6.97 3.11 9.7
5/14/2023 11:45:00 PM 14.51 58.118 0.103 6.97 3.29 9.71
5/15/2023 12:00:00 AM 14.43 57.974 0.103 6.97 3.08 9.72
5/15/2023 12:15:00 AM 14.37 57.866 0.103 6.96 3.19 9.73
5/15/2023 12:30:00 AM 14.3 57.74 0.103 6.96 2.93 9.75
5/15/2023 12:45:00 AM 14.23 57.614 0.103 6.95 3.08 9.77
5/15/2023 1:00:00 AM 14.17 57.506 0.103 6.96 3.22 9.78
5/15/2023 1:15:00 AM 14.11 57.398 0.103 6.95 3.1 9.79
5/15/2023 1:30:00 AM 14.05 57.29 0.103 6.94 3.52 9.8
5/15/2023 1:45:00 AM 13.99 57.182 0.103 6.95 3.12 9.81
5/15/2023 2:00:00 AM 13.93 57.074 0.103 6.95 3.08 9.83
5/15/2023 2:15:00 AM 13.87 56.966 0.103 6.95 3.08 9.84
5/15/2023 2:30:00 AM 13.81 56.858 0.103 6.94 3.06 9.86
5/15/2023 2:45:00 AM 13.75 56.75 0.103 6.94 3.64 9.87
5/15/2023 3:00:00 AM 13.7 56.66 0.103 6.93 3.06 9.89
5/15/2023 3:15:00 AM 13.65 56.57 0.103 6.93 3.05 9.89
5/15/2023 3:30:00 AM 13.59 56.462 0.103 6.93 2.97 9.91
5/15/2023 3:45:00 AM 13.53 56.354 0.104 6.93 3.21 9.92
5/15/2023 4:00:00 AM 13.48 56.264 0.104 6.93 2.93 9.94
5/15/2023 4:15:00 AM 13.42 56.156 0.104 6.93 2.88 9.95
5/15/2023 4:30:00 AM 13.37 56.066 0.104 6.93 3 9.96
5/15/2023 4:45:00 AM 13.32 55.976 0.104 6.93 2.96 9.97
5/15/2023 5:00:00 AM 13.27 55.886 0.104 6.93 4.49 9.98
5/15/2023 5:15:00 AM 13.22 55.796 0.104 6.93 3.16 10
5/15/2023 5:30:00 AM 13.17 55.706 0.104 6.93 3.11 10.01
5/15/2023 5:45:00 AM 13.13 55.634 0.104 6.93 3.2 10.02
5/15/2023 6:00:00 AM 13.08 55.544 0.104 6.93 3.23 10.04
5/15/2023 6:15:00 AM 13.04 55.472 0.104 6.93 3.06 10.09
5/15/2023 6:30:00 AM 13 55.4 0.104 6.94 3.05 10.15
5/15/2023 6:45:00 AM 12.97 55.346 0.103 6.96 2.81 10.22
5/15/2023 7:00:00 AM 12.94 55.292 0.103 6.97 3.22 10.31
5/15/2023 7:15:00 AM 12.92 55.256 0.103 6.99 3.24 10.38
5/15/2023 7:30:00 AM 12.9 55.22 0.104 7 3.1 10.46
5/15/2023 7:45:00 AM 12.9 55.22 0.104 7.01 3.16 10.54
5/15/2023 8:00:00 AM 12.93 55.274 0.103 7.04 3.54 10.63
5/15/2023 8:15:00 AM 12.97 55.346 0.103 7.06 2.95 10.71
5/15/2023 8:30:00 AM 13.02 55.436 0.103 7.08 3.06 10.78
5/15/2023 8:45:00 AM 13.08 55.544 0.103 7.1 3 10.85
5/15/2023 9:00:00 AM 13.13 55.634 0.102 7.12 3.03 10.91
5/15/2023 9:15:00 AM 13.2 55.76 0.103 7.14 3.14 10.96
5/15/2023 9:30:00 AM 13.27 55.886 0.102 7.16 2.66 11
5/15/2023 9:45:00 AM 13.36 56.048 0.102 7.18 2.86 11.05
5/15/2023 10:00:00 AM 13.46 56.228 0.102 7.21 2.68 11.08
5/15/2023 10:15:00 AM 13.58 56.444 0.102 7.23 2.72 11.12
5/15/2023 10:30:00 AM 13.72 56.696 0.102 7.25 2.94 11.15
5/15/2023 10:45:00 AM 13.89 57.002 0.102 7.28 2.79 11.17
5/15/2023 11:00:00 AM 14.06 57.308 0.102 7.31 2.74 11.19
5/15/2023 11:15:00 AM 14.26 57.668 0.101 7.33 2.83 11.2
5/15/2023 11:30:00 AM 14.48 58.064 0.101 7.36 2.94 11.2
5/15/2023 11:45:00 AM 14.72 58.496 0.101 7.38 3.11 11.2
5/15/2023 12:00:00 PM 14.99 58.982 0.101 7.41 2.87 11.17
5/15/2023 12:15:00 PM 15.28 59.504 0.101 7.43 2.85 11.15
5/15/2023 12:30:00 PM 15.59 60.062 0.101 7.46 3.08 11.12
5/15/2023 12:45:00 PM 15.89 60.602 0.101 7.48 2.74 11.1
5/15/2023 1:00:00 PM 16.2 61.16 0.101 7.5 2.92 11.07
5/15/2023 1:15:00 PM 16.5 61.7 0.101 7.53 2.83 11.03
5/15/2023 1:30:00 PM 16.79 62.222 0.101 7.55 2.9 11.01
5/15/2023 1:45:00 PM 17.05 62.69 0.101 7.58 2.83 10.97
5/15/2023 2:00:00 PM 17.3 63.14 0.101 7.6 2.83 10.94
5/15/2023 2:15:00 PM 17.54 63.572 0.101 7.61 2.87 10.9
5/15/2023 2:30:00 PM 17.76 63.968 0.101 7.62 2.74 10.86
5/15/2023 2:45:00 PM 17.95 64.31 0.102 7.63 3.08 10.82
5/15/2023 3:00:00 PM 18.09 64.562 0.102 7.65 2.98 10.79
5/15/2023 3:15:00 PM 18.18 64.724 0.102 7.65 2.98 10.75
5/15/2023 3:30:00 PM 18.21 64.778 0.102 7.66 2.37 10.73
5/15/2023 3:45:00 PM 18.2 64.76 0.102 7.66 2.93 10.72
5/15/2023 4:00:00 PM 18.13 64.634 0.102 7.66 2.89 10.7
5/15/2023 4:15:00 PM 18.03 64.454 0.102 7.65 3.11 10.69
5/15/2023 4:30:00 PM 17.81 64.058 0.102 7.65 2.95 10.67
5/15/2023 4:45:00 PM 17.61 63.698 0.103 7.63 2.98 10.66
5/15/2023 5:00:00 PM 17.41 63.338 0.103 7.62 3.16 10.66
5/15/2023 5:15:00 PM 17.19 62.942 0.103 7.6 2.81 10.66
5/15/2023 5:30:00 PM 16.84 62.312 0.103 7.57 2.9 10.63
5/15/2023 5:45:00 PM 16.6 61.88 0.103 7.54 3.06 10.6
5/15/2023 6:00:00 PM 16.39 61.502 0.103 7.5 2.96 10.57
5/15/2023 6:15:00 PM 16.17 61.106 0.103 7.45 2.94 10.5
5/15/2023 6:30:00 PM 15.96 60.728 0.104 7.41 2.88 10.44
5/15/2023 6:45:00 PM 15.77 60.386 0.104 7.36 2.93 10.39
5/15/2023 7:00:00 PM 15.59 60.062 0.104 7.32 2.78 10.32
5/15/2023 7:15:00 PM 15.42 59.756 0.104 7.28 2.82 10.25
5/15/2023 7:30:00 PM 15.26 59.468 0.105 7.24 3.43 10.19
5/15/2023 7:45:00 PM 15.11 59.198 0.105 7.21 3.02 10.14
5/15/2023 8:00:00 PM 14.98 58.964 0.105 7.18 2.88 10.08
5/15/2023 8:15:00 PM 14.86 58.748 0.105 7.15 2.82 10
5/15/2023 8:30:00 PM 14.75 58.55 0.105 7.12 3.04 9.93
5/15/2023 8:45:00 PM 14.65 58.37 0.105 7.09 2.79 9.88
5/15/2023 9:00:00 PM 14.57 58.226 0.105 7.07 3.03 9.82
5/15/2023 9:15:00 PM 14.51 58.118 0.106 7.06 3.05 9.78
5/15/2023 9:30:00 PM 14.48 58.064 0.106 7.04 3.01 9.74
5/15/2023 9:45:00 PM 14.47 58.046 0.106 7.02 3.02 9.71
5/15/2023 10:00:00 PM 14.47 58.046 0.106 7.01 2.87 9.67
5/15/2023 10:15:00 PM 14.46 58.028 0.106 7.01 3.09 9.65
5/15/2023 10:30:00 PM 14.43 57.974 0.106 7 3.09 9.64
5/15/2023 10:45:00 PM 14.39 57.902 0.106 7 3 9.63
5/15/2023 11:00:00 PM 14.33 57.794 0.106 6.99 3.08 9.64
5/15/2023 11:15:00 PM 14.26 57.668 0.106 6.98 3.19 9.65
5/15/2023 11:30:00 PM 14.19 57.542 0.106 6.98 3.88 9.65
5/15/2023 11:45:00 PM 14.12 57.416 0.106 6.98 2.9 9.67
5/16/2023 12:00:00 AM 14.06 57.308 0.106 6.97 2.99 9.67
5/16/2023 12:15:00 AM 14 57.2 0.106 6.97 3 9.69
5/16/2023 12:30:00 AM 13.94 57.092 0.106 6.97 2.86 9.7
5/16/2023 12:45:00 AM 13.89 57.002 0.106 6.96 3.25 9.71
5/16/2023 1:00:00 AM 13.85 56.93 0.106 6.96 3.51 9.71
5/16/2023 1:15:00 AM 13.82 56.876 0.106 6.96 3.32 9.72
5/16/2023 1:30:00 AM 13.79 56.822 0.106 6.96 2.92 9.72
5/16/2023 1:45:00 AM 13.76 56.768 0.105 6.95 3.04 9.72
5/16/2023 2:00:00 AM 13.74 56.732 0.105 6.95 3.41 9.73
5/16/2023 2:15:00 AM 13.71 56.678 0.105 6.94 2.82 9.73
5/16/2023 2:30:00 AM 13.69 56.642 0.106 6.94 2.81 9.73
5/16/2023 2:45:00 AM 13.68 56.624 0.105 6.94 2.85 9.74
5/16/2023 3:00:00 AM 13.66 56.588 0.105 6.94 3.05 9.73
5/16/2023 3:15:00 AM 13.64 56.552 0.105 6.93 4.23 9.74
5/16/2023 3:30:00 AM 13.63 56.534 0.105 6.93 2.81 9.74
5/16/2023 3:45:00 AM 13.62 56.516 0.105 6.93 2.81 9.74
5/16/2023 4:00:00 AM 13.61 56.498 0.105 6.93 2.93 9.74
5/16/2023 4:15:00 AM 13.58 56.444 0.105 6.93 2.72 9.74
5/16/2023 4:30:00 AM 13.56 56.408 0.105 6.93 2.8 9.74
5/16/2023 4:45:00 AM 13.53 56.354 0.105 6.93 2.68 9.74
5/16/2023 5:00:00 AM 13.5 56.3 0.105 6.93 2.9 9.76
5/16/2023 5:15:00 AM 13.46 56.228 0.105 6.92 2.95 9.76
5/16/2023 5:30:00 AM 13.42 56.156 0.105 6.92 2.72 9.77
5/16/2023 5:45:00 AM 13.39 56.102 0.105 6.92 2.78 9.78
5/16/2023 6:00:00 AM 13.35 56.03 0.105 6.93 2.59 9.8
5/16/2023 6:15:00 AM 13.32 55.976 0.105 6.94 2.81 9.85
5/16/2023 6:30:00 AM 13.29 55.922 0.105 6.94 3.04 9.91
5/16/2023 6:45:00 AM 13.27 55.886 0.105 6.96 3.01 9.98
5/16/2023 7:00:00 AM 13.25 55.85 0.105 6.97 2.7 10.06
5/16/2023 7:15:00 AM 13.23 55.814 0.105 6.98 2.83 10.11
5/16/2023 7:30:00 AM 13.21 55.778 0.104 7 2.66 10.2
5/16/2023 7:45:00 AM 13.21 55.778 0.104 7.02 2.78 10.28
5/16/2023 8:00:00 AM 13.24 55.832 0.104 7.04 2.63 10.37
5/16/2023 8:15:00 AM 13.27 55.886 0.104 7.05 2.71 10.45
5/16/2023 8:30:00 AM 13.33 55.994 0.104 7.07 2.73 10.51
5/16/2023 8:45:00 AM 13.38 56.084 0.104 7.09 2.57 10.57
5/16/2023 9:00:00 AM 13.45 56.21 0.104 7.11 3.07 10.62
5/16/2023 9:15:00 AM 13.53 56.354 0.104 7.13 2.66 10.68
5/16/2023 9:30:00 AM 13.62 56.516 0.103 7.16 2.51 10.73
5/16/2023 9:45:00 AM 13.71 56.678 0.103 7.18 2.75 10.76
5/16/2023 10:00:00 AM 13.81 56.858 0.103 7.19 2.69 10.79
5/16/2023 10:15:00 AM 13.95 57.11 0.103 7.21 2.49 10.82
5/16/2023 10:30:00 AM 14.08 57.344 0.103 7.24 2.5 10.85
5/16/2023 10:45:00 AM 14.25 57.65 0.103 7.26 2.5 10.87
5/16/2023 11:00:00 AM 14.45 58.01 0.103 7.29 2.71 10.89
5/16/2023 11:15:00 AM 14.64 58.352 0.103 7.32 2.48 10.91
5/16/2023 11:30:00 AM 14.84 58.712 0.103 7.35 2.56 10.9
5/16/2023 11:45:00 AM 15.1 59.18 0.102 7.38 2.59 10.91
5/16/2023 12:00:00 PM 15.32 59.576 0.102 7.4 2.6 10.9
5/16/2023 12:15:00 PM 15.56 60.008 0.102 7.43 2.53 10.9
5/16/2023 12:30:00 PM 15.84 60.512 0.102 7.46 2.79 10.88
5/16/2023 12:45:00 PM 16.07 60.926 0.102 7.49 2.63 10.87
5/16/2023 1:00:00 PM 16.31 61.358 0.102 7.52 2.56 10.84
5/16/2023 1:15:00 PM 16.59 61.862 0.102 7.54 2.59 10.81
5/16/2023 1:30:00 PM 16.88 62.384 0.102 7.56 2.53 10.78
5/16/2023 1:45:00 PM 17.14 62.852 0.102 7.59 2.51 10.75
5/16/2023 2:00:00 PM 17.45 63.41 0.103 7.61 2.53 10.72
5/16/2023 2:15:00 PM 17.5 63.5 0.103 7.61 2.61 10.66
5/16/2023 2:30:00 PM 17.59 63.662 0.103 7.62 2.59 10.64
5/16/2023 2:45:00 PM 17.62 63.716 0.103 7.64 2.76 10.63
5/16/2023 3:00:00 PM 17.69 63.842 0.103 7.65 2.7 10.62
5/16/2023 3:15:00 PM 17.72 63.896 0.103 7.67 2.6 10.62
5/16/2023 3:30:00 PM 17.49 63.482 0.103 7.66 5.35 10.6
5/16/2023 3:45:00 PM 17.41 63.338 0.103 7.67 2.72 10.62
5/16/2023 4:00:00 PM 17.4 63.32 0.103 7.68 2.54 10.62
5/16/2023 4:15:00 PM 17.23 63.014 0.103 7.68 2.65 10.6
5/16/2023 4:30:00 PM 17.11 62.798 0.103 7.67 2.76 10.61
5/16/2023 4:45:00 PM 16.91 62.438 0.104 7.66 2.57 10.6
5/16/2023 5:00:00 PM 16.74 62.132 0.104 7.65 2.53 10.59
5/16/2023 5:15:00 PM 16.62 61.916 0.104 7.64 2.73 10.6
5/16/2023 5:30:00 PM 16.43 61.574 0.104 7.61 2.55 10.56
5/16/2023 5:45:00 PM 16.26 61.268 0.104 7.58 2.57 10.53
5/16/2023 6:00:00 PM 16.15 61.07 0.104 7.55 2.65 10.52
5/16/2023 6:15:00 PM 16 60.8 0.104 7.53 2.65 10.48
5/16/2023 6:30:00 PM 15.87 60.566 0.104 7.49 2.79 10.44
5/16/2023 6:45:00 PM 15.7 60.26 0.104 7.45 2.76 10.4
5/16/2023 7:00:00 PM 15.58 60.044 0.105 7.42 2.7 10.37
5/16/2023 7:15:00 PM 15.44 59.792 0.105 7.38 2.67 10.32
5/16/2023 7:30:00 PM 15.3 59.54 0.105 7.34 2.64 10.25
5/16/2023 7:45:00 PM 15.15 59.27 0.105 7.29 2.87 10.14
5/16/2023 8:00:00 PM 15.04 59.072 0.105 7.24 2.75 10.04
5/16/2023 8:15:00 PM 14.93 58.874 0.106 7.2 2.59 9.94
5/16/2023 8:30:00 PM 14.84 58.712 0.106 7.16 2.65 9.84
5/16/2023 8:45:00 PM 14.76 58.568 0.106 7.13 2.8 9.76
5/16/2023 9:00:00 PM 14.7 58.46 0.106 7.1 2.67 9.71
5/16/2023 9:15:00 PM 14.67 58.406 0.106 7.08 2.78 9.66
5/16/2023 9:30:00 PM 14.66 58.388 0.106 7.06 2.74 9.59
5/16/2023 9:45:00 PM 14.67 58.406 0.107 7.05 2.72 9.55
5/16/2023 10:00:00 PM 14.7 58.46 0.107 7.04 2.75 9.51
5/16/2023 10:15:00 PM 14.73 58.514 0.106 7.03 2.58 9.46
5/16/2023 10:30:00 PM 14.76 58.568 0.107 7.02 2.61 9.43
5/16/2023 10:45:00 PM 14.79 58.622 0.107 7.02 2.36 9.39
5/16/2023 11:00:00 PM 14.8 58.64 0.107 7.01 2.37 9.38
5/16/2023 11:15:00 PM 14.79 58.622 0.107 7.01 2.49 9.38
5/16/2023 11:30:00 PM 14.77 58.586 0.107 7.01 2.52 9.37
5/16/2023 11:45:00 PM 14.73 58.514 0.107 7 2.62 9.37
5/17/2023 12:00:00 AM 14.68 58.424 0.107 6.99 2.5 9.38
5/17/2023 12:15:00 AM 14.61 58.298 0.107 6.98 3.61 9.39
5/17/2023 12:30:00 AM 14.54 58.172 0.107 6.98 3.05 9.41
5/17/2023 12:45:00 AM 14.46 58.028 0.107 6.97 2.69 9.43
5/17/2023 1:00:00 AM 14.39 57.902 0.107 6.97 2.65 9.45
5/17/2023 1:15:00 AM 14.33 57.794 0.107 6.97 2.62 9.47
5/17/2023 1:30:00 AM 14.26 57.668 0.107 6.97 2.46 9.48
5/17/2023 1:45:00 AM 14.2 57.56 0.107 6.97 2.52 9.5
5/17/2023 2:00:00 AM 14.14 57.452 0.107 6.96 2.5 9.52
5/17/2023 2:15:00 AM 14.07 57.326 0.107 6.96 2.7 9.53
5/17/2023 2:30:00 AM 14.02 57.236 0.108 6.96 2.52 9.55
5/17/2023 2:45:00 AM 13.96 57.128 0.107 6.96 2.52 9.57
5/17/2023 3:00:00 AM 13.91 57.038 0.107 6.96 2.58 9.57
5/17/2023 3:15:00 AM 13.87 56.966 0.108 6.96 4.04 9.58
5/17/2023 3:30:00 AM 13.84 56.912 0.108 6.96 2.5 9.59
5/17/2023 3:45:00 AM 13.8 56.84 0.108 6.95 2.44 9.6
5/17/2023 4:00:00 AM 13.78 56.804 0.108 6.95 2.56 9.61
5/17/2023 4:15:00 AM 13.79 56.822 0.108 6.95 2.41 9.62
5/17/2023 4:30:00 AM 13.78 56.804 0.108 6.95 2.49 9.62
5/17/2023 4:45:00 AM 13.78 56.804 0.108 6.95 2.61 9.63
5/17/2023 5:00:00 AM 13.77 56.786 0.108 6.96 2.58 9.63
5/17/2023 5:15:00 AM 13.73 56.714 0.108 6.95 2.8 9.64
5/17/2023 5:30:00 AM 13.71 56.678 0.108 6.95 2.63 9.65
5/17/2023 5:45:00 AM 13.68 56.624 0.108 6.96 2.57 9.65
5/17/2023 6:00:00 AM 13.67 56.606 0.108 6.96 2.54 9.68
5/17/2023 6:15:00 AM 13.66 56.588 0.108 6.96 2.48 9.72
5/17/2023 6:30:00 AM 13.64 56.552 0.108 6.97 2.36 9.77
5/17/2023 6:45:00 AM 13.64 56.552 0.108 6.98 2.51 9.85
5/17/2023 7:00:00 AM 13.63 56.534 0.108 6.99 2.43 9.93
5/17/2023 7:15:00 AM 13.66 56.588 0.108 7.01 2.34 10.02
5/17/2023 7:30:00 AM 13.7 56.66 0.108 7.03 2.45 10.12
5/17/2023 7:45:00 AM 13.73 56.714 0.108 7.05 2.5 10.21
5/17/2023 8:00:00 AM 13.72 56.696 0.108 7.06 2.41 10.24
5/17/2023 8:15:00 AM 13.73 56.714 0.108 7.08 2.35 10.29
5/17/2023 8:30:00 AM 13.81 56.858 0.108 7.1 2.29 10.37
5/17/2023 8:45:00 AM 13.79 56.822 0.108 7.12 2.31 10.41
5/17/2023 9:00:00 AM 13.83 56.894 0.108 7.14 2.3 10.48
5/17/2023 9:15:00 AM 13.88 56.984 0.108 7.15 2.3 10.55
5/17/2023 9:30:00 AM 13.94 57.092 0.108 7.17 2.39 10.6
5/17/2023 9:45:00 AM 13.97 57.146 0.108 7.19 2.44 10.66
5/17/2023 10:00:00 AM 14.02 57.236 0.109 7.2 2.35 10.69
5/17/2023 10:15:00 AM 14.08 57.344 0.109 7.22 2.31 10.71
5/17/2023 10:30:00 AM 14.13 57.434 0.109 7.24 2.38 10.73
5/17/2023 10:45:00 AM 14.2 57.56 0.109 7.24 2.34 10.76
5/17/2023 11:00:00 AM 14.31 57.758 0.109 7.26 2.28 10.77
5/17/2023 11:15:00 AM 14.42 57.956 0.109 7.27 2.41 10.79
5/17/2023 11:30:00 AM 14.55 58.19 0.109 7.29 2.33 10.81
5/17/2023 11:45:00 AM 14.74 58.532 0.109 7.3 2.29 10.82
5/17/2023 12:00:00 PM 14.97 58.946 0.109 7.32 2.36 10.82
5/17/2023 12:15:00 PM 15.24 59.432 0.109 7.33 2.28 10.8
5/17/2023 12:30:00 PM 15.53 59.954 0.109 7.35 3.07 10.79
5/17/2023 12:45:00 PM 15.81 60.458 0.11 7.37 2.49 10.77
5/17/2023 1:00:00 PM 16.12 61.016 0.11 7.39 2.41 10.75
5/17/2023 1:15:00 PM 16.41 61.538 0.11 7.41 2.28 10.72
5/17/2023 1:30:00 PM 16.71 62.078 0.11 7.43 2.46 10.69
5/17/2023 1:45:00 PM 16.98 62.564 0.11 7.44 2.47 10.66
5/17/2023 2:00:00 PM 17.25 63.05 0.11 7.46 2.56 10.62
5/17/2023 2:15:00 PM 17.5 63.5 0.11 7.47 2.51 10.59
5/17/2023 2:30:00 PM 17.71 63.878 0.11 7.48 2.3 10.56
5/17/2023 2:45:00 PM 17.88 64.184 0.11 7.49 2.35 10.53
5/17/2023 3:00:00 PM 18.01 64.418 0.111 7.5 2.37 10.5
5/17/2023 3:15:00 PM 18.12 64.616 0.111 7.51 2.27 10.47
5/17/2023 3:30:00 PM 18.13 64.634 0.111 7.52 2.25 10.46
5/17/2023 3:45:00 PM 18.09 64.562 0.111 7.53 2.36 10.44
5/17/2023 4:00:00 PM 18 64.4 0.111 7.54 2.39 10.43
5/17/2023 4:15:00 PM 17.9 64.22 0.111 7.54 2.54 10.42
5/17/2023 4:30:00 PM 17.76 63.968 0.111 7.54 2.26 10.41
5/17/2023 4:45:00 PM 17.57 63.626 0.111 7.53 2.31 10.42
5/17/2023 5:00:00 PM 17.32 63.176 0.111 7.53 2.41 10.41
5/17/2023 5:15:00 PM 17.08 62.744 0.111 7.52 2.38 10.4
5/17/2023 5:30:00 PM 16.77 62.186 0.111 7.51 2.33 10.39
5/17/2023 5:45:00 PM 16.51 61.718 0.111 7.49 2.32 10.39
5/17/2023 6:00:00 PM 16.3 61.34 0.111 7.48 2.41 10.38
5/17/2023 6:15:00 PM 16.12 61.016 0.111 7.45 2.46 10.37
5/17/2023 6:30:00 PM 15.94 60.692 0.111 7.43 2.33 10.35
5/17/2023 6:45:00 PM 15.78 60.404 0.112 7.41 2.26 10.32
5/17/2023 7:00:00 PM 15.61 60.098 0.112 7.37 2.46 10.29
5/17/2023 7:15:00 PM 15.43 59.774 0.112 7.34 2.81 10.24
5/17/2023 7:30:00 PM 15.26 59.468 0.112 7.3 2.33 10.19
5/17/2023 7:45:00 PM 15.06 59.108 0.112 7.26 2.59 10.13
5/17/2023 8:00:00 PM 14.91 58.838 0.113 7.23 2.4 10.07
5/17/2023 8:15:00 PM 14.75 58.55 0.113 7.19 2.33 9.99
5/17/2023 8:30:00 PM 14.61 58.298 0.113 7.16 2.48 9.92
5/17/2023 8:45:00 PM 14.45 58.01 0.113 7.13 2.38 9.87
5/17/2023 9:00:00 PM 14.3 57.74 0.114 7.1 2.53 9.85
5/17/2023 9:15:00 PM 14.15 57.47 0.114 7.08 2.55 9.83
5/17/2023 9:30:00 PM 14.01 57.218 0.114 7.07 2.55 9.82
5/17/2023 9:45:00 PM 13.87 56.966 0.114 7.06 2.5 9.83
5/17/2023 10:00:00 PM 13.73 56.714 0.114 7.05 2.59 9.84
5/17/2023 10:15:00 PM 13.6 56.48 0.114 7.04 2.54 9.86
5/17/2023 10:30:00 PM 13.48 56.264 0.115 7.04 2.53 9.87
5/17/2023 10:45:00 PM 13.37 56.066 0.115 7.02 2.47 9.87
5/17/2023 11:00:00 PM 13.27 55.886 0.115 7.02 2.4 9.89
5/17/2023 11:15:00 PM 13.18 55.724 0.115 7.01 2.46 9.91
5/17/2023 11:30:00 PM 13.09 55.562 0.115 7.01 2.54 9.92
5/17/2023 11:45:00 PM 13.01 55.418 0.115 7 2.52 9.93
5/18/2023 12:00:00 AM 12.93 55.274 0.116 7 2.51 9.95
5/18/2023 12:15:00 AM 12.85 55.13 0.116 6.99 2.51 9.97
5/18/2023 12:30:00 AM 12.78 55.004 0.116 6.99 2.45 9.98
5/18/2023 12:45:00 AM 12.71 54.878 0.116 6.99 2.44 10
5/18/2023 1:00:00 AM 12.65 54.77 0.116 6.98 2.36 10.01
5/18/2023 1:15:00 AM 12.59 54.662 0.116 6.96 2.38 10.03
5/18/2023 1:30:00 AM 12.53 54.554 0.116 6.95 2.8 10.04
5/18/2023 1:45:00 AM 12.47 54.446 0.116 6.94 2.42 10.06
5/18/2023 2:00:00 AM 12.42 54.356 0.116 6.93 2.37 10.07
5/18/2023 2:15:00 AM 12.37 54.266 0.116 6.93 2.5 10.08
5/18/2023 2:30:00 AM 12.31 54.158 0.116 6.93 2.52 10.1
5/18/2023 2:45:00 AM 12.26 54.068 0.116 6.93 2.43 10.11
5/18/2023 3:00:00 AM 12.21 53.978 0.115 6.93 2.39 10.12
5/18/2023 3:15:00 AM 12.16 53.888 0.116 6.93 2.47 10.13
5/18/2023 3:30:00 AM 12.12 53.816 0.115 6.93 2.51 10.15
5/18/2023 3:45:00 AM 12.07 53.726 0.115 6.94 2.45 10.16
5/18/2023 4:00:00 AM 12.02 53.636 0.115 6.94 2.42 10.17
5/18/2023 4:15:00 AM 11.98 53.564 0.115 6.94 3.07 10.19
5/18/2023 4:30:00 AM 11.93 53.474 0.115 6.94 2.35 10.2
5/18/2023 4:45:00 AM 11.89 53.402 0.115 6.94 2.54 10.21
5/18/2023 5:00:00 AM 11.85 53.33 0.115 6.93 2.43 10.22
5/18/2023 5:15:00 AM 11.81 53.258 0.115 6.93 6.17 10.23
5/18/2023 5:30:00 AM 11.76 53.168 0.115 6.93 2.97 10.24
5/18/2023 5:45:00 AM 11.72 53.096 0.115 6.93 3.7 10.25
5/18/2023 6:00:00 AM 11.68 53.024 0.114 6.93 6.5 10.28
5/18/2023 6:15:00 AM 11.64 52.952 0.114 6.94 7.62 10.32
5/18/2023 6:30:00 AM 11.62 52.916 0.114 6.96 3.61 10.39
5/18/2023 6:45:00 AM 11.59 52.862 0.114 6.97 2.69 10.47
5/18/2023 7:00:00 AM 11.58 52.844 0.114 6.98 2.57 10.54
5/18/2023 7:15:00 AM 11.57 52.826 0.114 7 5.24 10.62
5/18/2023 7:30:00 AM 11.56 52.808 0.114 7.02 2.91 10.7
5/18/2023 7:45:00 AM 11.57 52.826 0.114 7.03 3.16 10.79
5/18/2023 8:00:00 AM 11.61 52.898 0.113 7.05 3.67 10.86
5/18/2023 8:15:00 AM 11.65 52.97 0.113 7.07 3.15 10.93
5/18/2023 8:30:00 AM 11.71 53.078 0.113 7.09 5.07 10.99
5/18/2023 8:45:00 AM 11.78 53.204 0.113 7.11 2.64 11.05
5/18/2023 9:00:00 AM 11.86 53.348 0.113 7.13 2.72 11.09
5/18/2023 9:15:00 AM 11.93 53.474 0.113 7.15 3.12 11.14
5/18/2023 9:30:00 AM 12.01 53.618 0.113 7.17 3.43 11.17
5/18/2023 9:45:00 AM 12.12 53.816 0.113 7.18 6.44 11.2
5/18/2023 10:00:00 AM 12.23 54.014 0.112 7.2 2.55 11.23
5/18/2023 10:15:00 AM 12.33 54.194 0.112 7.22 2.5 11.25
5/18/2023 10:30:00 AM 12.46 54.428 0.112 7.23 2.59 11.27
5/18/2023 10:45:00 AM 12.6 54.68 0.112 7.25 2.22 11.28
5/18/2023 11:00:00 AM 12.78 55.004 0.112 7.27 2.62 11.28
5/18/2023 11:15:00 AM 13 55.4 0.112 7.28 8.39 11.28
5/18/2023 11:30:00 AM 13.24 55.832 0.112 7.3 2.79 11.27
5/18/2023 11:45:00 AM 13.5 56.3 0.112 7.32 2.5 11.26
5/18/2023 12:00:00 PM 13.8 56.84 0.112 7.35 4.81 11.24
5/18/2023 12:15:00 PM 14.11 57.398 0.112 7.36 2.68 11.2
5/18/2023 12:30:00 PM 14.44 57.992 0.112 7.38 2.57 11.17
5/18/2023 12:45:00 PM 14.79 58.622 0.112 7.39 2.7 11.13
5/18/2023 1:00:00 PM 15.17 59.306 0.112 7.41 2.47 11.09
5/18/2023 1:15:00 PM 15.53 59.954 0.112 7.41 3.58 11.03
5/18/2023 1:30:00 PM 15.88 60.584 0.112 7.43 3.02 10.99
5/18/2023 1:45:00 PM 16.22 61.196 0.112 7.45 3.68 10.94
5/18/2023 2:00:00 PM 16.55 61.79 0.112 7.46 2.72 10.88
5/18/2023 2:15:00 PM 16.86 62.348 0.112 7.47 3.68 10.83
5/18/2023 2:30:00 PM 17.12 62.816 0.112 7.48 5 10.79
5/18/2023 2:45:00 PM 17.35 63.23 0.113 7.49 3.5 10.76
5/18/2023 3:00:00 PM 17.52 63.536 0.113 7.5 4.54 10.7
5/18/2023 3:15:00 PM 17.67 63.806 0.113 7.5 2.98 10.68
5/18/2023 3:30:00 PM 17.76 63.968 0.113 7.5 3.27 10.64
5/18/2023 3:45:00 PM 17.77 63.986 0.113 7.5 2.48 10.61
5/18/2023 4:00:00 PM 17.74 63.932 0.113 7.5 2.9 10.58
5/18/2023 4:15:00 PM 17.67 63.806 0.113 7.5 28.19 10.56
5/18/2023 4:30:00 PM 17.54 63.572 0.113 7.49 3.87 10.54
5/18/2023 4:45:00 PM 17.39 63.302 0.113 7.48 5.83 10.51
5/18/2023 5:00:00 PM 17.19 62.942 0.113 7.47 4.82 10.48
5/18/2023 5:15:00 PM 16.94 62.492 0.114 7.45 3.99 10.47
5/18/2023 5:30:00 PM 16.58 61.844 0.114 7.42 6.18 10.4
5/18/2023 5:45:00 PM 16.29 61.322 0.114 7.39 3.2 10.36
5/18/2023 6:00:00 PM 16.07 60.926 0.114 7.36 3.08 10.34
5/18/2023 6:15:00 PM 15.87 60.566 0.114 7.33 3.04 10.31
5/18/2023 6:30:00 PM 15.7 60.26 0.114 7.31 3 10.3
5/18/2023 6:45:00 PM 15.52 59.936 0.114 7.29 3.81 10.28
5/18/2023 7:00:00 PM 15.36 59.648 0.114 7.27 2.99 10.25

These are provisional data and have not been subject to a quality assurance process, but rather are the raw data reported by the instrument.
H: value is above sensor operating range
L: value is below sensor operating range
Offline: station is not reporting data
NC: parameter is not collected at site

Data Availability & Limitations

Uncertainty and potential for error can be associated with environmental monitoring data. Provisional data have not been subject to a quality assurance process, but rather are the raw data reported by the instrument. Data users are cautioned to consider carefully the provisional nature of the information before using it for decisions that concern personal or public safety or the conduct of business that involves substantial monetary or operational consequences.

Approved data are currently available by request by emailing: [email protected]. Approved data have been subject to a quality assurance process to correct for equipment or fouling drift. Data recorded during equipment malfunctions have been removed.

View Historical Stations that have been discontinued.